<?xml version="1.0" encoding="UTF-8" standalone="no" ?>
<gpx xmlns="http://www.topografix.com/GPX/1/1" xmlns:xsi="http://www.w3.org/2001/XMLSchema-instance" xsi:schemaLocation="http://www.topografix.com/GPX/1/1 http://www.topografix.com/GPX/1/1/gpx.xsd" version="1.1" creator="VisuGPX - https://www.visugpx.com">
  <metadata>
    <name>Le tour de l'Ile de France étape 12/30 De Malesherbes (Loiret) à Bois-le-Roi (77) Jour 2</name>
    <desc><![CDATA[Randonnée de 22 km en ligne jusqu'à la gare de Bois-le-Roi.
Départ de l'hôtel de l'Écu de France par Taxi jusqu'à Bois Rond]]></desc>
  </metadata>
  <trk>
    <name><![CDATA[12 De Malsherbes à Bois le Roi Jour 2 _R]]></name>
    <trkseg>
      <trkpt lat="48.3876" lon="2.5621">
        <ele>56.87</ele>
        <time>2019-05-18T06:39:28Z</time>
      </trkpt>
      <trkpt lat="48.3876" lon="2.5621">
        <ele>56.87</ele>
        <time>2019-05-18T06:39:29Z</time>
      </trkpt>
      <trkpt lat="48.3876" lon="2.5621">
        <ele>78.13</ele>
        <time>2019-05-18T06:39:32Z</time>
      </trkpt>
      <trkpt lat="48.3876" lon="2.5621">
        <ele>78.13</ele>
        <time>2019-05-18T06:39:33Z</time>
      </trkpt>
      <trkpt lat="48.38759" lon="2.5621">
        <ele>77.41</ele>
        <time>2019-05-18T06:39:58Z</time>
      </trkpt>
      <trkpt lat="48.38759" lon="2.56211">
        <ele>77.45</ele>
        <time>2019-05-18T06:40:26Z</time>
      </trkpt>
      <trkpt lat="48.3876" lon="2.56211">
        <ele>77.67</ele>
        <time>2019-05-18T06:40:53Z</time>
      </trkpt>
      <trkpt lat="48.3876" lon="2.56211">
        <ele>77.77</ele>
        <time>2019-05-18T06:41:22Z</time>
      </trkpt>
      <trkpt lat="48.38758" lon="2.56218">
        <ele>78.06</ele>
        <time>2019-05-18T06:41:49Z</time>
      </trkpt>
      <trkpt lat="48.38752" lon="2.56232">
        <ele>77.36</ele>
        <time>2019-05-18T06:42:06Z</time>
      </trkpt>
      <trkpt lat="48.38751" lon="2.56235">
        <ele>77.47</ele>
        <time>2019-05-18T06:42:09Z</time>
      </trkpt>
      <trkpt lat="48.3875" lon="2.56237">
        <ele>77.28</ele>
        <time>2019-05-18T06:42:10Z</time>
      </trkpt>
      <trkpt lat="48.38742" lon="2.56257">
        <ele>76.61</ele>
        <time>2019-05-18T06:42:25Z</time>
      </trkpt>
      <trkpt lat="48.38733" lon="2.56276">
        <ele>76.69</ele>
        <time>2019-05-18T06:42:39Z</time>
      </trkpt>
      <trkpt lat="48.38733" lon="2.56302">
        <ele>76.57</ele>
        <time>2019-05-18T06:42:55Z</time>
      </trkpt>
      <trkpt lat="48.3873" lon="2.56321">
        <ele>77.06</ele>
        <time>2019-05-18T06:43:08Z</time>
      </trkpt>
      <trkpt lat="48.38724" lon="2.5634">
        <ele>77.25</ele>
        <time>2019-05-18T06:43:21Z</time>
      </trkpt>
      <trkpt lat="48.3871" lon="2.56354">
        <ele>76.64</ele>
        <time>2019-05-18T06:43:36Z</time>
      </trkpt>
      <trkpt lat="48.38702" lon="2.56363">
        <ele>76.65</ele>
        <time>2019-05-18T06:43:44Z</time>
      </trkpt>
      <trkpt lat="48.38694" lon="2.56379">
        <ele>76.82</ele>
        <time>2019-05-18T06:43:59Z</time>
      </trkpt>
      <trkpt lat="48.38683" lon="2.56404">
        <ele>76.78</ele>
        <time>2019-05-18T06:44:18Z</time>
      </trkpt>
      <trkpt lat="48.38676" lon="2.56431">
        <ele>76.43</ele>
        <time>2019-05-18T06:44:38Z</time>
      </trkpt>
      <trkpt lat="48.38664" lon="2.56456">
        <ele>76.65</ele>
        <time>2019-05-18T06:44:55Z</time>
      </trkpt>
      <trkpt lat="48.38662" lon="2.56465">
        <ele>76.55</ele>
        <time>2019-05-18T06:45:02Z</time>
      </trkpt>
      <trkpt lat="48.38655" lon="2.56487">
        <ele>76.67</ele>
        <time>2019-05-18T06:45:17Z</time>
      </trkpt>
      <trkpt lat="48.38652" lon="2.56494">
        <ele>76.41</ele>
        <time>2019-05-18T06:45:40Z</time>
      </trkpt>
      <trkpt lat="48.38647" lon="2.56504">
        <ele>75.62</ele>
        <time>2019-05-18T06:45:56Z</time>
      </trkpt>
      <trkpt lat="48.38642" lon="2.56516">
        <ele>75.87</ele>
        <time>2019-05-18T06:46:06Z</time>
      </trkpt>
      <trkpt lat="48.3864" lon="2.56535">
        <ele>76.55</ele>
        <time>2019-05-18T06:46:23Z</time>
      </trkpt>
      <trkpt lat="48.38634" lon="2.56554">
        <ele>76.58</ele>
        <time>2019-05-18T06:46:36Z</time>
      </trkpt>
      <trkpt lat="48.38631" lon="2.56561">
        <ele>76.18</ele>
        <time>2019-05-18T06:46:42Z</time>
      </trkpt>
      <trkpt lat="48.38628" lon="2.56571">
        <ele>76.14</ele>
        <time>2019-05-18T06:46:47Z</time>
      </trkpt>
      <trkpt lat="48.38623" lon="2.56585">
        <ele>76.66</ele>
        <time>2019-05-18T06:46:55Z</time>
      </trkpt>
      <trkpt lat="48.38621" lon="2.56589">
        <ele>76.61</ele>
        <time>2019-05-18T06:46:58Z</time>
      </trkpt>
      <trkpt lat="48.38616" lon="2.56617">
        <ele>76.56</ele>
        <time>2019-05-18T06:47:15Z</time>
      </trkpt>
      <trkpt lat="48.38607" lon="2.56648">
        <ele>76.3</ele>
        <time>2019-05-18T06:47:34Z</time>
      </trkpt>
      <trkpt lat="48.38605" lon="2.5667">
        <ele>76.39</ele>
        <time>2019-05-18T06:47:47Z</time>
      </trkpt>
      <trkpt lat="48.38601" lon="2.56697">
        <ele>76.96</ele>
        <time>2019-05-18T06:48:02Z</time>
      </trkpt>
      <trkpt lat="48.38599" lon="2.56721">
        <ele>76.76</ele>
        <time>2019-05-18T06:48:16Z</time>
      </trkpt>
      <trkpt lat="48.38597" lon="2.56745">
        <ele>76.67</ele>
        <time>2019-05-18T06:48:31Z</time>
      </trkpt>
      <trkpt lat="48.38597" lon="2.5675">
        <ele>76.85</ele>
        <time>2019-05-18T06:48:34Z</time>
      </trkpt>
      <trkpt lat="48.386" lon="2.56768">
        <ele>76.73</ele>
        <time>2019-05-18T06:48:45Z</time>
      </trkpt>
      <trkpt lat="48.38608" lon="2.56797">
        <ele>76.21</ele>
        <time>2019-05-18T06:49:01Z</time>
      </trkpt>
      <trkpt lat="48.38611" lon="2.56835">
        <ele>76.74</ele>
        <time>2019-05-18T06:49:23Z</time>
      </trkpt>
      <trkpt lat="48.38613" lon="2.56865">
        <ele>76.25</ele>
        <time>2019-05-18T06:49:44Z</time>
      </trkpt>
      <trkpt lat="48.38612" lon="2.5687">
        <ele>76.9</ele>
        <time>2019-05-18T06:49:47Z</time>
      </trkpt>
      <trkpt lat="48.38609" lon="2.5688">
        <ele>76.54</ele>
        <time>2019-05-18T06:49:51Z</time>
      </trkpt>
      <trkpt lat="48.38598" lon="2.56914">
        <ele>76.59</ele>
        <time>2019-05-18T06:50:07Z</time>
      </trkpt>
      <trkpt lat="48.38589" lon="2.56937">
        <ele>76.13</ele>
        <time>2019-05-18T06:50:22Z</time>
      </trkpt>
      <trkpt lat="48.38579" lon="2.56961">
        <ele>76.05</ele>
        <time>2019-05-18T06:50:36Z</time>
      </trkpt>
      <trkpt lat="48.38569" lon="2.56984">
        <ele>76.51</ele>
        <time>2019-05-18T06:50:55Z</time>
      </trkpt>
      <trkpt lat="48.38567" lon="2.56994">
        <ele>76.07</ele>
        <time>2019-05-18T06:51:15Z</time>
      </trkpt>
      <trkpt lat="48.38567" lon="2.56996">
        <ele>76.37</ele>
        <time>2019-05-18T06:51:20Z</time>
      </trkpt>
      <trkpt lat="48.38563" lon="2.57004">
        <ele>75.96</ele>
        <time>2019-05-18T06:51:42Z</time>
      </trkpt>
      <trkpt lat="48.38557" lon="2.57009">
        <ele>76.22</ele>
        <time>2019-05-18T06:52:05Z</time>
      </trkpt>
      <trkpt lat="48.38544" lon="2.57026">
        <ele>76.51</ele>
        <time>2019-05-18T06:52:26Z</time>
      </trkpt>
      <trkpt lat="48.38536" lon="2.57056">
        <ele>76.88</ele>
        <time>2019-05-18T06:52:48Z</time>
      </trkpt>
      <trkpt lat="48.38534" lon="2.57087">
        <ele>76.89</ele>
        <time>2019-05-18T06:53:07Z</time>
      </trkpt>
      <trkpt lat="48.38528" lon="2.57115">
        <ele>76.96</ele>
        <time>2019-05-18T06:53:26Z</time>
      </trkpt>
      <trkpt lat="48.38526" lon="2.57134">
        <ele>76.94</ele>
        <time>2019-05-18T06:53:38Z</time>
      </trkpt>
      <trkpt lat="48.38523" lon="2.5715">
        <ele>76.98</ele>
        <time>2019-05-18T06:53:45Z</time>
      </trkpt>
      <trkpt lat="48.38522" lon="2.57162">
        <ele>77.26</ele>
        <time>2019-05-18T06:53:53Z</time>
      </trkpt>
      <trkpt lat="48.38528" lon="2.57174">
        <ele>76.88</ele>
        <time>2019-05-18T06:54:07Z</time>
      </trkpt>
      <trkpt lat="48.38537" lon="2.57201">
        <ele>76.94</ele>
        <time>2019-05-18T06:54:26Z</time>
      </trkpt>
      <trkpt lat="48.38545" lon="2.57231">
        <ele>77.11</ele>
        <time>2019-05-18T06:54:43Z</time>
      </trkpt>
      <trkpt lat="48.3855" lon="2.57258">
        <ele>77.14</ele>
        <time>2019-05-18T06:55:00Z</time>
      </trkpt>
      <trkpt lat="48.38554" lon="2.57287">
        <ele>77.12</ele>
        <time>2019-05-18T06:55:17Z</time>
      </trkpt>
      <trkpt lat="48.3855" lon="2.57332">
        <ele>76.84</ele>
        <time>2019-05-18T06:55:40Z</time>
      </trkpt>
      <trkpt lat="48.38544" lon="2.57365">
        <ele>76.64</ele>
        <time>2019-05-18T06:56:00Z</time>
      </trkpt>
      <trkpt lat="48.38535" lon="2.57394">
        <ele>76.94</ele>
        <time>2019-05-18T06:56:22Z</time>
      </trkpt>
      <trkpt lat="48.38521" lon="2.57419">
        <ele>76.46</ele>
        <time>2019-05-18T06:56:42Z</time>
      </trkpt>
      <trkpt lat="48.38507" lon="2.57449">
        <ele>76.58</ele>
        <time>2019-05-18T06:57:03Z</time>
      </trkpt>
      <trkpt lat="48.38499" lon="2.57485">
        <ele>76.69</ele>
        <time>2019-05-18T06:57:23Z</time>
      </trkpt>
      <trkpt lat="48.38492" lon="2.57515">
        <ele>77.68</ele>
        <time>2019-05-18T06:57:43Z</time>
      </trkpt>
      <trkpt lat="48.38491" lon="2.57548">
        <ele>78.26</ele>
        <time>2019-05-18T06:58:03Z</time>
      </trkpt>
      <trkpt lat="48.38495" lon="2.57578">
        <ele>78.44</ele>
        <time>2019-05-18T06:58:21Z</time>
      </trkpt>
      <trkpt lat="48.38491" lon="2.5761">
        <ele>78.6</ele>
        <time>2019-05-18T06:58:40Z</time>
      </trkpt>
      <trkpt lat="48.3849" lon="2.57618">
        <ele>78.84</ele>
        <time>2019-05-18T06:58:44Z</time>
      </trkpt>
      <trkpt lat="48.38487" lon="2.5765">
        <ele>78.57</ele>
        <time>2019-05-18T06:59:02Z</time>
      </trkpt>
      <trkpt lat="48.38484" lon="2.57684">
        <ele>78.01</ele>
        <time>2019-05-18T06:59:21Z</time>
      </trkpt>
      <trkpt lat="48.3848" lon="2.57714">
        <ele>78.32</ele>
        <time>2019-05-18T06:59:39Z</time>
      </trkpt>
      <trkpt lat="48.38476" lon="2.57738">
        <ele>78.41</ele>
        <time>2019-05-18T06:59:55Z</time>
      </trkpt>
      <trkpt lat="48.38472" lon="2.57773">
        <ele>77.91</ele>
        <time>2019-05-18T07:00:12Z</time>
      </trkpt>
      <trkpt lat="48.38465" lon="2.57805">
        <ele>78.39</ele>
        <time>2019-05-18T07:00:32Z</time>
      </trkpt>
      <trkpt lat="48.38456" lon="2.57833">
        <ele>79.8</ele>
        <time>2019-05-18T07:00:52Z</time>
      </trkpt>
      <trkpt lat="48.3845" lon="2.57859">
        <ele>79.65</ele>
        <time>2019-05-18T07:01:12Z</time>
      </trkpt>
      <trkpt lat="48.38447" lon="2.5789">
        <ele>79.63</ele>
        <time>2019-05-18T07:01:30Z</time>
      </trkpt>
      <trkpt lat="48.38447" lon="2.57922">
        <ele>79.62</ele>
        <time>2019-05-18T07:01:49Z</time>
      </trkpt>
      <trkpt lat="48.38438" lon="2.57959">
        <ele>79.91</ele>
        <time>2019-05-18T07:02:08Z</time>
      </trkpt>
      <trkpt lat="48.38432" lon="2.57989">
        <ele>80.03</ele>
        <time>2019-05-18T07:02:26Z</time>
      </trkpt>
      <trkpt lat="48.38424" lon="2.58012">
        <ele>80.37</ele>
        <time>2019-05-18T07:02:43Z</time>
      </trkpt>
      <trkpt lat="48.38422" lon="2.58041">
        <ele>80.31</ele>
        <time>2019-05-18T07:03:00Z</time>
      </trkpt>
      <trkpt lat="48.38416" lon="2.58067">
        <ele>80.28</ele>
        <time>2019-05-18T07:03:15Z</time>
      </trkpt>
      <trkpt lat="48.38414" lon="2.58083">
        <ele>81.07</ele>
        <time>2019-05-18T07:03:33Z</time>
      </trkpt>
      <trkpt lat="48.38417" lon="2.58081">
        <ele>80.94</ele>
        <time>2019-05-18T07:03:47Z</time>
      </trkpt>
      <trkpt lat="48.3843" lon="2.58067">
        <ele>81.69</ele>
        <time>2019-05-18T07:04:03Z</time>
      </trkpt>
      <trkpt lat="48.38441" lon="2.58049">
        <ele>82.89</ele>
        <time>2019-05-18T07:04:22Z</time>
      </trkpt>
      <trkpt lat="48.3845" lon="2.58035">
        <ele>83.71</ele>
        <time>2019-05-18T07:04:41Z</time>
      </trkpt>
      <trkpt lat="48.3847" lon="2.58019">
        <ele>84.34</ele>
        <time>2019-05-18T07:05:00Z</time>
      </trkpt>
      <trkpt lat="48.38482" lon="2.58015">
        <ele>86.5</ele>
        <time>2019-05-18T07:05:19Z</time>
      </trkpt>
      <trkpt lat="48.38496" lon="2.58014">
        <ele>87.05</ele>
        <time>2019-05-18T07:05:35Z</time>
      </trkpt>
      <trkpt lat="48.38514" lon="2.5801">
        <ele>90.23</ele>
        <time>2019-05-18T07:05:53Z</time>
      </trkpt>
      <trkpt lat="48.38525" lon="2.58003">
        <ele>91.8</ele>
        <time>2019-05-18T07:06:08Z</time>
      </trkpt>
      <trkpt lat="48.38537" lon="2.58004">
        <ele>94.5</ele>
        <time>2019-05-18T07:06:26Z</time>
      </trkpt>
      <trkpt lat="48.3855" lon="2.58005">
        <ele>95.16</ele>
        <time>2019-05-18T07:06:43Z</time>
      </trkpt>
      <trkpt lat="48.38568" lon="2.58">
        <ele>96.4</ele>
        <time>2019-05-18T07:07:04Z</time>
      </trkpt>
      <trkpt lat="48.38574" lon="2.57997">
        <ele>97.3</ele>
        <time>2019-05-18T07:07:13Z</time>
      </trkpt>
      <trkpt lat="48.38588" lon="2.58002">
        <ele>98.28</ele>
        <time>2019-05-18T07:07:33Z</time>
      </trkpt>
      <trkpt lat="48.38597" lon="2.58018">
        <ele>98.7</ele>
        <time>2019-05-18T07:07:49Z</time>
      </trkpt>
      <trkpt lat="48.3859" lon="2.5803">
        <ele>97.94</ele>
        <time>2019-05-18T07:08:06Z</time>
      </trkpt>
      <trkpt lat="48.38586" lon="2.58055">
        <ele>98.26</ele>
        <time>2019-05-18T07:08:26Z</time>
      </trkpt>
      <trkpt lat="48.38581" lon="2.58087">
        <ele>98.41</ele>
        <time>2019-05-18T07:08:48Z</time>
      </trkpt>
      <trkpt lat="48.38579" lon="2.58105">
        <ele>98.54</ele>
        <time>2019-05-18T07:09:00Z</time>
      </trkpt>
      <trkpt lat="48.38576" lon="2.58129">
        <ele>98.52</ele>
        <time>2019-05-18T07:09:17Z</time>
      </trkpt>
      <trkpt lat="48.38577" lon="2.58136">
        <ele>97.77</ele>
        <time>2019-05-18T07:09:21Z</time>
      </trkpt>
      <trkpt lat="48.38579" lon="2.5816">
        <ele>95.55</ele>
        <time>2019-05-18T07:09:37Z</time>
      </trkpt>
      <trkpt lat="48.38578" lon="2.58176">
        <ele>95.04</ele>
        <time>2019-05-18T07:09:46Z</time>
      </trkpt>
      <trkpt lat="48.38577" lon="2.58213">
        <ele>93.97</ele>
        <time>2019-05-18T07:10:06Z</time>
      </trkpt>
      <trkpt lat="48.38572" lon="2.58248">
        <ele>94.81</ele>
        <time>2019-05-18T07:10:28Z</time>
      </trkpt>
      <trkpt lat="48.38563" lon="2.58287">
        <ele>92.83</ele>
        <time>2019-05-18T07:10:46Z</time>
      </trkpt>
      <trkpt lat="48.38552" lon="2.58324">
        <ele>91</ele>
        <time>2019-05-18T07:11:07Z</time>
      </trkpt>
      <trkpt lat="48.38548" lon="2.5835">
        <ele>90.91</ele>
        <time>2019-05-18T07:11:23Z</time>
      </trkpt>
      <trkpt lat="48.38545" lon="2.58384">
        <ele>89.69</ele>
        <time>2019-05-18T07:11:44Z</time>
      </trkpt>
      <trkpt lat="48.38545" lon="2.58394">
        <ele>88.63</ele>
        <time>2019-05-18T07:11:48Z</time>
      </trkpt>
      <trkpt lat="48.38541" lon="2.5844">
        <ele>88.11</ele>
        <time>2019-05-18T07:12:10Z</time>
      </trkpt>
      <trkpt lat="48.38542" lon="2.58463">
        <ele>87.39</ele>
        <time>2019-05-18T07:12:24Z</time>
      </trkpt>
      <trkpt lat="48.38539" lon="2.58492">
        <ele>87.3</ele>
        <time>2019-05-18T07:12:42Z</time>
      </trkpt>
      <trkpt lat="48.38532" lon="2.58526">
        <ele>87.01</ele>
        <time>2019-05-18T07:13:01Z</time>
      </trkpt>
      <trkpt lat="48.3853" lon="2.58561">
        <ele>86.04</ele>
        <time>2019-05-18T07:13:22Z</time>
      </trkpt>
      <trkpt lat="48.38525" lon="2.58595">
        <ele>86.17</ele>
        <time>2019-05-18T07:13:44Z</time>
      </trkpt>
      <trkpt lat="48.38523" lon="2.58617">
        <ele>85.54</ele>
        <time>2019-05-18T07:13:55Z</time>
      </trkpt>
      <trkpt lat="48.3852" lon="2.58649">
        <ele>84.89</ele>
        <time>2019-05-18T07:14:12Z</time>
      </trkpt>
      <trkpt lat="48.38519" lon="2.58652">
        <ele>84.74</ele>
        <time>2019-05-18T07:14:14Z</time>
      </trkpt>
      <trkpt lat="48.3852" lon="2.58656">
        <ele>84.14</ele>
        <time>2019-05-18T07:14:16Z</time>
      </trkpt>
      <trkpt lat="48.38515" lon="2.58679">
        <ele>83.88</ele>
        <time>2019-05-18T07:14:28Z</time>
      </trkpt>
      <trkpt lat="48.38512" lon="2.58696">
        <ele>83.67</ele>
        <time>2019-05-18T07:14:37Z</time>
      </trkpt>
      <trkpt lat="48.38512" lon="2.58711">
        <ele>83.43</ele>
        <time>2019-05-18T07:14:47Z</time>
      </trkpt>
      <trkpt lat="48.38512" lon="2.58747">
        <ele>82.85</ele>
        <time>2019-05-18T07:15:07Z</time>
      </trkpt>
      <trkpt lat="48.38512" lon="2.58749">
        <ele>83.55</ele>
        <time>2019-05-18T07:15:08Z</time>
      </trkpt>
      <trkpt lat="48.38505" lon="2.58776">
        <ele>83.56</ele>
        <time>2019-05-18T07:15:23Z</time>
      </trkpt>
      <trkpt lat="48.38499" lon="2.58791">
        <ele>83.99</ele>
        <time>2019-05-18T07:15:33Z</time>
      </trkpt>
      <trkpt lat="48.38489" lon="2.58809">
        <ele>83.61</ele>
        <time>2019-05-18T07:15:53Z</time>
      </trkpt>
      <trkpt lat="48.38484" lon="2.58814">
        <ele>83.56</ele>
        <time>2019-05-18T07:16:16Z</time>
      </trkpt>
      <trkpt lat="48.38482" lon="2.5881">
        <ele>82.56</ele>
        <time>2019-05-18T07:16:39Z</time>
      </trkpt>
      <trkpt lat="48.38481" lon="2.58812">
        <ele>82.36</ele>
        <time>2019-05-18T07:17:05Z</time>
      </trkpt>
      <trkpt lat="48.38491" lon="2.58822">
        <ele>82.78</ele>
        <time>2019-05-18T07:17:25Z</time>
      </trkpt>
      <trkpt lat="48.38499" lon="2.58833">
        <ele>83.3</ele>
        <time>2019-05-18T07:17:33Z</time>
      </trkpt>
      <trkpt lat="48.38509" lon="2.58845">
        <ele>83.02</ele>
        <time>2019-05-18T07:17:42Z</time>
      </trkpt>
      <trkpt lat="48.38518" lon="2.58864">
        <ele>83.53</ele>
        <time>2019-05-18T07:17:55Z</time>
      </trkpt>
      <trkpt lat="48.38531" lon="2.58891">
        <ele>84.1</ele>
        <time>2019-05-18T07:18:15Z</time>
      </trkpt>
      <trkpt lat="48.38543" lon="2.58909">
        <ele>84.57</ele>
        <time>2019-05-18T07:18:33Z</time>
      </trkpt>
      <trkpt lat="48.38542" lon="2.58913">
        <ele>84.57</ele>
        <time>2019-05-18T07:18:37Z</time>
      </trkpt>
      <trkpt lat="48.3854" lon="2.58911">
        <ele>85.72</ele>
        <time>2019-05-18T07:18:49Z</time>
      </trkpt>
      <trkpt lat="48.38544" lon="2.58921">
        <ele>85.3</ele>
        <time>2019-05-18T07:19:13Z</time>
      </trkpt>
      <trkpt lat="48.38546" lon="2.58927">
        <ele>84.54</ele>
        <time>2019-05-18T07:19:22Z</time>
      </trkpt>
      <trkpt lat="48.38552" lon="2.58946">
        <ele>84.63</ele>
        <time>2019-05-18T07:19:40Z</time>
      </trkpt>
      <trkpt lat="48.38565" lon="2.5897">
        <ele>85.12</ele>
        <time>2019-05-18T07:20:01Z</time>
      </trkpt>
      <trkpt lat="48.38569" lon="2.58995">
        <ele>86.36</ele>
        <time>2019-05-18T07:20:18Z</time>
      </trkpt>
      <trkpt lat="48.38579" lon="2.59023">
        <ele>85.69</ele>
        <time>2019-05-18T07:20:36Z</time>
      </trkpt>
      <trkpt lat="48.38589" lon="2.59048">
        <ele>85.51</ele>
        <time>2019-05-18T07:20:55Z</time>
      </trkpt>
      <trkpt lat="48.386" lon="2.59072">
        <ele>85.64</ele>
        <time>2019-05-18T07:21:12Z</time>
      </trkpt>
      <trkpt lat="48.38618" lon="2.59102">
        <ele>85.48</ele>
        <time>2019-05-18T07:21:35Z</time>
      </trkpt>
      <trkpt lat="48.38632" lon="2.59124">
        <ele>85.65</ele>
        <time>2019-05-18T07:21:55Z</time>
      </trkpt>
      <trkpt lat="48.38647" lon="2.59146">
        <ele>85.91</ele>
        <time>2019-05-18T07:22:15Z</time>
      </trkpt>
      <trkpt lat="48.38665" lon="2.59174">
        <ele>85.92</ele>
        <time>2019-05-18T07:22:36Z</time>
      </trkpt>
      <trkpt lat="48.38667" lon="2.59205">
        <ele>86.68</ele>
        <time>2019-05-18T07:22:54Z</time>
      </trkpt>
      <trkpt lat="48.38662" lon="2.59215">
        <ele>87.21</ele>
        <time>2019-05-18T07:23:05Z</time>
      </trkpt>
      <trkpt lat="48.38654" lon="2.59233">
        <ele>87.67</ele>
        <time>2019-05-18T07:23:25Z</time>
      </trkpt>
      <trkpt lat="48.38643" lon="2.59251">
        <ele>88.95</ele>
        <time>2019-05-18T07:23:43Z</time>
      </trkpt>
      <trkpt lat="48.38631" lon="2.59275">
        <ele>90.09</ele>
        <time>2019-05-18T07:24:04Z</time>
      </trkpt>
      <trkpt lat="48.38628" lon="2.59291">
        <ele>90.7</ele>
        <time>2019-05-18T07:24:22Z</time>
      </trkpt>
      <trkpt lat="48.38636" lon="2.59318">
        <ele>92.14</ele>
        <time>2019-05-18T07:24:42Z</time>
      </trkpt>
      <trkpt lat="48.38641" lon="2.59336">
        <ele>93.94</ele>
        <time>2019-05-18T07:24:55Z</time>
      </trkpt>
      <trkpt lat="48.38641" lon="2.59337">
        <ele>93.92</ele>
        <time>2019-05-18T07:24:56Z</time>
      </trkpt>
      <trkpt lat="48.38644" lon="2.5936">
        <ele>94.22</ele>
        <time>2019-05-18T07:25:15Z</time>
      </trkpt>
      <trkpt lat="48.38645" lon="2.59363">
        <ele>96.03</ele>
        <time>2019-05-18T07:25:18Z</time>
      </trkpt>
      <trkpt lat="48.38653" lon="2.59388">
        <ele>98.51</ele>
        <time>2019-05-18T07:25:36Z</time>
      </trkpt>
      <trkpt lat="48.38654" lon="2.59391">
        <ele>99.04</ele>
        <time>2019-05-18T07:25:39Z</time>
      </trkpt>
      <trkpt lat="48.38661" lon="2.59405">
        <ele>99.29</ele>
        <time>2019-05-18T07:25:55Z</time>
      </trkpt>
      <trkpt lat="48.38669" lon="2.59431">
        <ele>99.76</ele>
        <time>2019-05-18T07:26:16Z</time>
      </trkpt>
      <trkpt lat="48.38672" lon="2.59464">
        <ele>99.55</ele>
        <time>2019-05-18T07:26:36Z</time>
      </trkpt>
      <trkpt lat="48.38672" lon="2.59494">
        <ele>99.62</ele>
        <time>2019-05-18T07:26:56Z</time>
      </trkpt>
      <trkpt lat="48.38667" lon="2.59529">
        <ele>99.34</ele>
        <time>2019-05-18T07:27:19Z</time>
      </trkpt>
      <trkpt lat="48.38668" lon="2.59537">
        <ele>99.51</ele>
        <time>2019-05-18T07:27:24Z</time>
      </trkpt>
      <trkpt lat="48.38664" lon="2.59559">
        <ele>99.65</ele>
        <time>2019-05-18T07:27:39Z</time>
      </trkpt>
      <trkpt lat="48.38664" lon="2.59592">
        <ele>100.08</ele>
        <time>2019-05-18T07:27:59Z</time>
      </trkpt>
      <trkpt lat="48.38661" lon="2.59619">
        <ele>99.51</ele>
        <time>2019-05-18T07:28:16Z</time>
      </trkpt>
      <trkpt lat="48.3866" lon="2.59651">
        <ele>99.89</ele>
        <time>2019-05-18T07:28:36Z</time>
      </trkpt>
      <trkpt lat="48.38658" lon="2.59683">
        <ele>99.23</ele>
        <time>2019-05-18T07:28:56Z</time>
      </trkpt>
      <trkpt lat="48.38657" lon="2.5971">
        <ele>99.6</ele>
        <time>2019-05-18T07:29:13Z</time>
      </trkpt>
      <trkpt lat="48.38656" lon="2.59728">
        <ele>99.07</ele>
        <time>2019-05-18T07:29:23Z</time>
      </trkpt>
      <trkpt lat="48.38653" lon="2.5975">
        <ele>98.94</ele>
        <time>2019-05-18T07:29:34Z</time>
      </trkpt>
      <trkpt lat="48.38653" lon="2.59767">
        <ele>98.98</ele>
        <time>2019-05-18T07:29:45Z</time>
      </trkpt>
      <trkpt lat="48.38648" lon="2.59785">
        <ele>100</ele>
        <time>2019-05-18T07:29:59Z</time>
      </trkpt>
      <trkpt lat="48.38643" lon="2.59805">
        <ele>99.58</ele>
        <time>2019-05-18T07:30:12Z</time>
      </trkpt>
      <trkpt lat="48.38643" lon="2.59828">
        <ele>99.32</ele>
        <time>2019-05-18T07:30:32Z</time>
      </trkpt>
      <trkpt lat="48.38643" lon="2.59834">
        <ele>99.29</ele>
        <time>2019-05-18T07:30:37Z</time>
      </trkpt>
      <trkpt lat="48.38643" lon="2.5985">
        <ele>99.1</ele>
        <time>2019-05-18T07:30:45Z</time>
      </trkpt>
      <trkpt lat="48.38641" lon="2.59874">
        <ele>98.62</ele>
        <time>2019-05-18T07:30:57Z</time>
      </trkpt>
      <trkpt lat="48.3864" lon="2.59878">
        <ele>98.73</ele>
        <time>2019-05-18T07:30:59Z</time>
      </trkpt>
      <trkpt lat="48.38637" lon="2.59907">
        <ele>98.89</ele>
        <time>2019-05-18T07:31:15Z</time>
      </trkpt>
      <trkpt lat="48.38639" lon="2.59924">
        <ele>99.46</ele>
        <time>2019-05-18T07:31:31Z</time>
      </trkpt>
      <trkpt lat="48.38637" lon="2.59921">
        <ele>99.66</ele>
        <time>2019-05-18T07:31:46Z</time>
      </trkpt>
      <trkpt lat="48.38637" lon="2.59922">
        <ele>99.45</ele>
        <time>2019-05-18T07:32:02Z</time>
      </trkpt>
      <trkpt lat="48.38641" lon="2.5993">
        <ele>99.59</ele>
        <time>2019-05-18T07:32:22Z</time>
      </trkpt>
      <trkpt lat="48.38642" lon="2.59934">
        <ele>99.73</ele>
        <time>2019-05-18T07:32:41Z</time>
      </trkpt>
      <trkpt lat="48.38641" lon="2.59938">
        <ele>99.63</ele>
        <time>2019-05-18T07:32:58Z</time>
      </trkpt>
      <trkpt lat="48.3864" lon="2.59937">
        <ele>99.92</ele>
        <time>2019-05-18T07:33:28Z</time>
      </trkpt>
      <trkpt lat="48.38641" lon="2.59937">
        <ele>100.09</ele>
        <time>2019-05-18T07:33:58Z</time>
      </trkpt>
      <trkpt lat="48.38639" lon="2.59937">
        <ele>100.27</ele>
        <time>2019-05-18T07:34:17Z</time>
      </trkpt>
      <trkpt lat="48.38637" lon="2.59935">
        <ele>100.51</ele>
        <time>2019-05-18T07:34:42Z</time>
      </trkpt>
      <trkpt lat="48.38637" lon="2.59928">
        <ele>100.2</ele>
        <time>2019-05-18T07:34:59Z</time>
      </trkpt>
      <trkpt lat="48.38633" lon="2.59917">
        <ele>100.39</ele>
        <time>2019-05-18T07:35:15Z</time>
      </trkpt>
      <trkpt lat="48.38631" lon="2.59913">
        <ele>100.46</ele>
        <time>2019-05-18T07:35:26Z</time>
      </trkpt>
      <trkpt lat="48.38637" lon="2.59923">
        <ele>100.48</ele>
        <time>2019-05-18T07:35:45Z</time>
      </trkpt>
      <trkpt lat="48.38644" lon="2.59928">
        <ele>101.04</ele>
        <time>2019-05-18T07:36:07Z</time>
      </trkpt>
      <trkpt lat="48.38644" lon="2.59928">
        <ele>100.83</ele>
        <time>2019-05-18T07:36:33Z</time>
      </trkpt>
      <trkpt lat="48.38645" lon="2.59928">
        <ele>100.72</ele>
        <time>2019-05-18T07:36:59Z</time>
      </trkpt>
      <trkpt lat="48.3865" lon="2.5992">
        <ele>100.86</ele>
        <time>2019-05-18T07:37:13Z</time>
      </trkpt>
      <trkpt lat="48.38652" lon="2.59918">
        <ele>100.15</ele>
        <time>2019-05-18T07:37:16Z</time>
      </trkpt>
      <trkpt lat="48.38666" lon="2.5991">
        <ele>100.15</ele>
        <time>2019-05-18T07:37:31Z</time>
      </trkpt>
      <trkpt lat="48.38685" lon="2.59898">
        <ele>100.54</ele>
        <time>2019-05-18T07:37:50Z</time>
      </trkpt>
      <trkpt lat="48.387" lon="2.59898">
        <ele>101.04</ele>
        <time>2019-05-18T07:38:05Z</time>
      </trkpt>
      <trkpt lat="48.38708" lon="2.59899">
        <ele>101.76</ele>
        <time>2019-05-18T07:38:11Z</time>
      </trkpt>
      <trkpt lat="48.38722" lon="2.59905">
        <ele>102.77</ele>
        <time>2019-05-18T07:38:22Z</time>
      </trkpt>
      <trkpt lat="48.38734" lon="2.59907">
        <ele>102.93</ele>
        <time>2019-05-18T07:38:33Z</time>
      </trkpt>
      <trkpt lat="48.38739" lon="2.59905">
        <ele>103.35</ele>
        <time>2019-05-18T07:38:36Z</time>
      </trkpt>
      <trkpt lat="48.38743" lon="2.59904">
        <ele>103.32</ele>
        <time>2019-05-18T07:38:39Z</time>
      </trkpt>
      <trkpt lat="48.38753" lon="2.59892">
        <ele>102.86</ele>
        <time>2019-05-18T07:38:53Z</time>
      </trkpt>
      <trkpt lat="48.38755" lon="2.5989">
        <ele>103.02</ele>
        <time>2019-05-18T07:38:55Z</time>
      </trkpt>
      <trkpt lat="48.38759" lon="2.59883">
        <ele>103.07</ele>
        <time>2019-05-18T07:39:00Z</time>
      </trkpt>
      <trkpt lat="48.38761" lon="2.59878">
        <ele>102.85</ele>
        <time>2019-05-18T07:39:04Z</time>
      </trkpt>
      <trkpt lat="48.38763" lon="2.59875">
        <ele>102.96</ele>
        <time>2019-05-18T07:39:06Z</time>
      </trkpt>
      <trkpt lat="48.38776" lon="2.59861">
        <ele>102.72</ele>
        <time>2019-05-18T07:39:20Z</time>
      </trkpt>
      <trkpt lat="48.38784" lon="2.59846">
        <ele>102.53</ele>
        <time>2019-05-18T07:39:31Z</time>
      </trkpt>
      <trkpt lat="48.38794" lon="2.5982">
        <ele>102.51</ele>
        <time>2019-05-18T07:39:47Z</time>
      </trkpt>
      <trkpt lat="48.38806" lon="2.59802">
        <ele>102.17</ele>
        <time>2019-05-18T07:40:01Z</time>
      </trkpt>
      <trkpt lat="48.38809" lon="2.59801">
        <ele>102.13</ele>
        <time>2019-05-18T07:40:03Z</time>
      </trkpt>
      <trkpt lat="48.38826" lon="2.59804">
        <ele>101.24</ele>
        <time>2019-05-18T07:40:16Z</time>
      </trkpt>
      <trkpt lat="48.38834" lon="2.59803">
        <ele>101.28</ele>
        <time>2019-05-18T07:40:23Z</time>
      </trkpt>
      <trkpt lat="48.38838" lon="2.59802">
        <ele>101.07</ele>
        <time>2019-05-18T07:40:26Z</time>
      </trkpt>
      <trkpt lat="48.38853" lon="2.59798">
        <ele>101.13</ele>
        <time>2019-05-18T07:40:41Z</time>
      </trkpt>
      <trkpt lat="48.38871" lon="2.59784">
        <ele>101.73</ele>
        <time>2019-05-18T07:40:58Z</time>
      </trkpt>
      <trkpt lat="48.3888" lon="2.59784">
        <ele>101.19</ele>
        <time>2019-05-18T07:41:05Z</time>
      </trkpt>
      <trkpt lat="48.38898" lon="2.59784">
        <ele>100.41</ele>
        <time>2019-05-18T07:41:22Z</time>
      </trkpt>
      <trkpt lat="48.38905" lon="2.59788">
        <ele>101.05</ele>
        <time>2019-05-18T07:41:28Z</time>
      </trkpt>
      <trkpt lat="48.38921" lon="2.59789">
        <ele>102.37</ele>
        <time>2019-05-18T07:41:46Z</time>
      </trkpt>
      <trkpt lat="48.3894" lon="2.59792">
        <ele>102.9</ele>
        <time>2019-05-18T07:42:02Z</time>
      </trkpt>
      <trkpt lat="48.3896" lon="2.59796">
        <ele>102.66</ele>
        <time>2019-05-18T07:42:21Z</time>
      </trkpt>
      <trkpt lat="48.38986" lon="2.59799">
        <ele>103.64</ele>
        <time>2019-05-18T07:42:40Z</time>
      </trkpt>
      <trkpt lat="48.38999" lon="2.59802">
        <ele>103.26</ele>
        <time>2019-05-18T07:42:56Z</time>
      </trkpt>
      <trkpt lat="48.39017" lon="2.59809">
        <ele>103.03</ele>
        <time>2019-05-18T07:43:12Z</time>
      </trkpt>
      <trkpt lat="48.39038" lon="2.59817">
        <ele>103.08</ele>
        <time>2019-05-18T07:43:30Z</time>
      </trkpt>
      <trkpt lat="48.3906" lon="2.59814">
        <ele>103.7</ele>
        <time>2019-05-18T07:43:46Z</time>
      </trkpt>
      <trkpt lat="48.39073" lon="2.59814">
        <ele>103.39</ele>
        <time>2019-05-18T07:44:07Z</time>
      </trkpt>
      <trkpt lat="48.3909" lon="2.59818">
        <ele>102.29</ele>
        <time>2019-05-18T07:44:26Z</time>
      </trkpt>
      <trkpt lat="48.39117" lon="2.59824">
        <ele>102.26</ele>
        <time>2019-05-18T07:44:44Z</time>
      </trkpt>
      <trkpt lat="48.39135" lon="2.59831">
        <ele>101.02</ele>
        <time>2019-05-18T07:45:03Z</time>
      </trkpt>
      <trkpt lat="48.39157" lon="2.59833">
        <ele>100.07</ele>
        <time>2019-05-18T07:45:21Z</time>
      </trkpt>
      <trkpt lat="48.39179" lon="2.59836">
        <ele>98.37</ele>
        <time>2019-05-18T07:45:40Z</time>
      </trkpt>
      <trkpt lat="48.39202" lon="2.59837">
        <ele>97.04</ele>
        <time>2019-05-18T07:45:58Z</time>
      </trkpt>
      <trkpt lat="48.39225" lon="2.59842">
        <ele>94.5</ele>
        <time>2019-05-18T07:46:17Z</time>
      </trkpt>
      <trkpt lat="48.39249" lon="2.59849">
        <ele>91.49</ele>
        <time>2019-05-18T07:46:36Z</time>
      </trkpt>
      <trkpt lat="48.39265" lon="2.59853">
        <ele>88.86</ele>
        <time>2019-05-18T07:46:50Z</time>
      </trkpt>
      <trkpt lat="48.39279" lon="2.59857">
        <ele>84.92</ele>
        <time>2019-05-18T07:47:07Z</time>
      </trkpt>
      <trkpt lat="48.39281" lon="2.59857">
        <ele>84.86</ele>
        <time>2019-05-18T07:47:08Z</time>
      </trkpt>
      <trkpt lat="48.39293" lon="2.5986">
        <ele>84.12</ele>
        <time>2019-05-18T07:47:20Z</time>
      </trkpt>
      <trkpt lat="48.39296" lon="2.59862">
        <ele>82.11</ele>
        <time>2019-05-18T07:47:23Z</time>
      </trkpt>
      <trkpt lat="48.39305" lon="2.59867">
        <ele>80.19</ele>
        <time>2019-05-18T07:47:34Z</time>
      </trkpt>
      <trkpt lat="48.39306" lon="2.59867">
        <ele>80.23</ele>
        <time>2019-05-18T07:47:35Z</time>
      </trkpt>
      <trkpt lat="48.39324" lon="2.59876">
        <ele>78.23</ele>
        <time>2019-05-18T07:47:49Z</time>
      </trkpt>
      <trkpt lat="48.39325" lon="2.59877">
        <ele>78.02</ele>
        <time>2019-05-18T07:47:50Z</time>
      </trkpt>
      <trkpt lat="48.39334" lon="2.59882">
        <ele>76.94</ele>
        <time>2019-05-18T07:48:00Z</time>
      </trkpt>
      <trkpt lat="48.39355" lon="2.59891">
        <ele>74.98</ele>
        <time>2019-05-18T07:48:21Z</time>
      </trkpt>
      <trkpt lat="48.39375" lon="2.59906">
        <ele>74.04</ele>
        <time>2019-05-18T07:48:42Z</time>
      </trkpt>
      <trkpt lat="48.39387" lon="2.59916">
        <ele>73.19</ele>
        <time>2019-05-18T07:49:03Z</time>
      </trkpt>
      <trkpt lat="48.39392" lon="2.59915">
        <ele>73.37</ele>
        <time>2019-05-18T07:49:06Z</time>
      </trkpt>
      <trkpt lat="48.39397" lon="2.59916">
        <ele>73</ele>
        <time>2019-05-18T07:49:10Z</time>
      </trkpt>
      <trkpt lat="48.39407" lon="2.59914">
        <ele>72.48</ele>
        <time>2019-05-18T07:49:24Z</time>
      </trkpt>
      <trkpt lat="48.39417" lon="2.59922">
        <ele>71.98</ele>
        <time>2019-05-18T07:49:54Z</time>
      </trkpt>
      <trkpt lat="48.39417" lon="2.59923">
        <ele>71.84</ele>
        <time>2019-05-18T07:49:55Z</time>
      </trkpt>
      <trkpt lat="48.39417" lon="2.59929">
        <ele>71.87</ele>
        <time>2019-05-18T07:49:59Z</time>
      </trkpt>
      <trkpt lat="48.39422" lon="2.59937">
        <ele>70.79</ele>
        <time>2019-05-18T07:50:13Z</time>
      </trkpt>
      <trkpt lat="48.39425" lon="2.59939">
        <ele>70.24</ele>
        <time>2019-05-18T07:50:18Z</time>
      </trkpt>
      <trkpt lat="48.39428" lon="2.59941">
        <ele>69.89</ele>
        <time>2019-05-18T07:50:21Z</time>
      </trkpt>
      <trkpt lat="48.39446" lon="2.59953">
        <ele>69.06</ele>
        <time>2019-05-18T07:50:38Z</time>
      </trkpt>
      <trkpt lat="48.39461" lon="2.5996">
        <ele>68.21</ele>
        <time>2019-05-18T07:50:51Z</time>
      </trkpt>
      <trkpt lat="48.39477" lon="2.59969">
        <ele>67.9</ele>
        <time>2019-05-18T07:51:05Z</time>
      </trkpt>
      <trkpt lat="48.39489" lon="2.59975">
        <ele>67.3</ele>
        <time>2019-05-18T07:51:21Z</time>
      </trkpt>
      <trkpt lat="48.39488" lon="2.59972">
        <ele>67.69</ele>
        <time>2019-05-18T07:51:45Z</time>
      </trkpt>
      <trkpt lat="48.39492" lon="2.59974">
        <ele>67.37</ele>
        <time>2019-05-18T07:52:02Z</time>
      </trkpt>
      <trkpt lat="48.395" lon="2.5998">
        <ele>67.33</ele>
        <time>2019-05-18T07:52:13Z</time>
      </trkpt>
      <trkpt lat="48.39516" lon="2.59982">
        <ele>67.27</ele>
        <time>2019-05-18T07:52:31Z</time>
      </trkpt>
      <trkpt lat="48.39532" lon="2.59983">
        <ele>66.99</ele>
        <time>2019-05-18T07:52:49Z</time>
      </trkpt>
      <trkpt lat="48.39543" lon="2.59983">
        <ele>67.81</ele>
        <time>2019-05-18T07:53:08Z</time>
      </trkpt>
      <trkpt lat="48.39563" lon="2.59977">
        <ele>68.28</ele>
        <time>2019-05-18T07:53:25Z</time>
      </trkpt>
      <trkpt lat="48.39582" lon="2.59971">
        <ele>69.36</ele>
        <time>2019-05-18T07:53:43Z</time>
      </trkpt>
      <trkpt lat="48.3959" lon="2.59967">
        <ele>69.84</ele>
        <time>2019-05-18T07:53:52Z</time>
      </trkpt>
      <trkpt lat="48.39597" lon="2.59967">
        <ele>71.73</ele>
        <time>2019-05-18T07:54:09Z</time>
      </trkpt>
      <trkpt lat="48.39604" lon="2.59963">
        <ele>72.7</ele>
        <time>2019-05-18T07:54:27Z</time>
      </trkpt>
      <trkpt lat="48.39613" lon="2.59962">
        <ele>75.36</ele>
        <time>2019-05-18T07:54:44Z</time>
      </trkpt>
      <trkpt lat="48.39625" lon="2.59961">
        <ele>77.79</ele>
        <time>2019-05-18T07:55:04Z</time>
      </trkpt>
      <trkpt lat="48.39638" lon="2.59971">
        <ele>79.54</ele>
        <time>2019-05-18T07:55:24Z</time>
      </trkpt>
      <trkpt lat="48.39644" lon="2.59987">
        <ele>80.13</ele>
        <time>2019-05-18T07:55:45Z</time>
      </trkpt>
      <trkpt lat="48.39651" lon="2.60002">
        <ele>82.1</ele>
        <time>2019-05-18T07:56:02Z</time>
      </trkpt>
      <trkpt lat="48.39661" lon="2.60016">
        <ele>83.47</ele>
        <time>2019-05-18T07:56:20Z</time>
      </trkpt>
      <trkpt lat="48.39672" lon="2.6004">
        <ele>84.39</ele>
        <time>2019-05-18T07:56:39Z</time>
      </trkpt>
      <trkpt lat="48.39684" lon="2.60049">
        <ele>85.43</ele>
        <time>2019-05-18T07:56:57Z</time>
      </trkpt>
      <trkpt lat="48.39692" lon="2.6005">
        <ele>87.74</ele>
        <time>2019-05-18T07:57:16Z</time>
      </trkpt>
      <trkpt lat="48.39707" lon="2.60052">
        <ele>90.4</ele>
        <time>2019-05-18T07:57:34Z</time>
      </trkpt>
      <trkpt lat="48.39717" lon="2.60059">
        <ele>91.37</ele>
        <time>2019-05-18T07:57:45Z</time>
      </trkpt>
      <trkpt lat="48.39725" lon="2.60075">
        <ele>90.64</ele>
        <time>2019-05-18T07:57:59Z</time>
      </trkpt>
      <trkpt lat="48.39737" lon="2.60089">
        <ele>91.4</ele>
        <time>2019-05-18T07:58:18Z</time>
      </trkpt>
      <trkpt lat="48.39739" lon="2.60096">
        <ele>90.54</ele>
        <time>2019-05-18T07:58:39Z</time>
      </trkpt>
      <trkpt lat="48.39746" lon="2.60107">
        <ele>90.92</ele>
        <time>2019-05-18T07:58:54Z</time>
      </trkpt>
      <trkpt lat="48.39757" lon="2.60126">
        <ele>88.38</ele>
        <time>2019-05-18T07:59:15Z</time>
      </trkpt>
      <trkpt lat="48.39772" lon="2.60139">
        <ele>88.35</ele>
        <time>2019-05-18T07:59:34Z</time>
      </trkpt>
      <trkpt lat="48.39783" lon="2.60168">
        <ele>88.66</ele>
        <time>2019-05-18T07:59:54Z</time>
      </trkpt>
      <trkpt lat="48.39794" lon="2.60187">
        <ele>87.63</ele>
        <time>2019-05-18T08:00:11Z</time>
      </trkpt>
      <trkpt lat="48.39796" lon="2.60202">
        <ele>88.16</ele>
        <time>2019-05-18T08:00:22Z</time>
      </trkpt>
      <trkpt lat="48.39795" lon="2.60219">
        <ele>87.9</ele>
        <time>2019-05-18T08:00:33Z</time>
      </trkpt>
      <trkpt lat="48.39796" lon="2.60232">
        <ele>88.95</ele>
        <time>2019-05-18T08:00:51Z</time>
      </trkpt>
      <trkpt lat="48.39793" lon="2.60218">
        <ele>87.74</ele>
        <time>2019-05-18T08:01:12Z</time>
      </trkpt>
      <trkpt lat="48.39794" lon="2.60201">
        <ele>88.27</ele>
        <time>2019-05-18T08:01:28Z</time>
      </trkpt>
      <trkpt lat="48.39793" lon="2.60205">
        <ele>88.47</ele>
        <time>2019-05-18T08:02:09Z</time>
      </trkpt>
      <trkpt lat="48.39793" lon="2.60221">
        <ele>88.64</ele>
        <time>2019-05-18T08:02:20Z</time>
      </trkpt>
      <trkpt lat="48.39794" lon="2.60227">
        <ele>88.62</ele>
        <time>2019-05-18T08:02:24Z</time>
      </trkpt>
      <trkpt lat="48.39797" lon="2.6024">
        <ele>89.27</ele>
        <time>2019-05-18T08:02:37Z</time>
      </trkpt>
      <trkpt lat="48.39799" lon="2.60242">
        <ele>89.01</ele>
        <time>2019-05-18T08:02:48Z</time>
      </trkpt>
      <trkpt lat="48.39802" lon="2.6025">
        <ele>89.98</ele>
        <time>2019-05-18T08:03:01Z</time>
      </trkpt>
      <trkpt lat="48.39804" lon="2.60255">
        <ele>90.08</ele>
        <time>2019-05-18T08:03:05Z</time>
      </trkpt>
      <trkpt lat="48.39813" lon="2.60273">
        <ele>90.24</ele>
        <time>2019-05-18T08:03:19Z</time>
      </trkpt>
      <trkpt lat="48.39823" lon="2.603">
        <ele>89.34</ele>
        <time>2019-05-18T08:03:35Z</time>
      </trkpt>
      <trkpt lat="48.39834" lon="2.60334">
        <ele>90.55</ele>
        <time>2019-05-18T08:03:57Z</time>
      </trkpt>
      <trkpt lat="48.39847" lon="2.60364">
        <ele>90.26</ele>
        <time>2019-05-18T08:04:18Z</time>
      </trkpt>
      <trkpt lat="48.39856" lon="2.60387">
        <ele>90.78</ele>
        <time>2019-05-18T08:04:35Z</time>
      </trkpt>
      <trkpt lat="48.39866" lon="2.60405">
        <ele>90.19</ele>
        <time>2019-05-18T08:04:51Z</time>
      </trkpt>
      <trkpt lat="48.39867" lon="2.60408">
        <ele>90.25</ele>
        <time>2019-05-18T08:04:53Z</time>
      </trkpt>
      <trkpt lat="48.39878" lon="2.60409">
        <ele>91.38</ele>
        <time>2019-05-18T08:05:09Z</time>
      </trkpt>
      <trkpt lat="48.39893" lon="2.60408">
        <ele>91.9</ele>
        <time>2019-05-18T08:05:26Z</time>
      </trkpt>
      <trkpt lat="48.39902" lon="2.6041">
        <ele>92.16</ele>
        <time>2019-05-18T08:05:35Z</time>
      </trkpt>
      <trkpt lat="48.3992" lon="2.60419">
        <ele>91.75</ele>
        <time>2019-05-18T08:05:50Z</time>
      </trkpt>
      <trkpt lat="48.39929" lon="2.60425">
        <ele>91.69</ele>
        <time>2019-05-18T08:06:00Z</time>
      </trkpt>
      <trkpt lat="48.39932" lon="2.60429">
        <ele>91.91</ele>
        <time>2019-05-18T08:06:04Z</time>
      </trkpt>
      <trkpt lat="48.39941" lon="2.60437">
        <ele>91.99</ele>
        <time>2019-05-18T08:06:13Z</time>
      </trkpt>
      <trkpt lat="48.39949" lon="2.60443">
        <ele>91.93</ele>
        <time>2019-05-18T08:06:29Z</time>
      </trkpt>
      <trkpt lat="48.39962" lon="2.60452">
        <ele>92.22</ele>
        <time>2019-05-18T08:06:44Z</time>
      </trkpt>
      <trkpt lat="48.39974" lon="2.60467">
        <ele>92.89</ele>
        <time>2019-05-18T08:06:59Z</time>
      </trkpt>
      <trkpt lat="48.3998" lon="2.60473">
        <ele>92.4</ele>
        <time>2019-05-18T08:07:15Z</time>
      </trkpt>
      <trkpt lat="48.39984" lon="2.6048">
        <ele>92.44</ele>
        <time>2019-05-18T08:07:20Z</time>
      </trkpt>
      <trkpt lat="48.39992" lon="2.605">
        <ele>92.15</ele>
        <time>2019-05-18T08:07:35Z</time>
      </trkpt>
      <trkpt lat="48.40001" lon="2.60513">
        <ele>92.13</ele>
        <time>2019-05-18T08:07:47Z</time>
      </trkpt>
      <trkpt lat="48.40014" lon="2.6053">
        <ele>92.18</ele>
        <time>2019-05-18T08:08:02Z</time>
      </trkpt>
      <trkpt lat="48.40018" lon="2.60533">
        <ele>92.38</ele>
        <time>2019-05-18T08:08:06Z</time>
      </trkpt>
      <trkpt lat="48.40025" lon="2.60538">
        <ele>92.33</ele>
        <time>2019-05-18T08:08:11Z</time>
      </trkpt>
      <trkpt lat="48.40032" lon="2.60556">
        <ele>92.6</ele>
        <time>2019-05-18T08:08:26Z</time>
      </trkpt>
      <trkpt lat="48.40038" lon="2.6057">
        <ele>92.86</ele>
        <time>2019-05-18T08:08:34Z</time>
      </trkpt>
      <trkpt lat="48.40046" lon="2.60591">
        <ele>92.72</ele>
        <time>2019-05-18T08:08:48Z</time>
      </trkpt>
      <trkpt lat="48.40052" lon="2.60603">
        <ele>92.6</ele>
        <time>2019-05-18T08:08:56Z</time>
      </trkpt>
      <trkpt lat="48.40066" lon="2.60634">
        <ele>92.35</ele>
        <time>2019-05-18T08:09:17Z</time>
      </trkpt>
      <trkpt lat="48.40077" lon="2.60662">
        <ele>92.29</ele>
        <time>2019-05-18T08:09:36Z</time>
      </trkpt>
      <trkpt lat="48.40086" lon="2.60689">
        <ele>91.82</ele>
        <time>2019-05-18T08:09:53Z</time>
      </trkpt>
      <trkpt lat="48.40095" lon="2.60727">
        <ele>92.28</ele>
        <time>2019-05-18T08:10:15Z</time>
      </trkpt>
      <trkpt lat="48.40101" lon="2.60756">
        <ele>92.4</ele>
        <time>2019-05-18T08:10:33Z</time>
      </trkpt>
      <trkpt lat="48.40103" lon="2.60776">
        <ele>92.07</ele>
        <time>2019-05-18T08:10:46Z</time>
      </trkpt>
      <trkpt lat="48.40107" lon="2.608">
        <ele>91.72</ele>
        <time>2019-05-18T08:11:03Z</time>
      </trkpt>
      <trkpt lat="48.40108" lon="2.60804">
        <ele>91.69</ele>
        <time>2019-05-18T08:11:05Z</time>
      </trkpt>
      <trkpt lat="48.4011" lon="2.60825">
        <ele>92.33</ele>
        <time>2019-05-18T08:11:21Z</time>
      </trkpt>
      <trkpt lat="48.40115" lon="2.60857">
        <ele>92.2</ele>
        <time>2019-05-18T08:11:41Z</time>
      </trkpt>
      <trkpt lat="48.40123" lon="2.6089">
        <ele>92.42</ele>
        <time>2019-05-18T08:12:01Z</time>
      </trkpt>
      <trkpt lat="48.40135" lon="2.60901">
        <ele>92.31</ele>
        <time>2019-05-18T08:12:21Z</time>
      </trkpt>
      <trkpt lat="48.40153" lon="2.60915">
        <ele>93.51</ele>
        <time>2019-05-18T08:12:42Z</time>
      </trkpt>
      <trkpt lat="48.40173" lon="2.60912">
        <ele>94.55</ele>
        <time>2019-05-18T08:13:04Z</time>
      </trkpt>
      <trkpt lat="48.40194" lon="2.60908">
        <ele>95.3</ele>
        <time>2019-05-18T08:13:25Z</time>
      </trkpt>
      <trkpt lat="48.40214" lon="2.60918">
        <ele>95.56</ele>
        <time>2019-05-18T08:13:41Z</time>
      </trkpt>
      <trkpt lat="48.40231" lon="2.60924">
        <ele>95.96</ele>
        <time>2019-05-18T08:14:01Z</time>
      </trkpt>
      <trkpt lat="48.40252" lon="2.60933">
        <ele>97.25</ele>
        <time>2019-05-18T08:14:21Z</time>
      </trkpt>
      <trkpt lat="48.40266" lon="2.60945">
        <ele>97.72</ele>
        <time>2019-05-18T08:14:35Z</time>
      </trkpt>
      <trkpt lat="48.40274" lon="2.6095">
        <ele>98.18</ele>
        <time>2019-05-18T08:14:50Z</time>
      </trkpt>
      <trkpt lat="48.40293" lon="2.6095">
        <ele>99.23</ele>
        <time>2019-05-18T08:15:06Z</time>
      </trkpt>
      <trkpt lat="48.40308" lon="2.60948">
        <ele>100.51</ele>
        <time>2019-05-18T08:15:20Z</time>
      </trkpt>
      <trkpt lat="48.4033" lon="2.60955">
        <ele>100.61</ele>
        <time>2019-05-18T08:15:38Z</time>
      </trkpt>
      <trkpt lat="48.4034" lon="2.60962">
        <ele>101.46</ele>
        <time>2019-05-18T08:15:53Z</time>
      </trkpt>
      <trkpt lat="48.40353" lon="2.60974">
        <ele>101.75</ele>
        <time>2019-05-18T08:16:10Z</time>
      </trkpt>
      <trkpt lat="48.40362" lon="2.6098">
        <ele>102.91</ele>
        <time>2019-05-18T08:16:18Z</time>
      </trkpt>
      <trkpt lat="48.4037" lon="2.60985">
        <ele>103.08</ele>
        <time>2019-05-18T08:16:24Z</time>
      </trkpt>
      <trkpt lat="48.40386" lon="2.60994">
        <ele>103.45</ele>
        <time>2019-05-18T08:16:40Z</time>
      </trkpt>
      <trkpt lat="48.40391" lon="2.60997">
        <ele>103.43</ele>
        <time>2019-05-18T08:16:47Z</time>
      </trkpt>
      <trkpt lat="48.4041" lon="2.61005">
        <ele>104.06</ele>
        <time>2019-05-18T08:17:04Z</time>
      </trkpt>
      <trkpt lat="48.40427" lon="2.61014">
        <ele>104.21</ele>
        <time>2019-05-18T08:17:26Z</time>
      </trkpt>
      <trkpt lat="48.40446" lon="2.61021">
        <ele>104.7</ele>
        <time>2019-05-18T08:17:43Z</time>
      </trkpt>
      <trkpt lat="48.40464" lon="2.61027">
        <ele>104.63</ele>
        <time>2019-05-18T08:17:56Z</time>
      </trkpt>
      <trkpt lat="48.4048" lon="2.61031">
        <ele>105.11</ele>
        <time>2019-05-18T08:18:11Z</time>
      </trkpt>
      <trkpt lat="48.40501" lon="2.61039">
        <ele>104.59</ele>
        <time>2019-05-18T08:18:30Z</time>
      </trkpt>
      <trkpt lat="48.40524" lon="2.6105">
        <ele>104.33</ele>
        <time>2019-05-18T08:18:49Z</time>
      </trkpt>
      <trkpt lat="48.40542" lon="2.61058">
        <ele>104.22</ele>
        <time>2019-05-18T08:19:06Z</time>
      </trkpt>
      <trkpt lat="48.40556" lon="2.61066">
        <ele>104.52</ele>
        <time>2019-05-18T08:19:22Z</time>
      </trkpt>
      <trkpt lat="48.40575" lon="2.61076">
        <ele>103.16</ele>
        <time>2019-05-18T08:19:42Z</time>
      </trkpt>
      <trkpt lat="48.40588" lon="2.6109">
        <ele>102.58</ele>
        <time>2019-05-18T08:20:00Z</time>
      </trkpt>
      <trkpt lat="48.40611" lon="2.61108">
        <ele>102.33</ele>
        <time>2019-05-18T08:20:19Z</time>
      </trkpt>
      <trkpt lat="48.40625" lon="2.6112">
        <ele>101.95</ele>
        <time>2019-05-18T08:20:35Z</time>
      </trkpt>
      <trkpt lat="48.40631" lon="2.61126">
        <ele>101.86</ele>
        <time>2019-05-18T08:20:42Z</time>
      </trkpt>
      <trkpt lat="48.40635" lon="2.6113">
        <ele>101.59</ele>
        <time>2019-05-18T08:20:46Z</time>
      </trkpt>
      <trkpt lat="48.40653" lon="2.61146">
        <ele>100.83</ele>
        <time>2019-05-18T08:21:02Z</time>
      </trkpt>
      <trkpt lat="48.40665" lon="2.61153">
        <ele>98.13</ele>
        <time>2019-05-18T08:21:17Z</time>
      </trkpt>
      <trkpt lat="48.40671" lon="2.61145">
        <ele>94.89</ele>
        <time>2019-05-18T08:21:33Z</time>
      </trkpt>
      <trkpt lat="48.4068" lon="2.61143">
        <ele>91.73</ele>
        <time>2019-05-18T08:21:50Z</time>
      </trkpt>
      <trkpt lat="48.40693" lon="2.61145">
        <ele>88.45</ele>
        <time>2019-05-18T08:22:06Z</time>
      </trkpt>
      <trkpt lat="48.4071" lon="2.61151">
        <ele>85.34</ele>
        <time>2019-05-18T08:22:23Z</time>
      </trkpt>
      <trkpt lat="48.40728" lon="2.61162">
        <ele>82.83</ele>
        <time>2019-05-18T08:22:41Z</time>
      </trkpt>
      <trkpt lat="48.40741" lon="2.61179">
        <ele>81.97</ele>
        <time>2019-05-18T08:23:01Z</time>
      </trkpt>
      <trkpt lat="48.40747" lon="2.61171">
        <ele>81.74</ele>
        <time>2019-05-18T08:23:27Z</time>
      </trkpt>
      <trkpt lat="48.40754" lon="2.61178">
        <ele>81.99</ele>
        <time>2019-05-18T08:23:51Z</time>
      </trkpt>
      <trkpt lat="48.40752" lon="2.61181">
        <ele>81.97</ele>
        <time>2019-05-18T08:24:11Z</time>
      </trkpt>
      <trkpt lat="48.40756" lon="2.61179">
        <ele>82.57</ele>
        <time>2019-05-18T08:24:37Z</time>
      </trkpt>
      <trkpt lat="48.4075" lon="2.61181">
        <ele>82.4</ele>
        <time>2019-05-18T08:25:00Z</time>
      </trkpt>
      <trkpt lat="48.40753" lon="2.61185">
        <ele>82.52</ele>
        <time>2019-05-18T08:25:27Z</time>
      </trkpt>
      <trkpt lat="48.40748" lon="2.61206">
        <ele>83.32</ele>
        <time>2019-05-18T08:25:47Z</time>
      </trkpt>
      <trkpt lat="48.40742" lon="2.61233">
        <ele>84.51</ele>
        <time>2019-05-18T08:26:09Z</time>
      </trkpt>
      <trkpt lat="48.4074" lon="2.61257">
        <ele>85.31</ele>
        <time>2019-05-18T08:26:28Z</time>
      </trkpt>
      <trkpt lat="48.40734" lon="2.61288">
        <ele>86.26</ele>
        <time>2019-05-18T08:26:47Z</time>
      </trkpt>
      <trkpt lat="48.40731" lon="2.61318">
        <ele>87.06</ele>
        <time>2019-05-18T08:27:06Z</time>
      </trkpt>
      <trkpt lat="48.40725" lon="2.61343">
        <ele>88.02</ele>
        <time>2019-05-18T08:27:25Z</time>
      </trkpt>
      <trkpt lat="48.40722" lon="2.61368">
        <ele>88.28</ele>
        <time>2019-05-18T08:27:42Z</time>
      </trkpt>
      <trkpt lat="48.40715" lon="2.61396">
        <ele>89.29</ele>
        <time>2019-05-18T08:28:00Z</time>
      </trkpt>
      <trkpt lat="48.40712" lon="2.61409">
        <ele>89.37</ele>
        <time>2019-05-18T08:28:07Z</time>
      </trkpt>
      <trkpt lat="48.40708" lon="2.61441">
        <ele>90.02</ele>
        <time>2019-05-18T08:28:26Z</time>
      </trkpt>
      <trkpt lat="48.40701" lon="2.61474">
        <ele>88.91</ele>
        <time>2019-05-18T08:28:44Z</time>
      </trkpt>
      <trkpt lat="48.40697" lon="2.61504">
        <ele>87.37</ele>
        <time>2019-05-18T08:29:04Z</time>
      </trkpt>
      <trkpt lat="48.4069" lon="2.61519">
        <ele>87.74</ele>
        <time>2019-05-18T08:29:20Z</time>
      </trkpt>
      <trkpt lat="48.40687" lon="2.61529">
        <ele>87.24</ele>
        <time>2019-05-18T08:29:26Z</time>
      </trkpt>
      <trkpt lat="48.40688" lon="2.61537">
        <ele>87.11</ele>
        <time>2019-05-18T08:29:32Z</time>
      </trkpt>
      <trkpt lat="48.40685" lon="2.61553">
        <ele>86.36</ele>
        <time>2019-05-18T08:29:46Z</time>
      </trkpt>
      <trkpt lat="48.40683" lon="2.61576">
        <ele>85.13</ele>
        <time>2019-05-18T08:30:04Z</time>
      </trkpt>
      <trkpt lat="48.40685" lon="2.61592">
        <ele>84.49</ele>
        <time>2019-05-18T08:30:15Z</time>
      </trkpt>
      <trkpt lat="48.40683" lon="2.61621">
        <ele>84.68</ele>
        <time>2019-05-18T08:30:34Z</time>
      </trkpt>
      <trkpt lat="48.40676" lon="2.61652">
        <ele>83.92</ele>
        <time>2019-05-18T08:30:53Z</time>
      </trkpt>
      <trkpt lat="48.40672" lon="2.61686">
        <ele>83.55</ele>
        <time>2019-05-18T08:31:12Z</time>
      </trkpt>
      <trkpt lat="48.40665" lon="2.61715">
        <ele>83.45</ele>
        <time>2019-05-18T08:31:29Z</time>
      </trkpt>
      <trkpt lat="48.40659" lon="2.61746">
        <ele>83.02</ele>
        <time>2019-05-18T08:31:47Z</time>
      </trkpt>
      <trkpt lat="48.40653" lon="2.61781">
        <ele>84.94</ele>
        <time>2019-05-18T08:32:11Z</time>
      </trkpt>
      <trkpt lat="48.40649" lon="2.61804">
        <ele>84.87</ele>
        <time>2019-05-18T08:32:26Z</time>
      </trkpt>
      <trkpt lat="48.40641" lon="2.61825">
        <ele>84.96</ele>
        <time>2019-05-18T08:32:37Z</time>
      </trkpt>
      <trkpt lat="48.40641" lon="2.61851">
        <ele>85.8</ele>
        <time>2019-05-18T08:32:54Z</time>
      </trkpt>
      <trkpt lat="48.40646" lon="2.61877">
        <ele>86.01</ele>
        <time>2019-05-18T08:33:13Z</time>
      </trkpt>
      <trkpt lat="48.40648" lon="2.61882">
        <ele>85.99</ele>
        <time>2019-05-18T08:33:17Z</time>
      </trkpt>
      <trkpt lat="48.40647" lon="2.61909">
        <ele>84.96</ele>
        <time>2019-05-18T08:33:35Z</time>
      </trkpt>
      <trkpt lat="48.40648" lon="2.61931">
        <ele>85.17</ele>
        <time>2019-05-18T08:33:57Z</time>
      </trkpt>
      <trkpt lat="48.40647" lon="2.61951">
        <ele>85.54</ele>
        <time>2019-05-18T08:34:15Z</time>
      </trkpt>
      <trkpt lat="48.40646" lon="2.61962">
        <ele>85.56</ele>
        <time>2019-05-18T08:34:22Z</time>
      </trkpt>
      <trkpt lat="48.40641" lon="2.61985">
        <ele>86.26</ele>
        <time>2019-05-18T08:34:40Z</time>
      </trkpt>
      <trkpt lat="48.40639" lon="2.62015">
        <ele>86.23</ele>
        <time>2019-05-18T08:35:03Z</time>
      </trkpt>
      <trkpt lat="48.40637" lon="2.62035">
        <ele>87.18</ele>
        <time>2019-05-18T08:35:17Z</time>
      </trkpt>
      <trkpt lat="48.40633" lon="2.62061">
        <ele>88.79</ele>
        <time>2019-05-18T08:35:34Z</time>
      </trkpt>
      <trkpt lat="48.4063" lon="2.62089">
        <ele>89.44</ele>
        <time>2019-05-18T08:35:52Z</time>
      </trkpt>
      <trkpt lat="48.40626" lon="2.6211">
        <ele>90.19</ele>
        <time>2019-05-18T08:36:09Z</time>
      </trkpt>
      <trkpt lat="48.40619" lon="2.62134">
        <ele>91.71</ele>
        <time>2019-05-18T08:36:29Z</time>
      </trkpt>
      <trkpt lat="48.40615" lon="2.62162">
        <ele>93.31</ele>
        <time>2019-05-18T08:36:49Z</time>
      </trkpt>
      <trkpt lat="48.40609" lon="2.62188">
        <ele>95.08</ele>
        <time>2019-05-18T08:37:11Z</time>
      </trkpt>
      <trkpt lat="48.40608" lon="2.62211">
        <ele>96.16</ele>
        <time>2019-05-18T08:37:29Z</time>
      </trkpt>
      <trkpt lat="48.40606" lon="2.62238">
        <ele>96.77</ele>
        <time>2019-05-18T08:37:48Z</time>
      </trkpt>
      <trkpt lat="48.40598" lon="2.62279">
        <ele>96.07</ele>
        <time>2019-05-18T08:38:08Z</time>
      </trkpt>
      <trkpt lat="48.40597" lon="2.62299">
        <ele>93.47</ele>
        <time>2019-05-18T08:38:26Z</time>
      </trkpt>
      <trkpt lat="48.40595" lon="2.62331">
        <ele>91.89</ele>
        <time>2019-05-18T08:38:49Z</time>
      </trkpt>
      <trkpt lat="48.40588" lon="2.62375">
        <ele>90.32</ele>
        <time>2019-05-18T08:39:12Z</time>
      </trkpt>
      <trkpt lat="48.40584" lon="2.62406">
        <ele>89.54</ele>
        <time>2019-05-18T08:39:30Z</time>
      </trkpt>
      <trkpt lat="48.4058" lon="2.62436">
        <ele>88.43</ele>
        <time>2019-05-18T08:39:50Z</time>
      </trkpt>
      <trkpt lat="48.40575" lon="2.62469">
        <ele>88.21</ele>
        <time>2019-05-18T08:40:08Z</time>
      </trkpt>
      <trkpt lat="48.40571" lon="2.62492">
        <ele>87.37</ele>
        <time>2019-05-18T08:40:23Z</time>
      </trkpt>
      <trkpt lat="48.40566" lon="2.62506">
        <ele>87.7</ele>
        <time>2019-05-18T08:40:28Z</time>
      </trkpt>
      <trkpt lat="48.40565" lon="2.62519">
        <ele>87.59</ele>
        <time>2019-05-18T08:40:34Z</time>
      </trkpt>
      <trkpt lat="48.40558" lon="2.62545">
        <ele>87.81</ele>
        <time>2019-05-18T08:40:49Z</time>
      </trkpt>
      <trkpt lat="48.40558" lon="2.62574">
        <ele>87.44</ele>
        <time>2019-05-18T08:41:11Z</time>
      </trkpt>
      <trkpt lat="48.40555" lon="2.62602">
        <ele>87.18</ele>
        <time>2019-05-18T08:41:25Z</time>
      </trkpt>
      <trkpt lat="48.40554" lon="2.62622">
        <ele>88.08</ele>
        <time>2019-05-18T08:41:44Z</time>
      </trkpt>
      <trkpt lat="48.40555" lon="2.62637">
        <ele>88.01</ele>
        <time>2019-05-18T08:42:07Z</time>
      </trkpt>
      <trkpt lat="48.40549" lon="2.62664">
        <ele>88.36</ele>
        <time>2019-05-18T08:42:29Z</time>
      </trkpt>
      <trkpt lat="48.40547" lon="2.62703">
        <ele>88.64</ele>
        <time>2019-05-18T08:42:53Z</time>
      </trkpt>
      <trkpt lat="48.40542" lon="2.62737">
        <ele>89.62</ele>
        <time>2019-05-18T08:43:16Z</time>
      </trkpt>
      <trkpt lat="48.40536" lon="2.62771">
        <ele>89.9</ele>
        <time>2019-05-18T08:43:36Z</time>
      </trkpt>
      <trkpt lat="48.40533" lon="2.62813">
        <ele>90.84</ele>
        <time>2019-05-18T08:44:00Z</time>
      </trkpt>
      <trkpt lat="48.40528" lon="2.62842">
        <ele>91.32</ele>
        <time>2019-05-18T08:44:15Z</time>
      </trkpt>
      <trkpt lat="48.40528" lon="2.6287">
        <ele>92.64</ele>
        <time>2019-05-18T08:44:37Z</time>
      </trkpt>
      <trkpt lat="48.40526" lon="2.62902">
        <ele>92.69</ele>
        <time>2019-05-18T08:44:57Z</time>
      </trkpt>
      <trkpt lat="48.40525" lon="2.6291">
        <ele>93.44</ele>
        <time>2019-05-18T08:45:01Z</time>
      </trkpt>
      <trkpt lat="48.40519" lon="2.62935">
        <ele>93.49</ele>
        <time>2019-05-18T08:45:14Z</time>
      </trkpt>
      <trkpt lat="48.40517" lon="2.62959">
        <ele>94.01</ele>
        <time>2019-05-18T08:45:28Z</time>
      </trkpt>
      <trkpt lat="48.40512" lon="2.62992">
        <ele>94.86</ele>
        <time>2019-05-18T08:45:42Z</time>
      </trkpt>
      <trkpt lat="48.40514" lon="2.63011">
        <ele>95.97</ele>
        <time>2019-05-18T08:45:58Z</time>
      </trkpt>
      <trkpt lat="48.40515" lon="2.63029">
        <ele>96.59</ele>
        <time>2019-05-18T08:46:17Z</time>
      </trkpt>
      <trkpt lat="48.40512" lon="2.63043">
        <ele>97.09</ele>
        <time>2019-05-18T08:46:26Z</time>
      </trkpt>
      <trkpt lat="48.4051" lon="2.63051">
        <ele>97.76</ele>
        <time>2019-05-18T08:46:34Z</time>
      </trkpt>
      <trkpt lat="48.40506" lon="2.63075">
        <ele>98.89</ele>
        <time>2019-05-18T08:46:54Z</time>
      </trkpt>
      <trkpt lat="48.40503" lon="2.63103">
        <ele>102.01</ele>
        <time>2019-05-18T08:47:12Z</time>
      </trkpt>
      <trkpt lat="48.40504" lon="2.63104">
        <ele>101.18</ele>
        <time>2019-05-18T08:47:18Z</time>
      </trkpt>
      <trkpt lat="48.40504" lon="2.63109">
        <ele>102.15</ele>
        <time>2019-05-18T08:47:44Z</time>
      </trkpt>
      <trkpt lat="48.40505" lon="2.63125">
        <ele>102.15</ele>
        <time>2019-05-18T08:48:03Z</time>
      </trkpt>
      <trkpt lat="48.40508" lon="2.63148">
        <ele>102.07</ele>
        <time>2019-05-18T08:48:19Z</time>
      </trkpt>
      <trkpt lat="48.40509" lon="2.63177">
        <ele>103.49</ele>
        <time>2019-05-18T08:48:38Z</time>
      </trkpt>
      <trkpt lat="48.40518" lon="2.63175">
        <ele>102.27</ele>
        <time>2019-05-18T08:48:51Z</time>
      </trkpt>
      <trkpt lat="48.4052" lon="2.63174">
        <ele>102.3</ele>
        <time>2019-05-18T08:48:53Z</time>
      </trkpt>
      <trkpt lat="48.40531" lon="2.63162">
        <ele>102.6</ele>
        <time>2019-05-18T08:49:12Z</time>
      </trkpt>
      <trkpt lat="48.40544" lon="2.6315">
        <ele>103.04</ele>
        <time>2019-05-18T08:49:30Z</time>
      </trkpt>
      <trkpt lat="48.40559" lon="2.63136">
        <ele>102.81</ele>
        <time>2019-05-18T08:49:49Z</time>
      </trkpt>
      <trkpt lat="48.40573" lon="2.63136">
        <ele>103.38</ele>
        <time>2019-05-18T08:50:07Z</time>
      </trkpt>
      <trkpt lat="48.40589" lon="2.63139">
        <ele>102.98</ele>
        <time>2019-05-18T08:50:25Z</time>
      </trkpt>
      <trkpt lat="48.40602" lon="2.63144">
        <ele>103.77</ele>
        <time>2019-05-18T08:50:43Z</time>
      </trkpt>
      <trkpt lat="48.40614" lon="2.63149">
        <ele>104.68</ele>
        <time>2019-05-18T08:51:01Z</time>
      </trkpt>
      <trkpt lat="48.40624" lon="2.6315">
        <ele>105.11</ele>
        <time>2019-05-18T08:51:20Z</time>
      </trkpt>
      <trkpt lat="48.40633" lon="2.63139">
        <ele>105.83</ele>
        <time>2019-05-18T08:51:41Z</time>
      </trkpt>
      <trkpt lat="48.40642" lon="2.63141">
        <ele>105.56</ele>
        <time>2019-05-18T08:51:54Z</time>
      </trkpt>
      <trkpt lat="48.40655" lon="2.63138">
        <ele>105.08</ele>
        <time>2019-05-18T08:52:16Z</time>
      </trkpt>
      <trkpt lat="48.40656" lon="2.63141">
        <ele>104.38</ele>
        <time>2019-05-18T08:52:45Z</time>
      </trkpt>
      <trkpt lat="48.40659" lon="2.63136">
        <ele>104.45</ele>
        <time>2019-05-18T08:53:16Z</time>
      </trkpt>
      <trkpt lat="48.4066" lon="2.63132">
        <ele>105.21</ele>
        <time>2019-05-18T08:54:04Z</time>
      </trkpt>
      <trkpt lat="48.40663" lon="2.63132">
        <ele>106.64</ele>
        <time>2019-05-18T08:54:22Z</time>
      </trkpt>
      <trkpt lat="48.40664" lon="2.63133">
        <ele>106.54</ele>
        <time>2019-05-18T08:54:33Z</time>
      </trkpt>
      <trkpt lat="48.40657" lon="2.63136">
        <ele>105.94</ele>
        <time>2019-05-18T08:54:48Z</time>
      </trkpt>
      <trkpt lat="48.40662" lon="2.63133">
        <ele>107.23</ele>
        <time>2019-05-18T08:55:00Z</time>
      </trkpt>
      <trkpt lat="48.40658" lon="2.63136">
        <ele>106.77</ele>
        <time>2019-05-18T08:55:17Z</time>
      </trkpt>
      <trkpt lat="48.40662" lon="2.63139">
        <ele>107.24</ele>
        <time>2019-05-18T08:55:55Z</time>
      </trkpt>
      <trkpt lat="48.40661" lon="2.63146">
        <ele>107.03</ele>
        <time>2019-05-18T08:56:17Z</time>
      </trkpt>
      <trkpt lat="48.40657" lon="2.63165">
        <ele>107.13</ele>
        <time>2019-05-18T08:56:36Z</time>
      </trkpt>
      <trkpt lat="48.40657" lon="2.63168">
        <ele>107.5</ele>
        <time>2019-05-18T08:57:01Z</time>
      </trkpt>
      <trkpt lat="48.40659" lon="2.6318">
        <ele>108.28</ele>
        <time>2019-05-18T08:57:18Z</time>
      </trkpt>
      <trkpt lat="48.40665" lon="2.63195">
        <ele>108.29</ele>
        <time>2019-05-18T08:57:36Z</time>
      </trkpt>
      <trkpt lat="48.4067" lon="2.63201">
        <ele>108.88</ele>
        <time>2019-05-18T08:57:42Z</time>
      </trkpt>
      <trkpt lat="48.40679" lon="2.63219">
        <ele>108.92</ele>
        <time>2019-05-18T08:57:59Z</time>
      </trkpt>
      <trkpt lat="48.40694" lon="2.63239">
        <ele>108.83</ele>
        <time>2019-05-18T08:58:19Z</time>
      </trkpt>
      <trkpt lat="48.40706" lon="2.63248">
        <ele>108.95</ele>
        <time>2019-05-18T08:58:37Z</time>
      </trkpt>
      <trkpt lat="48.4071" lon="2.63246">
        <ele>108.72</ele>
        <time>2019-05-18T08:58:56Z</time>
      </trkpt>
      <trkpt lat="48.40723" lon="2.63255">
        <ele>108.58</ele>
        <time>2019-05-18T08:59:13Z</time>
      </trkpt>
      <trkpt lat="48.40725" lon="2.63254">
        <ele>108.67</ele>
        <time>2019-05-18T08:59:16Z</time>
      </trkpt>
      <trkpt lat="48.40727" lon="2.63253">
        <ele>109.09</ele>
        <time>2019-05-18T08:59:18Z</time>
      </trkpt>
      <trkpt lat="48.40732" lon="2.63249">
        <ele>108.8</ele>
        <time>2019-05-18T08:59:22Z</time>
      </trkpt>
      <trkpt lat="48.40743" lon="2.63246">
        <ele>109.27</ele>
        <time>2019-05-18T08:59:32Z</time>
      </trkpt>
      <trkpt lat="48.40761" lon="2.63249">
        <ele>109.09</ele>
        <time>2019-05-18T08:59:46Z</time>
      </trkpt>
      <trkpt lat="48.40771" lon="2.63248">
        <ele>109.3</ele>
        <time>2019-05-18T08:59:56Z</time>
      </trkpt>
      <trkpt lat="48.40779" lon="2.63246">
        <ele>110.4</ele>
        <time>2019-05-18T09:00:04Z</time>
      </trkpt>
      <trkpt lat="48.40797" lon="2.63241">
        <ele>110.62</ele>
        <time>2019-05-18T09:00:22Z</time>
      </trkpt>
      <trkpt lat="48.40802" lon="2.6324">
        <ele>111.2</ele>
        <time>2019-05-18T09:00:26Z</time>
      </trkpt>
      <trkpt lat="48.40807" lon="2.63239">
        <ele>111.25</ele>
        <time>2019-05-18T09:00:30Z</time>
      </trkpt>
      <trkpt lat="48.40828" lon="2.63236">
        <ele>112.15</ele>
        <time>2019-05-18T09:00:46Z</time>
      </trkpt>
      <trkpt lat="48.4084" lon="2.63234">
        <ele>111.45</ele>
        <time>2019-05-18T09:00:58Z</time>
      </trkpt>
      <trkpt lat="48.40851" lon="2.63228">
        <ele>111.34</ele>
        <time>2019-05-18T09:01:17Z</time>
      </trkpt>
      <trkpt lat="48.40855" lon="2.63225">
        <ele>111.02</ele>
        <time>2019-05-18T09:01:21Z</time>
      </trkpt>
      <trkpt lat="48.40873" lon="2.63229">
        <ele>109.8</ele>
        <time>2019-05-18T09:01:36Z</time>
      </trkpt>
      <trkpt lat="48.40888" lon="2.63222">
        <ele>109.67</ele>
        <time>2019-05-18T09:01:51Z</time>
      </trkpt>
      <trkpt lat="48.4089" lon="2.63221">
        <ele>110.22</ele>
        <time>2019-05-18T09:01:53Z</time>
      </trkpt>
      <trkpt lat="48.40896" lon="2.63216">
        <ele>110.15</ele>
        <time>2019-05-18T09:01:59Z</time>
      </trkpt>
      <trkpt lat="48.40905" lon="2.63209">
        <ele>111.56</ele>
        <time>2019-05-18T09:05:39Z</time>
      </trkpt>
      <trkpt lat="48.40908" lon="2.63207">
        <ele>112.12</ele>
        <time>2019-05-18T09:05:42Z</time>
      </trkpt>
      <trkpt lat="48.40924" lon="2.63195">
        <ele>111.31</ele>
        <time>2019-05-18T09:06:02Z</time>
      </trkpt>
      <trkpt lat="48.4093" lon="2.63191">
        <ele>111.86</ele>
        <time>2019-05-18T09:06:13Z</time>
      </trkpt>
      <trkpt lat="48.40931" lon="2.6319">
        <ele>111.53</ele>
        <time>2019-05-18T09:06:16Z</time>
      </trkpt>
      <trkpt lat="48.40941" lon="2.63195">
        <ele>111.77</ele>
        <time>2019-05-18T09:06:29Z</time>
      </trkpt>
      <trkpt lat="48.40938" lon="2.63201">
        <ele>111.95</ele>
        <time>2019-05-18T09:06:46Z</time>
      </trkpt>
      <trkpt lat="48.40938" lon="2.63211">
        <ele>112.89</ele>
        <time>2019-05-18T09:06:54Z</time>
      </trkpt>
      <trkpt lat="48.40941" lon="2.63224">
        <ele>113.22</ele>
        <time>2019-05-18T09:07:07Z</time>
      </trkpt>
      <trkpt lat="48.40942" lon="2.63238">
        <ele>113.81</ele>
        <time>2019-05-18T09:07:26Z</time>
      </trkpt>
      <trkpt lat="48.40947" lon="2.63254">
        <ele>113.82</ele>
        <time>2019-05-18T09:07:41Z</time>
      </trkpt>
      <trkpt lat="48.40951" lon="2.63263">
        <ele>113.27</ele>
        <time>2019-05-18T09:07:52Z</time>
      </trkpt>
      <trkpt lat="48.40955" lon="2.63276">
        <ele>113.64</ele>
        <time>2019-05-18T09:08:08Z</time>
      </trkpt>
      <trkpt lat="48.40955" lon="2.63286">
        <ele>114.47</ele>
        <time>2019-05-18T09:08:13Z</time>
      </trkpt>
      <trkpt lat="48.40959" lon="2.63301">
        <ele>114.47</ele>
        <time>2019-05-18T09:08:28Z</time>
      </trkpt>
      <trkpt lat="48.4096" lon="2.63305">
        <ele>114.86</ele>
        <time>2019-05-18T09:08:47Z</time>
      </trkpt>
      <trkpt lat="48.4096" lon="2.63305">
        <ele>115.67</ele>
        <time>2019-05-18T09:10:41Z</time>
      </trkpt>
      <trkpt lat="48.40967" lon="2.63301">
        <ele>115.73</ele>
        <time>2019-05-18T09:11:00Z</time>
      </trkpt>
      <trkpt lat="48.40969" lon="2.63301">
        <ele>115.43</ele>
        <time>2019-05-18T09:11:02Z</time>
      </trkpt>
      <trkpt lat="48.40988" lon="2.63296">
        <ele>115.37</ele>
        <time>2019-05-18T09:11:18Z</time>
      </trkpt>
      <trkpt lat="48.41004" lon="2.63293">
        <ele>115.73</ele>
        <time>2019-05-18T09:11:33Z</time>
      </trkpt>
      <trkpt lat="48.41019" lon="2.63292">
        <ele>115.37</ele>
        <time>2019-05-18T09:11:50Z</time>
      </trkpt>
      <trkpt lat="48.41038" lon="2.63287">
        <ele>114.81</ele>
        <time>2019-05-18T09:12:09Z</time>
      </trkpt>
      <trkpt lat="48.41056" lon="2.63285">
        <ele>114.3</ele>
        <time>2019-05-18T09:12:27Z</time>
      </trkpt>
      <trkpt lat="48.41062" lon="2.63284">
        <ele>114.53</ele>
        <time>2019-05-18T09:12:32Z</time>
      </trkpt>
      <trkpt lat="48.41083" lon="2.63283">
        <ele>114.44</ele>
        <time>2019-05-18T09:12:53Z</time>
      </trkpt>
      <trkpt lat="48.41105" lon="2.63279">
        <ele>114.19</ele>
        <time>2019-05-18T09:13:14Z</time>
      </trkpt>
      <trkpt lat="48.41129" lon="2.63273">
        <ele>113.79</ele>
        <time>2019-05-18T09:13:32Z</time>
      </trkpt>
      <trkpt lat="48.41148" lon="2.6327">
        <ele>113.25</ele>
        <time>2019-05-18T09:13:50Z</time>
      </trkpt>
      <trkpt lat="48.41166" lon="2.63268">
        <ele>113.67</ele>
        <time>2019-05-18T09:14:10Z</time>
      </trkpt>
      <trkpt lat="48.41186" lon="2.63264">
        <ele>113.22</ele>
        <time>2019-05-18T09:14:30Z</time>
      </trkpt>
      <trkpt lat="48.41199" lon="2.6326">
        <ele>113.09</ele>
        <time>2019-05-18T09:14:40Z</time>
      </trkpt>
      <trkpt lat="48.41203" lon="2.6326">
        <ele>113.23</ele>
        <time>2019-05-18T09:14:43Z</time>
      </trkpt>
      <trkpt lat="48.41227" lon="2.63255">
        <ele>112.67</ele>
        <time>2019-05-18T09:15:01Z</time>
      </trkpt>
      <trkpt lat="48.4123" lon="2.63254">
        <ele>113.09</ele>
        <time>2019-05-18T09:15:03Z</time>
      </trkpt>
      <trkpt lat="48.41244" lon="2.63251">
        <ele>112.74</ele>
        <time>2019-05-18T09:15:17Z</time>
      </trkpt>
      <trkpt lat="48.41262" lon="2.63247">
        <ele>112.47</ele>
        <time>2019-05-18T09:15:32Z</time>
      </trkpt>
      <trkpt lat="48.41278" lon="2.63245">
        <ele>111.95</ele>
        <time>2019-05-18T09:15:48Z</time>
      </trkpt>
      <trkpt lat="48.41302" lon="2.63241">
        <ele>111.39</ele>
        <time>2019-05-18T09:16:07Z</time>
      </trkpt>
      <trkpt lat="48.41319" lon="2.63237">
        <ele>111.51</ele>
        <time>2019-05-18T09:16:22Z</time>
      </trkpt>
      <trkpt lat="48.41331" lon="2.63234">
        <ele>111.19</ele>
        <time>2019-05-18T09:16:33Z</time>
      </trkpt>
      <trkpt lat="48.41341" lon="2.63232">
        <ele>111.24</ele>
        <time>2019-05-18T09:16:41Z</time>
      </trkpt>
      <trkpt lat="48.41346" lon="2.63232">
        <ele>111.19</ele>
        <time>2019-05-18T09:16:45Z</time>
      </trkpt>
      <trkpt lat="48.41366" lon="2.63227">
        <ele>110.13</ele>
        <time>2019-05-18T09:17:02Z</time>
      </trkpt>
      <trkpt lat="48.41376" lon="2.63226">
        <ele>109.91</ele>
        <time>2019-05-18T09:17:13Z</time>
      </trkpt>
      <trkpt lat="48.41379" lon="2.63226">
        <ele>110.52</ele>
        <time>2019-05-18T09:17:15Z</time>
      </trkpt>
      <trkpt lat="48.41394" lon="2.63223">
        <ele>109.3</ele>
        <time>2019-05-18T09:17:30Z</time>
      </trkpt>
      <trkpt lat="48.4141" lon="2.63221">
        <ele>109.47</ele>
        <time>2019-05-18T09:17:47Z</time>
      </trkpt>
      <trkpt lat="48.41432" lon="2.6322">
        <ele>107.82</ele>
        <time>2019-05-18T09:18:08Z</time>
      </trkpt>
      <trkpt lat="48.41451" lon="2.63215">
        <ele>106.18</ele>
        <time>2019-05-18T09:18:28Z</time>
      </trkpt>
      <trkpt lat="48.41471" lon="2.63213">
        <ele>105.6</ele>
        <time>2019-05-18T09:18:43Z</time>
      </trkpt>
      <trkpt lat="48.41488" lon="2.63208">
        <ele>103.54</ele>
        <time>2019-05-18T09:18:59Z</time>
      </trkpt>
      <trkpt lat="48.41498" lon="2.63209">
        <ele>103.43</ele>
        <time>2019-05-18T09:19:11Z</time>
      </trkpt>
      <trkpt lat="48.415" lon="2.63205">
        <ele>102.75</ele>
        <time>2019-05-18T09:19:18Z</time>
      </trkpt>
      <trkpt lat="48.41507" lon="2.63202">
        <ele>102.98</ele>
        <time>2019-05-18T09:19:43Z</time>
      </trkpt>
      <trkpt lat="48.41512" lon="2.63201">
        <ele>102.59</ele>
        <time>2019-05-18T09:20:05Z</time>
      </trkpt>
      <trkpt lat="48.41512" lon="2.63208">
        <ele>102.68</ele>
        <time>2019-05-18T09:20:29Z</time>
      </trkpt>
      <trkpt lat="48.4152" lon="2.63205">
        <ele>104.05</ele>
        <time>2019-05-18T09:20:37Z</time>
      </trkpt>
      <trkpt lat="48.41537" lon="2.63201">
        <ele>106.06</ele>
        <time>2019-05-18T09:20:53Z</time>
      </trkpt>
      <trkpt lat="48.41553" lon="2.63198">
        <ele>108.66</ele>
        <time>2019-05-18T09:21:11Z</time>
      </trkpt>
      <trkpt lat="48.4157" lon="2.63196">
        <ele>110.65</ele>
        <time>2019-05-18T09:21:29Z</time>
      </trkpt>
      <trkpt lat="48.4159" lon="2.63193">
        <ele>112.3</ele>
        <time>2019-05-18T09:21:49Z</time>
      </trkpt>
      <trkpt lat="48.41612" lon="2.63188">
        <ele>114.62</ele>
        <time>2019-05-18T09:22:12Z</time>
      </trkpt>
      <trkpt lat="48.41635" lon="2.63184">
        <ele>115.08</ele>
        <time>2019-05-18T09:22:33Z</time>
      </trkpt>
      <trkpt lat="48.41649" lon="2.6318">
        <ele>115.54</ele>
        <time>2019-05-18T09:22:44Z</time>
      </trkpt>
      <trkpt lat="48.4167" lon="2.63175">
        <ele>116.65</ele>
        <time>2019-05-18T09:23:02Z</time>
      </trkpt>
      <trkpt lat="48.41686" lon="2.63171">
        <ele>117.46</ele>
        <time>2019-05-18T09:23:19Z</time>
      </trkpt>
      <trkpt lat="48.41707" lon="2.63168">
        <ele>117.76</ele>
        <time>2019-05-18T09:23:39Z</time>
      </trkpt>
      <trkpt lat="48.4173" lon="2.63165">
        <ele>118.39</ele>
        <time>2019-05-18T09:24:00Z</time>
      </trkpt>
      <trkpt lat="48.41749" lon="2.6316">
        <ele>117.99</ele>
        <time>2019-05-18T09:24:19Z</time>
      </trkpt>
      <trkpt lat="48.41772" lon="2.63156">
        <ele>118.2</ele>
        <time>2019-05-18T09:24:40Z</time>
      </trkpt>
      <trkpt lat="48.41796" lon="2.63153">
        <ele>118.7</ele>
        <time>2019-05-18T09:25:02Z</time>
      </trkpt>
      <trkpt lat="48.41818" lon="2.63148">
        <ele>117.81</ele>
        <time>2019-05-18T09:25:21Z</time>
      </trkpt>
      <trkpt lat="48.4184" lon="2.63143">
        <ele>116.73</ele>
        <time>2019-05-18T09:25:42Z</time>
      </trkpt>
      <trkpt lat="48.41866" lon="2.6314">
        <ele>116.35</ele>
        <time>2019-05-18T09:26:04Z</time>
      </trkpt>
      <trkpt lat="48.41886" lon="2.63136">
        <ele>114.64</ele>
        <time>2019-05-18T09:26:22Z</time>
      </trkpt>
      <trkpt lat="48.41907" lon="2.63131">
        <ele>112.58</ele>
        <time>2019-05-18T09:26:41Z</time>
      </trkpt>
      <trkpt lat="48.41928" lon="2.63128">
        <ele>110.74</ele>
        <time>2019-05-18T09:27:00Z</time>
      </trkpt>
      <trkpt lat="48.41951" lon="2.63125">
        <ele>107.57</ele>
        <time>2019-05-18T09:27:17Z</time>
      </trkpt>
      <trkpt lat="48.41963" lon="2.63122">
        <ele>104.46</ele>
        <time>2019-05-18T09:27:31Z</time>
      </trkpt>
      <trkpt lat="48.41982" lon="2.63118">
        <ele>101.38</ele>
        <time>2019-05-18T09:27:50Z</time>
      </trkpt>
      <trkpt lat="48.42006" lon="2.63113">
        <ele>100.13</ele>
        <time>2019-05-18T09:28:10Z</time>
      </trkpt>
      <trkpt lat="48.42007" lon="2.63111">
        <ele>98.47</ele>
        <time>2019-05-18T09:28:26Z</time>
      </trkpt>
      <trkpt lat="48.42006" lon="2.63111">
        <ele>98.7</ele>
        <time>2019-05-18T09:28:54Z</time>
      </trkpt>
      <trkpt lat="48.42014" lon="2.63112">
        <ele>97.26</ele>
        <time>2019-05-18T09:29:03Z</time>
      </trkpt>
      <trkpt lat="48.42035" lon="2.63108">
        <ele>95.34</ele>
        <time>2019-05-18T09:29:22Z</time>
      </trkpt>
      <trkpt lat="48.4204" lon="2.63106">
        <ele>94.15</ele>
        <time>2019-05-18T09:29:28Z</time>
      </trkpt>
      <trkpt lat="48.42056" lon="2.63104">
        <ele>93.38</ele>
        <time>2019-05-18T09:29:44Z</time>
      </trkpt>
      <trkpt lat="48.42079" lon="2.63099">
        <ele>92.28</ele>
        <time>2019-05-18T09:30:06Z</time>
      </trkpt>
      <trkpt lat="48.42099" lon="2.63097">
        <ele>90.98</ele>
        <time>2019-05-18T09:30:24Z</time>
      </trkpt>
      <trkpt lat="48.42108" lon="2.63097">
        <ele>91.79</ele>
        <time>2019-05-18T09:30:31Z</time>
      </trkpt>
      <trkpt lat="48.42131" lon="2.63093">
        <ele>90.94</ele>
        <time>2019-05-18T09:30:49Z</time>
      </trkpt>
      <trkpt lat="48.42149" lon="2.63091">
        <ele>90.52</ele>
        <time>2019-05-18T09:31:05Z</time>
      </trkpt>
      <trkpt lat="48.42164" lon="2.63087">
        <ele>91</ele>
        <time>2019-05-18T09:31:21Z</time>
      </trkpt>
      <trkpt lat="48.4218" lon="2.63082">
        <ele>90.15</ele>
        <time>2019-05-18T09:31:37Z</time>
      </trkpt>
      <trkpt lat="48.42196" lon="2.63078">
        <ele>90.11</ele>
        <time>2019-05-18T09:31:53Z</time>
      </trkpt>
      <trkpt lat="48.42214" lon="2.63073">
        <ele>89.13</ele>
        <time>2019-05-18T09:32:11Z</time>
      </trkpt>
      <trkpt lat="48.42233" lon="2.63069">
        <ele>87.32</ele>
        <time>2019-05-18T09:32:27Z</time>
      </trkpt>
      <trkpt lat="48.42244" lon="2.63066">
        <ele>84.85</ele>
        <time>2019-05-18T09:32:38Z</time>
      </trkpt>
      <trkpt lat="48.42246" lon="2.63067">
        <ele>86.3</ele>
        <time>2019-05-18T09:32:43Z</time>
      </trkpt>
      <trkpt lat="48.42262" lon="2.63064">
        <ele>87.25</ele>
        <time>2019-05-18T09:33:02Z</time>
      </trkpt>
      <trkpt lat="48.42277" lon="2.63062">
        <ele>90.28</ele>
        <time>2019-05-18T09:33:18Z</time>
      </trkpt>
      <trkpt lat="48.42295" lon="2.63062">
        <ele>92.38</ele>
        <time>2019-05-18T09:33:36Z</time>
      </trkpt>
      <trkpt lat="48.42314" lon="2.63057">
        <ele>93.11</ele>
        <time>2019-05-18T09:33:56Z</time>
      </trkpt>
      <trkpt lat="48.42327" lon="2.63052">
        <ele>93.16</ele>
        <time>2019-05-18T09:34:15Z</time>
      </trkpt>
      <trkpt lat="48.42337" lon="2.6305">
        <ele>93.77</ele>
        <time>2019-05-18T09:34:40Z</time>
      </trkpt>
      <trkpt lat="48.42351" lon="2.63049">
        <ele>95.04</ele>
        <time>2019-05-18T09:34:56Z</time>
      </trkpt>
      <trkpt lat="48.42368" lon="2.63047">
        <ele>97.54</ele>
        <time>2019-05-18T09:35:16Z</time>
      </trkpt>
      <trkpt lat="48.42386" lon="2.63041">
        <ele>99.4</ele>
        <time>2019-05-18T09:35:37Z</time>
      </trkpt>
      <trkpt lat="48.42404" lon="2.63037">
        <ele>101.03</ele>
        <time>2019-05-18T09:35:56Z</time>
      </trkpt>
      <trkpt lat="48.42424" lon="2.63037">
        <ele>103.52</ele>
        <time>2019-05-18T09:36:14Z</time>
      </trkpt>
      <trkpt lat="48.42435" lon="2.63032">
        <ele>105.23</ele>
        <time>2019-05-18T09:36:29Z</time>
      </trkpt>
      <trkpt lat="48.42447" lon="2.63031">
        <ele>107.39</ele>
        <time>2019-05-18T09:36:47Z</time>
      </trkpt>
      <trkpt lat="48.42449" lon="2.6303">
        <ele>108.7</ele>
        <time>2019-05-18T09:36:50Z</time>
      </trkpt>
      <trkpt lat="48.4245" lon="2.6303">
        <ele>108.84</ele>
        <time>2019-05-18T09:36:52Z</time>
      </trkpt>
      <trkpt lat="48.42466" lon="2.63027">
        <ele>110.65</ele>
        <time>2019-05-18T09:37:13Z</time>
      </trkpt>
      <trkpt lat="48.42482" lon="2.63021">
        <ele>112.5</ele>
        <time>2019-05-18T09:37:34Z</time>
      </trkpt>
      <trkpt lat="48.42501" lon="2.63018">
        <ele>114.6</ele>
        <time>2019-05-18T09:37:57Z</time>
      </trkpt>
      <trkpt lat="48.42516" lon="2.63017">
        <ele>116.36</ele>
        <time>2019-05-18T09:38:16Z</time>
      </trkpt>
      <trkpt lat="48.42513" lon="2.63018">
        <ele>115.89</ele>
        <time>2019-05-18T09:38:39Z</time>
      </trkpt>
      <trkpt lat="48.4251" lon="2.6302">
        <ele>115.92</ele>
        <time>2019-05-18T09:39:04Z</time>
      </trkpt>
      <trkpt lat="48.42513" lon="2.63016">
        <ele>115.47</ele>
        <time>2019-05-18T09:39:40Z</time>
      </trkpt>
      <trkpt lat="48.4251" lon="2.63019">
        <ele>115.93</ele>
        <time>2019-05-18T09:40:05Z</time>
      </trkpt>
      <trkpt lat="48.42511" lon="2.63022">
        <ele>116.08</ele>
        <time>2019-05-18T09:40:28Z</time>
      </trkpt>
      <trkpt lat="48.42517" lon="2.63019">
        <ele>116.6</ele>
        <time>2019-05-18T09:40:49Z</time>
      </trkpt>
      <trkpt lat="48.42518" lon="2.63019">
        <ele>117.01</ele>
        <time>2019-05-18T09:41:14Z</time>
      </trkpt>
      <trkpt lat="48.42517" lon="2.63022">
        <ele>116.68</ele>
        <time>2019-05-18T09:41:33Z</time>
      </trkpt>
      <trkpt lat="48.42518" lon="2.63021">
        <ele>116.56</ele>
        <time>2019-05-18T09:41:59Z</time>
      </trkpt>
      <trkpt lat="48.42521" lon="2.6302">
        <ele>117.22</ele>
        <time>2019-05-18T09:42:24Z</time>
      </trkpt>
      <trkpt lat="48.42509" lon="2.63022">
        <ele>116.31</ele>
        <time>2019-05-18T09:42:43Z</time>
      </trkpt>
      <trkpt lat="48.42511" lon="2.63035">
        <ele>115.59</ele>
        <time>2019-05-18T09:43:03Z</time>
      </trkpt>
      <trkpt lat="48.42508" lon="2.63033">
        <ele>116.04</ele>
        <time>2019-05-18T09:43:27Z</time>
      </trkpt>
      <trkpt lat="48.42509" lon="2.63024">
        <ele>116.79</ele>
        <time>2019-05-18T09:43:43Z</time>
      </trkpt>
      <trkpt lat="48.42509" lon="2.63022">
        <ele>116.22</ele>
        <time>2019-05-18T09:44:02Z</time>
      </trkpt>
      <trkpt lat="48.42509" lon="2.63025">
        <ele>116.56</ele>
        <time>2019-05-18T09:44:22Z</time>
      </trkpt>
      <trkpt lat="48.42509" lon="2.63023">
        <ele>116.38</ele>
        <time>2019-05-18T09:44:40Z</time>
      </trkpt>
      <trkpt lat="48.42507" lon="2.63021">
        <ele>116.58</ele>
        <time>2019-05-18T09:45:09Z</time>
      </trkpt>
      <trkpt lat="48.42505" lon="2.63019">
        <ele>117.28</ele>
        <time>2019-05-18T09:45:37Z</time>
      </trkpt>
      <trkpt lat="48.42509" lon="2.63016">
        <ele>116.4</ele>
        <time>2019-05-18T09:46:15Z</time>
      </trkpt>
      <trkpt lat="48.42517" lon="2.63016">
        <ele>117.12</ele>
        <time>2019-05-18T09:46:32Z</time>
      </trkpt>
      <trkpt lat="48.42533" lon="2.63013">
        <ele>118.36</ele>
        <time>2019-05-18T09:46:51Z</time>
      </trkpt>
      <trkpt lat="48.4255" lon="2.63012">
        <ele>118.65</ele>
        <time>2019-05-18T09:47:07Z</time>
      </trkpt>
      <trkpt lat="48.42569" lon="2.63011">
        <ele>119.72</ele>
        <time>2019-05-18T09:47:29Z</time>
      </trkpt>
      <trkpt lat="48.42589" lon="2.6301">
        <ele>120.48</ele>
        <time>2019-05-18T09:47:49Z</time>
      </trkpt>
      <trkpt lat="48.426" lon="2.63008">
        <ele>120.08</ele>
        <time>2019-05-18T09:47:57Z</time>
      </trkpt>
      <trkpt lat="48.4261" lon="2.63006">
        <ele>119.83</ele>
        <time>2019-05-18T09:48:11Z</time>
      </trkpt>
      <trkpt lat="48.42632" lon="2.63002">
        <ele>120.19</ele>
        <time>2019-05-18T09:48:32Z</time>
      </trkpt>
      <trkpt lat="48.42648" lon="2.62998">
        <ele>120.13</ele>
        <time>2019-05-18T09:48:45Z</time>
      </trkpt>
      <trkpt lat="48.42671" lon="2.62995">
        <ele>120.02</ele>
        <time>2019-05-18T09:49:05Z</time>
      </trkpt>
      <trkpt lat="48.42691" lon="2.62991">
        <ele>120.21</ele>
        <time>2019-05-18T09:49:25Z</time>
      </trkpt>
      <trkpt lat="48.42692" lon="2.62985">
        <ele>120.02</ele>
        <time>2019-05-18T09:49:41Z</time>
      </trkpt>
      <trkpt lat="48.42707" lon="2.62985">
        <ele>120.51</ele>
        <time>2019-05-18T09:50:00Z</time>
      </trkpt>
      <trkpt lat="48.42734" lon="2.62983">
        <ele>120.5</ele>
        <time>2019-05-18T09:50:21Z</time>
      </trkpt>
      <trkpt lat="48.42751" lon="2.62976">
        <ele>121.68</ele>
        <time>2019-05-18T09:50:38Z</time>
      </trkpt>
      <trkpt lat="48.42766" lon="2.62972">
        <ele>121.59</ele>
        <time>2019-05-18T09:50:55Z</time>
      </trkpt>
      <trkpt lat="48.42782" lon="2.62972">
        <ele>121.78</ele>
        <time>2019-05-18T09:51:13Z</time>
      </trkpt>
      <trkpt lat="48.42799" lon="2.62962">
        <ele>121.95</ele>
        <time>2019-05-18T09:51:31Z</time>
      </trkpt>
      <trkpt lat="48.42814" lon="2.62947">
        <ele>121.83</ele>
        <time>2019-05-18T09:51:52Z</time>
      </trkpt>
      <trkpt lat="48.4283" lon="2.62928">
        <ele>121.78</ele>
        <time>2019-05-18T09:52:10Z</time>
      </trkpt>
      <trkpt lat="48.42843" lon="2.62908">
        <ele>121.67</ele>
        <time>2019-05-18T09:52:30Z</time>
      </trkpt>
      <trkpt lat="48.42857" lon="2.6289">
        <ele>121.46</ele>
        <time>2019-05-18T09:52:51Z</time>
      </trkpt>
      <trkpt lat="48.42874" lon="2.62863">
        <ele>122.03</ele>
        <time>2019-05-18T09:53:12Z</time>
      </trkpt>
      <trkpt lat="48.42893" lon="2.62841">
        <ele>121.4</ele>
        <time>2019-05-18T09:53:34Z</time>
      </trkpt>
      <trkpt lat="48.42907" lon="2.62815">
        <ele>121.66</ele>
        <time>2019-05-18T09:53:56Z</time>
      </trkpt>
      <trkpt lat="48.42928" lon="2.62786">
        <ele>121.96</ele>
        <time>2019-05-18T09:54:18Z</time>
      </trkpt>
      <trkpt lat="48.42943" lon="2.62763">
        <ele>121.7</ele>
        <time>2019-05-18T09:54:40Z</time>
      </trkpt>
      <trkpt lat="48.4296" lon="2.62744">
        <ele>121.51</ele>
        <time>2019-05-18T09:54:54Z</time>
      </trkpt>
      <trkpt lat="48.42975" lon="2.62722">
        <ele>121.49</ele>
        <time>2019-05-18T09:55:15Z</time>
      </trkpt>
      <trkpt lat="48.42991" lon="2.62696">
        <ele>120.93</ele>
        <time>2019-05-18T09:55:31Z</time>
      </trkpt>
      <trkpt lat="48.43004" lon="2.62675">
        <ele>120.85</ele>
        <time>2019-05-18T09:55:54Z</time>
      </trkpt>
      <trkpt lat="48.43022" lon="2.62645">
        <ele>120.39</ele>
        <time>2019-05-18T09:56:17Z</time>
      </trkpt>
      <trkpt lat="48.43037" lon="2.62635">
        <ele>119.9</ele>
        <time>2019-05-18T09:56:35Z</time>
      </trkpt>
      <trkpt lat="48.43047" lon="2.62614">
        <ele>119.35</ele>
        <time>2019-05-18T09:56:54Z</time>
      </trkpt>
      <trkpt lat="48.4306" lon="2.62599">
        <ele>119.04</ele>
        <time>2019-05-18T09:57:09Z</time>
      </trkpt>
      <trkpt lat="48.43077" lon="2.62578">
        <ele>118.4</ele>
        <time>2019-05-18T09:57:32Z</time>
      </trkpt>
      <trkpt lat="48.43088" lon="2.6256">
        <ele>118.22</ele>
        <time>2019-05-18T09:57:50Z</time>
      </trkpt>
      <trkpt lat="48.43101" lon="2.62535">
        <ele>117.2</ele>
        <time>2019-05-18T09:58:11Z</time>
      </trkpt>
      <trkpt lat="48.43121" lon="2.6251">
        <ele>116.6</ele>
        <time>2019-05-18T09:58:33Z</time>
      </trkpt>
      <trkpt lat="48.43134" lon="2.62489">
        <ele>116.35</ele>
        <time>2019-05-18T09:58:53Z</time>
      </trkpt>
      <trkpt lat="48.43152" lon="2.62464">
        <ele>115.46</ele>
        <time>2019-05-18T09:59:15Z</time>
      </trkpt>
      <trkpt lat="48.43157" lon="2.62454">
        <ele>115.25</ele>
        <time>2019-05-18T09:59:22Z</time>
      </trkpt>
      <trkpt lat="48.43171" lon="2.62432">
        <ele>113.13</ele>
        <time>2019-05-18T09:59:43Z</time>
      </trkpt>
      <trkpt lat="48.43179" lon="2.62423">
        <ele>111.36</ele>
        <time>2019-05-18T10:00:00Z</time>
      </trkpt>
      <trkpt lat="48.432" lon="2.62404">
        <ele>107.99</ele>
        <time>2019-05-18T10:00:17Z</time>
      </trkpt>
      <trkpt lat="48.4321" lon="2.62394">
        <ele>104.93</ele>
        <time>2019-05-18T10:00:30Z</time>
      </trkpt>
      <trkpt lat="48.43215" lon="2.62392">
        <ele>104.35</ele>
        <time>2019-05-18T10:00:42Z</time>
      </trkpt>
      <trkpt lat="48.43223" lon="2.62388">
        <ele>103.48</ele>
        <time>2019-05-18T10:00:52Z</time>
      </trkpt>
      <trkpt lat="48.43229" lon="2.62382">
        <ele>102.64</ele>
        <time>2019-05-18T10:01:16Z</time>
      </trkpt>
      <trkpt lat="48.43235" lon="2.62377">
        <ele>100.66</ele>
        <time>2019-05-18T10:01:34Z</time>
      </trkpt>
      <trkpt lat="48.43241" lon="2.62373">
        <ele>99.94</ele>
        <time>2019-05-18T10:01:45Z</time>
      </trkpt>
      <trkpt lat="48.43257" lon="2.62377">
        <ele>98.68</ele>
        <time>2019-05-18T10:02:02Z</time>
      </trkpt>
      <trkpt lat="48.43263" lon="2.6237">
        <ele>99.33</ele>
        <time>2019-05-18T10:02:21Z</time>
      </trkpt>
      <trkpt lat="48.43263" lon="2.62369">
        <ele>99.17</ele>
        <time>2019-05-18T10:02:38Z</time>
      </trkpt>
      <trkpt lat="48.43264" lon="2.62375">
        <ele>99.41</ele>
        <time>2019-05-18T10:03:04Z</time>
      </trkpt>
      <trkpt lat="48.4327" lon="2.62364">
        <ele>102.14</ele>
        <time>2019-05-18T10:03:25Z</time>
      </trkpt>
      <trkpt lat="48.43278" lon="2.62357">
        <ele>104.02</ele>
        <time>2019-05-18T10:03:42Z</time>
      </trkpt>
      <trkpt lat="48.43285" lon="2.62338">
        <ele>105.99</ele>
        <time>2019-05-18T10:04:00Z</time>
      </trkpt>
      <trkpt lat="48.43287" lon="2.62319">
        <ele>106.69</ele>
        <time>2019-05-18T10:04:17Z</time>
      </trkpt>
      <trkpt lat="48.43294" lon="2.62313">
        <ele>107.63</ele>
        <time>2019-05-18T10:04:34Z</time>
      </trkpt>
      <trkpt lat="48.43299" lon="2.62301">
        <ele>110.32</ele>
        <time>2019-05-18T10:04:57Z</time>
      </trkpt>
      <trkpt lat="48.43303" lon="2.62286">
        <ele>113.12</ele>
        <time>2019-05-18T10:05:15Z</time>
      </trkpt>
      <trkpt lat="48.43306" lon="2.62275">
        <ele>113.93</ele>
        <time>2019-05-18T10:05:33Z</time>
      </trkpt>
      <trkpt lat="48.43307" lon="2.62269">
        <ele>113.9</ele>
        <time>2019-05-18T10:05:42Z</time>
      </trkpt>
      <trkpt lat="48.43306" lon="2.62255">
        <ele>114</ele>
        <time>2019-05-18T10:05:56Z</time>
      </trkpt>
      <trkpt lat="48.43304" lon="2.62234">
        <ele>114.4</ele>
        <time>2019-05-18T10:06:15Z</time>
      </trkpt>
      <trkpt lat="48.43305" lon="2.62231">
        <ele>114.38</ele>
        <time>2019-05-18T10:06:17Z</time>
      </trkpt>
      <trkpt lat="48.43306" lon="2.62214">
        <ele>114.09</ele>
        <time>2019-05-18T10:06:34Z</time>
      </trkpt>
      <trkpt lat="48.43307" lon="2.62192">
        <ele>115.29</ele>
        <time>2019-05-18T10:06:56Z</time>
      </trkpt>
      <trkpt lat="48.43318" lon="2.6217">
        <ele>115.32</ele>
        <time>2019-05-18T10:07:14Z</time>
      </trkpt>
      <trkpt lat="48.43319" lon="2.62148">
        <ele>114.95</ele>
        <time>2019-05-18T10:07:31Z</time>
      </trkpt>
      <trkpt lat="48.43327" lon="2.62128">
        <ele>114.76</ele>
        <time>2019-05-18T10:07:49Z</time>
      </trkpt>
      <trkpt lat="48.43329" lon="2.62113">
        <ele>114.31</ele>
        <time>2019-05-18T10:08:03Z</time>
      </trkpt>
      <trkpt lat="48.43334" lon="2.62098">
        <ele>113.9</ele>
        <time>2019-05-18T10:08:19Z</time>
      </trkpt>
      <trkpt lat="48.43337" lon="2.62094">
        <ele>113.48</ele>
        <time>2019-05-18T10:08:29Z</time>
      </trkpt>
      <trkpt lat="48.43346" lon="2.62093">
        <ele>113.52</ele>
        <time>2019-05-18T10:08:50Z</time>
      </trkpt>
      <trkpt lat="48.43341" lon="2.62091">
        <ele>113.26</ele>
        <time>2019-05-18T10:09:06Z</time>
      </trkpt>
      <trkpt lat="48.43335" lon="2.62091">
        <ele>112.97</ele>
        <time>2019-05-18T10:09:24Z</time>
      </trkpt>
      <trkpt lat="48.43332" lon="2.62089">
        <ele>112.96</ele>
        <time>2019-05-18T10:09:58Z</time>
      </trkpt>
      <trkpt lat="48.43334" lon="2.62089">
        <ele>113.39</ele>
        <time>2019-05-18T10:10:37Z</time>
      </trkpt>
      <trkpt lat="48.43342" lon="2.62082">
        <ele>113.11</ele>
        <time>2019-05-18T10:10:58Z</time>
      </trkpt>
      <trkpt lat="48.43342" lon="2.62073">
        <ele>112.48</ele>
        <time>2019-05-18T10:11:17Z</time>
      </trkpt>
      <trkpt lat="48.43341" lon="2.62059">
        <ele>112.43</ele>
        <time>2019-05-18T10:11:32Z</time>
      </trkpt>
      <trkpt lat="48.43342" lon="2.62048">
        <ele>113.31</ele>
        <time>2019-05-18T10:11:40Z</time>
      </trkpt>
      <trkpt lat="48.43344" lon="2.62031">
        <ele>112.54</ele>
        <time>2019-05-18T10:11:55Z</time>
      </trkpt>
      <trkpt lat="48.43353" lon="2.62007">
        <ele>112.72</ele>
        <time>2019-05-18T10:12:14Z</time>
      </trkpt>
      <trkpt lat="48.43356" lon="2.61992">
        <ele>112.81</ele>
        <time>2019-05-18T10:12:29Z</time>
      </trkpt>
      <trkpt lat="48.43359" lon="2.61973">
        <ele>113.18</ele>
        <time>2019-05-18T10:12:44Z</time>
      </trkpt>
      <trkpt lat="48.43358" lon="2.61964">
        <ele>113.74</ele>
        <time>2019-05-18T10:12:57Z</time>
      </trkpt>
      <trkpt lat="48.43358" lon="2.61947">
        <ele>113.52</ele>
        <time>2019-05-18T10:13:12Z</time>
      </trkpt>
      <trkpt lat="48.43361" lon="2.61924">
        <ele>113.94</ele>
        <time>2019-05-18T10:13:28Z</time>
      </trkpt>
      <trkpt lat="48.43365" lon="2.61914">
        <ele>112.99</ele>
        <time>2019-05-18T10:13:39Z</time>
      </trkpt>
      <trkpt lat="48.43371" lon="2.61899">
        <ele>112.38</ele>
        <time>2019-05-18T10:13:51Z</time>
      </trkpt>
      <trkpt lat="48.43378" lon="2.61874">
        <ele>112.1</ele>
        <time>2019-05-18T10:14:07Z</time>
      </trkpt>
      <trkpt lat="48.43379" lon="2.61874">
        <ele>112.28</ele>
        <time>2019-05-18T10:14:08Z</time>
      </trkpt>
      <trkpt lat="48.43381" lon="2.61872">
        <ele>111.93</ele>
        <time>2019-05-18T10:14:10Z</time>
      </trkpt>
      <trkpt lat="48.43381" lon="2.61862">
        <ele>111.9</ele>
        <time>2019-05-18T10:14:23Z</time>
      </trkpt>
      <trkpt lat="48.43375" lon="2.61858">
        <ele>112.3</ele>
        <time>2019-05-18T10:14:40Z</time>
      </trkpt>
      <trkpt lat="48.43371" lon="2.61852">
        <ele>111.89</ele>
        <time>2019-05-18T10:14:56Z</time>
      </trkpt>
      <trkpt lat="48.43366" lon="2.61844">
        <ele>111.55</ele>
        <time>2019-05-18T10:15:03Z</time>
      </trkpt>
      <trkpt lat="48.43365" lon="2.61828">
        <ele>112.32</ele>
        <time>2019-05-18T10:15:16Z</time>
      </trkpt>
      <trkpt lat="48.4337" lon="2.61803">
        <ele>112.35</ele>
        <time>2019-05-18T10:15:32Z</time>
      </trkpt>
      <trkpt lat="48.43371" lon="2.61788">
        <ele>111.58</ele>
        <time>2019-05-18T10:15:45Z</time>
      </trkpt>
      <trkpt lat="48.43378" lon="2.61769">
        <ele>111.62</ele>
        <time>2019-05-18T10:16:02Z</time>
      </trkpt>
      <trkpt lat="48.43385" lon="2.61755">
        <ele>111.39</ele>
        <time>2019-05-18T10:16:19Z</time>
      </trkpt>
      <trkpt lat="48.4339" lon="2.61736">
        <ele>111.68</ele>
        <time>2019-05-18T10:16:31Z</time>
      </trkpt>
      <trkpt lat="48.43395" lon="2.61713">
        <ele>110.44</ele>
        <time>2019-05-18T10:16:44Z</time>
      </trkpt>
      <trkpt lat="48.43405" lon="2.61701">
        <ele>110.33</ele>
        <time>2019-05-18T10:17:03Z</time>
      </trkpt>
      <trkpt lat="48.43406" lon="2.61692">
        <ele>110.93</ele>
        <time>2019-05-18T10:17:10Z</time>
      </trkpt>
      <trkpt lat="48.43409" lon="2.6167">
        <ele>110.51</ele>
        <time>2019-05-18T10:17:23Z</time>
      </trkpt>
      <trkpt lat="48.43409" lon="2.6166">
        <ele>109.78</ele>
        <time>2019-05-18T10:17:29Z</time>
      </trkpt>
      <trkpt lat="48.43409" lon="2.61643">
        <ele>110.31</ele>
        <time>2019-05-18T10:17:42Z</time>
      </trkpt>
      <trkpt lat="48.43409" lon="2.61627">
        <ele>110.93</ele>
        <time>2019-05-18T10:17:55Z</time>
      </trkpt>
      <trkpt lat="48.43405" lon="2.61617">
        <ele>110.56</ele>
        <time>2019-05-18T10:18:06Z</time>
      </trkpt>
      <trkpt lat="48.4341" lon="2.61606">
        <ele>110.29</ele>
        <time>2019-05-18T10:18:26Z</time>
      </trkpt>
      <trkpt lat="48.43412" lon="2.61593">
        <ele>111.11</ele>
        <time>2019-05-18T10:18:40Z</time>
      </trkpt>
      <trkpt lat="48.43417" lon="2.61573">
        <ele>110.29</ele>
        <time>2019-05-18T10:18:57Z</time>
      </trkpt>
      <trkpt lat="48.43421" lon="2.61565">
        <ele>110.18</ele>
        <time>2019-05-18T10:19:02Z</time>
      </trkpt>
      <trkpt lat="48.43422" lon="2.61561">
        <ele>110.17</ele>
        <time>2019-05-18T10:19:04Z</time>
      </trkpt>
      <trkpt lat="48.4343" lon="2.61534">
        <ele>109.1</ele>
        <time>2019-05-18T10:19:21Z</time>
      </trkpt>
      <trkpt lat="48.43434" lon="2.61516">
        <ele>109.86</ele>
        <time>2019-05-18T10:19:35Z</time>
      </trkpt>
      <trkpt lat="48.43442" lon="2.6149">
        <ele>109.61</ele>
        <time>2019-05-18T10:19:53Z</time>
      </trkpt>
      <trkpt lat="48.4345" lon="2.61483">
        <ele>109.23</ele>
        <time>2019-05-18T10:20:08Z</time>
      </trkpt>
      <trkpt lat="48.43446" lon="2.61485">
        <ele>109.69</ele>
        <time>2019-05-18T10:20:40Z</time>
      </trkpt>
      <trkpt lat="48.43443" lon="2.61481">
        <ele>109.51</ele>
        <time>2019-05-18T10:21:05Z</time>
      </trkpt>
      <trkpt lat="48.43445" lon="2.6148">
        <ele>110.11</ele>
        <time>2019-05-18T10:21:25Z</time>
      </trkpt>
      <trkpt lat="48.43444" lon="2.61482">
        <ele>110.09</ele>
        <time>2019-05-18T10:21:46Z</time>
      </trkpt>
      <trkpt lat="48.43446" lon="2.61483">
        <ele>110.13</ele>
        <time>2019-05-18T10:22:18Z</time>
      </trkpt>
      <trkpt lat="48.43447" lon="2.61481">
        <ele>110.32</ele>
        <time>2019-05-18T10:22:59Z</time>
      </trkpt>
      <trkpt lat="48.43444" lon="2.61484">
        <ele>110.85</ele>
        <time>2019-05-18T10:23:37Z</time>
      </trkpt>
      <trkpt lat="48.43443" lon="2.61486">
        <ele>111.13</ele>
        <time>2019-05-18T10:24:27Z</time>
      </trkpt>
      <trkpt lat="48.43449" lon="2.61482">
        <ele>111.25</ele>
        <time>2019-05-18T10:25:09Z</time>
      </trkpt>
      <trkpt lat="48.43454" lon="2.6148">
        <ele>111.89</ele>
        <time>2019-05-18T10:25:49Z</time>
      </trkpt>
      <trkpt lat="48.43454" lon="2.61478">
        <ele>112.19</ele>
        <time>2019-05-18T10:26:35Z</time>
      </trkpt>
      <trkpt lat="48.43455" lon="2.6148">
        <ele>112.34</ele>
        <time>2019-05-18T10:27:13Z</time>
      </trkpt>
      <trkpt lat="48.43452" lon="2.61482">
        <ele>112.78</ele>
        <time>2019-05-18T10:27:58Z</time>
      </trkpt>
      <trkpt lat="48.43447" lon="2.61483">
        <ele>113.28</ele>
        <time>2019-05-18T10:28:48Z</time>
      </trkpt>
      <trkpt lat="48.43447" lon="2.61483">
        <ele>113.52</ele>
        <time>2019-05-18T10:29:39Z</time>
      </trkpt>
      <trkpt lat="48.43443" lon="2.61481">
        <ele>114.22</ele>
        <time>2019-05-18T10:30:39Z</time>
      </trkpt>
      <trkpt lat="48.43445" lon="2.6148">
        <ele>114.69</ele>
        <time>2019-05-18T10:31:07Z</time>
      </trkpt>
      <trkpt lat="48.43443" lon="2.6148">
        <ele>114.99</ele>
        <time>2019-05-18T10:31:26Z</time>
      </trkpt>
      <trkpt lat="48.43443" lon="2.61477">
        <ele>114.57</ele>
        <time>2019-05-18T10:31:55Z</time>
      </trkpt>
      <trkpt lat="48.43441" lon="2.61476">
        <ele>115.32</ele>
        <time>2019-05-18T10:32:44Z</time>
      </trkpt>
      <trkpt lat="48.43442" lon="2.61476">
        <ele>115.25</ele>
        <time>2019-05-18T10:33:21Z</time>
      </trkpt>
      <trkpt lat="48.43441" lon="2.6148">
        <ele>115.57</ele>
        <time>2019-05-18T10:34:26Z</time>
      </trkpt>
      <trkpt lat="48.4344" lon="2.61478">
        <ele>116.1</ele>
        <time>2019-05-18T10:35:27Z</time>
      </trkpt>
      <trkpt lat="48.43442" lon="2.61477">
        <ele>116.36</ele>
        <time>2019-05-18T10:35:58Z</time>
      </trkpt>
      <trkpt lat="48.43443" lon="2.61473">
        <ele>117.03</ele>
        <time>2019-05-18T10:37:11Z</time>
      </trkpt>
      <trkpt lat="48.43442" lon="2.61474">
        <ele>117.52</ele>
        <time>2019-05-18T10:38:28Z</time>
      </trkpt>
      <trkpt lat="48.43446" lon="2.61473">
        <ele>117.77</ele>
        <time>2019-05-18T10:39:54Z</time>
      </trkpt>
      <trkpt lat="48.43443" lon="2.61475">
        <ele>117.76</ele>
        <time>2019-05-18T10:41:21Z</time>
      </trkpt>
      <trkpt lat="48.43444" lon="2.61472">
        <ele>118.4</ele>
        <time>2019-05-18T10:42:14Z</time>
      </trkpt>
      <trkpt lat="48.43445" lon="2.61475">
        <ele>118.01</ele>
        <time>2019-05-18T10:43:07Z</time>
      </trkpt>
      <trkpt lat="48.43443" lon="2.61474">
        <ele>118.31</ele>
        <time>2019-05-18T10:43:55Z</time>
      </trkpt>
      <trkpt lat="48.43446" lon="2.61477">
        <ele>119.22</ele>
        <time>2019-05-18T10:45:00Z</time>
      </trkpt>
      <trkpt lat="48.43446" lon="2.61478">
        <ele>119.25</ele>
        <time>2019-05-18T10:45:51Z</time>
      </trkpt>
      <trkpt lat="48.43441" lon="2.61478">
        <ele>119.21</ele>
        <time>2019-05-18T10:46:44Z</time>
      </trkpt>
      <trkpt lat="48.43444" lon="2.61474">
        <ele>119.5</ele>
        <time>2019-05-18T10:47:25Z</time>
      </trkpt>
      <trkpt lat="48.43445" lon="2.61473">
        <ele>119.63</ele>
        <time>2019-05-18T10:47:54Z</time>
      </trkpt>
      <trkpt lat="48.43444" lon="2.61473">
        <ele>120.2</ele>
        <time>2019-05-18T10:48:49Z</time>
      </trkpt>
      <trkpt lat="48.43446" lon="2.61475">
        <ele>119.86</ele>
        <time>2019-05-18T10:49:47Z</time>
      </trkpt>
      <trkpt lat="48.43444" lon="2.61477">
        <ele>120.64</ele>
        <time>2019-05-18T10:50:48Z</time>
      </trkpt>
      <trkpt lat="48.43441" lon="2.61477">
        <ele>120.6</ele>
        <time>2019-05-18T10:51:42Z</time>
      </trkpt>
      <trkpt lat="48.43443" lon="2.6148">
        <ele>120.34</ele>
        <time>2019-05-18T10:52:34Z</time>
      </trkpt>
      <trkpt lat="48.43443" lon="2.61482">
        <ele>120.5</ele>
        <time>2019-05-18T10:53:22Z</time>
      </trkpt>
      <trkpt lat="48.43441" lon="2.61481">
        <ele>121.2</ele>
        <time>2019-05-18T10:53:48Z</time>
      </trkpt>
      <trkpt lat="48.43443" lon="2.6148">
        <ele>120.94</ele>
        <time>2019-05-18T10:54:09Z</time>
      </trkpt>
      <trkpt lat="48.43439" lon="2.6148">
        <ele>121.28</ele>
        <time>2019-05-18T10:54:32Z</time>
      </trkpt>
      <trkpt lat="48.43439" lon="2.61482">
        <ele>121.12</ele>
        <time>2019-05-18T10:54:53Z</time>
      </trkpt>
      <trkpt lat="48.4344" lon="2.61481">
        <ele>121.6</ele>
        <time>2019-05-18T10:55:18Z</time>
      </trkpt>
      <trkpt lat="48.43441" lon="2.61477">
        <ele>121.51</ele>
        <time>2019-05-18T10:55:40Z</time>
      </trkpt>
      <trkpt lat="48.43443" lon="2.61477">
        <ele>121.12</ele>
        <time>2019-05-18T10:56:09Z</time>
      </trkpt>
      <trkpt lat="48.43444" lon="2.61476">
        <ele>121.66</ele>
        <time>2019-05-18T10:56:37Z</time>
      </trkpt>
      <trkpt lat="48.43443" lon="2.61476">
        <ele>121.48</ele>
        <time>2019-05-18T10:57:03Z</time>
      </trkpt>
      <trkpt lat="48.43442" lon="2.61475">
        <ele>121.55</ele>
        <time>2019-05-18T10:57:31Z</time>
      </trkpt>
      <trkpt lat="48.43444" lon="2.61477">
        <ele>121.21</ele>
        <time>2019-05-18T10:58:08Z</time>
      </trkpt>
      <trkpt lat="48.43447" lon="2.6148">
        <ele>120.38</ele>
        <time>2019-05-18T10:58:36Z</time>
      </trkpt>
      <trkpt lat="48.43451" lon="2.61486">
        <ele>118.45</ele>
        <time>2019-05-18T10:58:53Z</time>
      </trkpt>
      <trkpt lat="48.43456" lon="2.61483">
        <ele>116.01</ele>
        <time>2019-05-18T10:59:12Z</time>
      </trkpt>
      <trkpt lat="48.43459" lon="2.61485">
        <ele>114.06</ele>
        <time>2019-05-18T10:59:33Z</time>
      </trkpt>
      <trkpt lat="48.43465" lon="2.61486">
        <ele>111.02</ele>
        <time>2019-05-18T10:59:44Z</time>
      </trkpt>
      <trkpt lat="48.43469" lon="2.61489">
        <ele>109.47</ele>
        <time>2019-05-18T10:59:54Z</time>
      </trkpt>
      <trkpt lat="48.4347" lon="2.61496">
        <ele>106.23</ele>
        <time>2019-05-18T11:00:14Z</time>
      </trkpt>
      <trkpt lat="48.4347" lon="2.61502">
        <ele>102.87</ele>
        <time>2019-05-18T11:00:28Z</time>
      </trkpt>
      <trkpt lat="48.43471" lon="2.61506">
        <ele>101.98</ele>
        <time>2019-05-18T11:00:33Z</time>
      </trkpt>
      <trkpt lat="48.43474" lon="2.61513">
        <ele>98.3</ele>
        <time>2019-05-18T11:00:48Z</time>
      </trkpt>
      <trkpt lat="48.4348" lon="2.61516">
        <ele>96.48</ele>
        <time>2019-05-18T11:01:08Z</time>
      </trkpt>
      <trkpt lat="48.43483" lon="2.61522">
        <ele>93.45</ele>
        <time>2019-05-18T11:01:25Z</time>
      </trkpt>
      <trkpt lat="48.43489" lon="2.61528">
        <ele>92.03</ele>
        <time>2019-05-18T11:01:33Z</time>
      </trkpt>
      <trkpt lat="48.43504" lon="2.61532">
        <ele>90.69</ele>
        <time>2019-05-18T11:01:51Z</time>
      </trkpt>
      <trkpt lat="48.43511" lon="2.61536">
        <ele>87.99</ele>
        <time>2019-05-18T11:02:00Z</time>
      </trkpt>
      <trkpt lat="48.43523" lon="2.6155">
        <ele>85</ele>
        <time>2019-05-18T11:02:17Z</time>
      </trkpt>
      <trkpt lat="48.43532" lon="2.61566">
        <ele>82.61</ele>
        <time>2019-05-18T11:02:33Z</time>
      </trkpt>
      <trkpt lat="48.43538" lon="2.61591">
        <ele>80.71</ele>
        <time>2019-05-18T11:02:54Z</time>
      </trkpt>
      <trkpt lat="48.4355" lon="2.61603">
        <ele>79.12</ele>
        <time>2019-05-18T11:03:11Z</time>
      </trkpt>
      <trkpt lat="48.43553" lon="2.61607">
        <ele>79.43</ele>
        <time>2019-05-18T11:03:15Z</time>
      </trkpt>
      <trkpt lat="48.43555" lon="2.61609">
        <ele>79.29</ele>
        <time>2019-05-18T11:03:17Z</time>
      </trkpt>
      <trkpt lat="48.43556" lon="2.6161">
        <ele>79.09</ele>
        <time>2019-05-18T11:03:19Z</time>
      </trkpt>
      <trkpt lat="48.43576" lon="2.61615">
        <ele>78.28</ele>
        <time>2019-05-18T11:03:40Z</time>
      </trkpt>
      <trkpt lat="48.43589" lon="2.61629">
        <ele>77.29</ele>
        <time>2019-05-18T11:03:58Z</time>
      </trkpt>
      <trkpt lat="48.4359" lon="2.61631">
        <ele>77.07</ele>
        <time>2019-05-18T11:04:00Z</time>
      </trkpt>
      <trkpt lat="48.43596" lon="2.61637">
        <ele>77.16</ele>
        <time>2019-05-18T11:04:29Z</time>
      </trkpt>
      <trkpt lat="48.43591" lon="2.61637">
        <ele>76.92</ele>
        <time>2019-05-18T11:04:56Z</time>
      </trkpt>
      <trkpt lat="48.43593" lon="2.61636">
        <ele>76.24</ele>
        <time>2019-05-18T11:05:20Z</time>
      </trkpt>
      <trkpt lat="48.43596" lon="2.61637">
        <ele>76.43</ele>
        <time>2019-05-18T11:05:48Z</time>
      </trkpt>
      <trkpt lat="48.43599" lon="2.61637">
        <ele>76.16</ele>
        <time>2019-05-18T11:06:13Z</time>
      </trkpt>
      <trkpt lat="48.43597" lon="2.61634">
        <ele>75.82</ele>
        <time>2019-05-18T11:06:37Z</time>
      </trkpt>
      <trkpt lat="48.43595" lon="2.61637">
        <ele>76.13</ele>
        <time>2019-05-18T11:07:07Z</time>
      </trkpt>
      <trkpt lat="48.43601" lon="2.61647">
        <ele>74.28</ele>
        <time>2019-05-18T11:07:29Z</time>
      </trkpt>
      <trkpt lat="48.43617" lon="2.61665">
        <ele>71.98</ele>
        <time>2019-05-18T11:07:45Z</time>
      </trkpt>
      <trkpt lat="48.43631" lon="2.61677">
        <ele>72.49</ele>
        <time>2019-05-18T11:07:57Z</time>
      </trkpt>
      <trkpt lat="48.43644" lon="2.61689">
        <ele>73.22</ele>
        <time>2019-05-18T11:08:13Z</time>
      </trkpt>
      <trkpt lat="48.4366" lon="2.61705">
        <ele>72.65</ele>
        <time>2019-05-18T11:08:35Z</time>
      </trkpt>
      <trkpt lat="48.43679" lon="2.61723">
        <ele>71.77</ele>
        <time>2019-05-18T11:08:55Z</time>
      </trkpt>
      <trkpt lat="48.43696" lon="2.61737">
        <ele>71.58</ele>
        <time>2019-05-18T11:09:12Z</time>
      </trkpt>
      <trkpt lat="48.4371" lon="2.6175">
        <ele>71.63</ele>
        <time>2019-05-18T11:09:33Z</time>
      </trkpt>
      <trkpt lat="48.43724" lon="2.61765">
        <ele>71.48</ele>
        <time>2019-05-18T11:09:51Z</time>
      </trkpt>
      <trkpt lat="48.43741" lon="2.61781">
        <ele>71.42</ele>
        <time>2019-05-18T11:10:09Z</time>
      </trkpt>
      <trkpt lat="48.4376" lon="2.61797">
        <ele>71.9</ele>
        <time>2019-05-18T11:10:28Z</time>
      </trkpt>
      <trkpt lat="48.43761" lon="2.61797">
        <ele>71.16</ele>
        <time>2019-05-18T11:10:29Z</time>
      </trkpt>
      <trkpt lat="48.43775" lon="2.61809">
        <ele>71.76</ele>
        <time>2019-05-18T11:10:48Z</time>
      </trkpt>
      <trkpt lat="48.43792" lon="2.61823">
        <ele>71.69</ele>
        <time>2019-05-18T11:11:08Z</time>
      </trkpt>
      <trkpt lat="48.43813" lon="2.61849">
        <ele>70.93</ele>
        <time>2019-05-18T11:11:30Z</time>
      </trkpt>
      <trkpt lat="48.43833" lon="2.61867">
        <ele>71.27</ele>
        <time>2019-05-18T11:11:51Z</time>
      </trkpt>
      <trkpt lat="48.43858" lon="2.61885">
        <ele>72.12</ele>
        <time>2019-05-18T11:12:14Z</time>
      </trkpt>
      <trkpt lat="48.43866" lon="2.61887">
        <ele>72.55</ele>
        <time>2019-05-18T11:12:20Z</time>
      </trkpt>
      <trkpt lat="48.43887" lon="2.61899">
        <ele>74.03</ele>
        <time>2019-05-18T11:12:38Z</time>
      </trkpt>
      <trkpt lat="48.43905" lon="2.61908">
        <ele>74.72</ele>
        <time>2019-05-18T11:12:59Z</time>
      </trkpt>
      <trkpt lat="48.43923" lon="2.61911">
        <ele>75.87</ele>
        <time>2019-05-18T11:13:16Z</time>
      </trkpt>
      <trkpt lat="48.43936" lon="2.61922">
        <ele>76.76</ele>
        <time>2019-05-18T11:13:35Z</time>
      </trkpt>
      <trkpt lat="48.43952" lon="2.61938">
        <ele>77.4</ele>
        <time>2019-05-18T11:13:54Z</time>
      </trkpt>
      <trkpt lat="48.43956" lon="2.61944">
        <ele>77.37</ele>
        <time>2019-05-18T11:13:57Z</time>
      </trkpt>
      <trkpt lat="48.43973" lon="2.61962">
        <ele>78.28</ele>
        <time>2019-05-18T11:14:12Z</time>
      </trkpt>
      <trkpt lat="48.43974" lon="2.61964">
        <ele>78.35</ele>
        <time>2019-05-18T11:14:13Z</time>
      </trkpt>
      <trkpt lat="48.43983" lon="2.61981">
        <ele>79.21</ele>
        <time>2019-05-18T11:14:28Z</time>
      </trkpt>
      <trkpt lat="48.43991" lon="2.61997">
        <ele>80.64</ele>
        <time>2019-05-18T11:14:46Z</time>
      </trkpt>
      <trkpt lat="48.43999" lon="2.62019">
        <ele>79.88</ele>
        <time>2019-05-18T11:15:08Z</time>
      </trkpt>
      <trkpt lat="48.44008" lon="2.62037">
        <ele>77.53</ele>
        <time>2019-05-18T11:15:25Z</time>
      </trkpt>
      <trkpt lat="48.44018" lon="2.62043">
        <ele>74.73</ele>
        <time>2019-05-18T11:15:41Z</time>
      </trkpt>
      <trkpt lat="48.44024" lon="2.62041">
        <ele>74.3</ele>
        <time>2019-05-18T11:15:51Z</time>
      </trkpt>
      <trkpt lat="48.44026" lon="2.6204">
        <ele>73.84</ele>
        <time>2019-05-18T11:15:53Z</time>
      </trkpt>
      <trkpt lat="48.44037" lon="2.62047">
        <ele>71.89</ele>
        <time>2019-05-18T11:16:06Z</time>
      </trkpt>
      <trkpt lat="48.44043" lon="2.62061">
        <ele>71.46</ele>
        <time>2019-05-18T11:16:22Z</time>
      </trkpt>
      <trkpt lat="48.44048" lon="2.62076">
        <ele>70.51</ele>
        <time>2019-05-18T11:16:36Z</time>
      </trkpt>
      <trkpt lat="48.44058" lon="2.62102">
        <ele>69.58</ele>
        <time>2019-05-18T11:16:56Z</time>
      </trkpt>
      <trkpt lat="48.4407" lon="2.62125">
        <ele>68.78</ele>
        <time>2019-05-18T11:17:13Z</time>
      </trkpt>
      <trkpt lat="48.44085" lon="2.62148">
        <ele>68.37</ele>
        <time>2019-05-18T11:17:31Z</time>
      </trkpt>
      <trkpt lat="48.44089" lon="2.62157">
        <ele>67.47</ele>
        <time>2019-05-18T11:17:37Z</time>
      </trkpt>
      <trkpt lat="48.44099" lon="2.6218">
        <ele>66.97</ele>
        <time>2019-05-18T11:17:54Z</time>
      </trkpt>
      <trkpt lat="48.44104" lon="2.62189">
        <ele>65.85</ele>
        <time>2019-05-18T11:18:14Z</time>
      </trkpt>
      <trkpt lat="48.44112" lon="2.62205">
        <ele>65.47</ele>
        <time>2019-05-18T11:18:32Z</time>
      </trkpt>
      <trkpt lat="48.4411" lon="2.62216">
        <ele>65</ele>
        <time>2019-05-18T11:18:37Z</time>
      </trkpt>
      <trkpt lat="48.44111" lon="2.62223">
        <ele>65.07</ele>
        <time>2019-05-18T11:18:42Z</time>
      </trkpt>
      <trkpt lat="48.44112" lon="2.6223">
        <ele>64.53</ele>
        <time>2019-05-18T11:19:01Z</time>
      </trkpt>
      <trkpt lat="48.44109" lon="2.62234">
        <ele>64.18</ele>
        <time>2019-05-18T11:19:21Z</time>
      </trkpt>
      <trkpt lat="48.44106" lon="2.62253">
        <ele>64.5</ele>
        <time>2019-05-18T11:19:43Z</time>
      </trkpt>
      <trkpt lat="48.44099" lon="2.62276">
        <ele>63.79</ele>
        <time>2019-05-18T11:20:02Z</time>
      </trkpt>
      <trkpt lat="48.44095" lon="2.62285">
        <ele>64.93</ele>
        <time>2019-05-18T11:20:13Z</time>
      </trkpt>
      <trkpt lat="48.44092" lon="2.62294">
        <ele>63.62</ele>
        <time>2019-05-18T11:20:36Z</time>
      </trkpt>
      <trkpt lat="48.44088" lon="2.62317">
        <ele>63.87</ele>
        <time>2019-05-18T11:20:56Z</time>
      </trkpt>
      <trkpt lat="48.44084" lon="2.62342">
        <ele>63.92</ele>
        <time>2019-05-18T11:21:15Z</time>
      </trkpt>
      <trkpt lat="48.4408" lon="2.62359">
        <ele>63.86</ele>
        <time>2019-05-18T11:21:27Z</time>
      </trkpt>
      <trkpt lat="48.44077" lon="2.62376">
        <ele>63.55</ele>
        <time>2019-05-18T11:21:37Z</time>
      </trkpt>
      <trkpt lat="48.44069" lon="2.62402">
        <ele>64.33</ele>
        <time>2019-05-18T11:21:54Z</time>
      </trkpt>
      <trkpt lat="48.4407" lon="2.62416">
        <ele>64.01</ele>
        <time>2019-05-18T11:22:03Z</time>
      </trkpt>
      <trkpt lat="48.44082" lon="2.62432">
        <ele>63.79</ele>
        <time>2019-05-18T11:22:18Z</time>
      </trkpt>
      <trkpt lat="48.44098" lon="2.62454">
        <ele>64.2</ele>
        <time>2019-05-18T11:22:38Z</time>
      </trkpt>
      <trkpt lat="48.44104" lon="2.62467">
        <ele>63.4</ele>
        <time>2019-05-18T11:22:53Z</time>
      </trkpt>
      <trkpt lat="48.44111" lon="2.62486">
        <ele>63.69</ele>
        <time>2019-05-18T11:23:14Z</time>
      </trkpt>
      <trkpt lat="48.44118" lon="2.6251">
        <ele>63.55</ele>
        <time>2019-05-18T11:23:31Z</time>
      </trkpt>
      <trkpt lat="48.44131" lon="2.62535">
        <ele>63.57</ele>
        <time>2019-05-18T11:23:49Z</time>
      </trkpt>
      <trkpt lat="48.44137" lon="2.62555">
        <ele>64.63</ele>
        <time>2019-05-18T11:24:04Z</time>
      </trkpt>
      <trkpt lat="48.44145" lon="2.62578">
        <ele>64.12</ele>
        <time>2019-05-18T11:24:22Z</time>
      </trkpt>
      <trkpt lat="48.44146" lon="2.6258">
        <ele>64.1</ele>
        <time>2019-05-18T11:24:23Z</time>
      </trkpt>
      <trkpt lat="48.44155" lon="2.62603">
        <ele>63.4</ele>
        <time>2019-05-18T11:24:41Z</time>
      </trkpt>
      <trkpt lat="48.4416" lon="2.6262">
        <ele>63.14</ele>
        <time>2019-05-18T11:24:52Z</time>
      </trkpt>
      <trkpt lat="48.44164" lon="2.62632">
        <ele>62.66</ele>
        <time>2019-05-18T11:25:00Z</time>
      </trkpt>
      <trkpt lat="48.44166" lon="2.62639">
        <ele>62.17</ele>
        <time>2019-05-18T11:25:04Z</time>
      </trkpt>
      <trkpt lat="48.44169" lon="2.62654">
        <ele>62.34</ele>
        <time>2019-05-18T11:25:12Z</time>
      </trkpt>
      <trkpt lat="48.44175" lon="2.6267">
        <ele>61.36</ele>
        <time>2019-05-18T11:25:27Z</time>
      </trkpt>
      <trkpt lat="48.44177" lon="2.62671">
        <ele>61.51</ele>
        <time>2019-05-18T11:25:30Z</time>
      </trkpt>
      <trkpt lat="48.44183" lon="2.6269">
        <ele>61</ele>
        <time>2019-05-18T11:25:49Z</time>
      </trkpt>
      <trkpt lat="48.44184" lon="2.62695">
        <ele>61.14</ele>
        <time>2019-05-18T11:25:55Z</time>
      </trkpt>
      <trkpt lat="48.44186" lon="2.62702">
        <ele>61.03</ele>
        <time>2019-05-18T11:26:57Z</time>
      </trkpt>
      <trkpt lat="48.44198" lon="2.62734">
        <ele>60.64</ele>
        <time>2019-05-18T11:27:28Z</time>
      </trkpt>
      <trkpt lat="48.44206" lon="2.62759">
        <ele>60.61</ele>
        <time>2019-05-18T11:27:47Z</time>
      </trkpt>
      <trkpt lat="48.44207" lon="2.6276">
        <ele>60.58</ele>
        <time>2019-05-18T11:27:48Z</time>
      </trkpt>
      <trkpt lat="48.44212" lon="2.62793">
        <ele>60.54</ele>
        <time>2019-05-18T11:28:07Z</time>
      </trkpt>
      <trkpt lat="48.44221" lon="2.62822">
        <ele>59.76</ele>
        <time>2019-05-18T11:28:30Z</time>
      </trkpt>
      <trkpt lat="48.44225" lon="2.6286">
        <ele>59.12</ele>
        <time>2019-05-18T11:28:54Z</time>
      </trkpt>
      <trkpt lat="48.44232" lon="2.6289">
        <ele>58.21</ele>
        <time>2019-05-18T11:29:14Z</time>
      </trkpt>
      <trkpt lat="48.44241" lon="2.62927">
        <ele>57.48</ele>
        <time>2019-05-18T11:29:37Z</time>
      </trkpt>
      <trkpt lat="48.44254" lon="2.62959">
        <ele>57.78</ele>
        <time>2019-05-18T11:29:58Z</time>
      </trkpt>
      <trkpt lat="48.4427" lon="2.62982">
        <ele>56.55</ele>
        <time>2019-05-18T11:30:19Z</time>
      </trkpt>
      <trkpt lat="48.44287" lon="2.63001">
        <ele>56.47</ele>
        <time>2019-05-18T11:30:37Z</time>
      </trkpt>
      <trkpt lat="48.44304" lon="2.63028">
        <ele>55.46</ele>
        <time>2019-05-18T11:30:55Z</time>
      </trkpt>
      <trkpt lat="48.44313" lon="2.6304">
        <ele>55.22</ele>
        <time>2019-05-18T11:31:06Z</time>
      </trkpt>
      <trkpt lat="48.44326" lon="2.63062">
        <ele>54.96</ele>
        <time>2019-05-18T11:31:21Z</time>
      </trkpt>
      <trkpt lat="48.44336" lon="2.63083">
        <ele>54.31</ele>
        <time>2019-05-18T11:31:35Z</time>
      </trkpt>
      <trkpt lat="48.44349" lon="2.63113">
        <ele>53.77</ele>
        <time>2019-05-18T11:31:54Z</time>
      </trkpt>
      <trkpt lat="48.44352" lon="2.6313">
        <ele>53.97</ele>
        <time>2019-05-18T11:32:05Z</time>
      </trkpt>
      <trkpt lat="48.44363" lon="2.63155">
        <ele>53.56</ele>
        <time>2019-05-18T11:32:20Z</time>
      </trkpt>
      <trkpt lat="48.44373" lon="2.63173">
        <ele>53.42</ele>
        <time>2019-05-18T11:32:33Z</time>
      </trkpt>
      <trkpt lat="48.4438" lon="2.63194">
        <ele>53.56</ele>
        <time>2019-05-18T11:32:46Z</time>
      </trkpt>
      <trkpt lat="48.44387" lon="2.63215">
        <ele>53.45</ele>
        <time>2019-05-18T11:33:02Z</time>
      </trkpt>
      <trkpt lat="48.44398" lon="2.63246">
        <ele>53.41</ele>
        <time>2019-05-18T11:33:24Z</time>
      </trkpt>
      <trkpt lat="48.44405" lon="2.63287">
        <ele>52.73</ele>
        <time>2019-05-18T11:33:47Z</time>
      </trkpt>
      <trkpt lat="48.4441" lon="2.63321">
        <ele>52.85</ele>
        <time>2019-05-18T11:34:07Z</time>
      </trkpt>
      <trkpt lat="48.44418" lon="2.63351">
        <ele>53.61</ele>
        <time>2019-05-18T11:34:26Z</time>
      </trkpt>
      <trkpt lat="48.44426" lon="2.6339">
        <ele>52.83</ele>
        <time>2019-05-18T11:34:49Z</time>
      </trkpt>
      <trkpt lat="48.44436" lon="2.63422">
        <ele>52.97</ele>
        <time>2019-05-18T11:35:06Z</time>
      </trkpt>
      <trkpt lat="48.44447" lon="2.6344">
        <ele>52.15</ele>
        <time>2019-05-18T11:35:21Z</time>
      </trkpt>
      <trkpt lat="48.44448" lon="2.63444">
        <ele>52.12</ele>
        <time>2019-05-18T11:35:23Z</time>
      </trkpt>
      <trkpt lat="48.44453" lon="2.63466">
        <ele>51.73</ele>
        <time>2019-05-18T11:35:38Z</time>
      </trkpt>
      <trkpt lat="48.44462" lon="2.63491">
        <ele>51.66</ele>
        <time>2019-05-18T11:35:52Z</time>
      </trkpt>
      <trkpt lat="48.44471" lon="2.63517">
        <ele>50.57</ele>
        <time>2019-05-18T11:36:09Z</time>
      </trkpt>
      <trkpt lat="48.44479" lon="2.63543">
        <ele>50.14</ele>
        <time>2019-05-18T11:36:24Z</time>
      </trkpt>
      <trkpt lat="48.44492" lon="2.63574">
        <ele>49.87</ele>
        <time>2019-05-18T11:36:45Z</time>
      </trkpt>
      <trkpt lat="48.44507" lon="2.63607">
        <ele>50.03</ele>
        <time>2019-05-18T11:37:08Z</time>
      </trkpt>
      <trkpt lat="48.44518" lon="2.63634">
        <ele>50</ele>
        <time>2019-05-18T11:37:26Z</time>
      </trkpt>
      <trkpt lat="48.44522" lon="2.63652">
        <ele>49.77</ele>
        <time>2019-05-18T11:37:37Z</time>
      </trkpt>
      <trkpt lat="48.44524" lon="2.63659">
        <ele>49.91</ele>
        <time>2019-05-18T11:37:50Z</time>
      </trkpt>
      <trkpt lat="48.44525" lon="2.6366">
        <ele>50.23</ele>
        <time>2019-05-18T11:37:54Z</time>
      </trkpt>
      <trkpt lat="48.44521" lon="2.63656">
        <ele>49.18</ele>
        <time>2019-05-18T11:38:22Z</time>
      </trkpt>
      <trkpt lat="48.44522" lon="2.63654">
        <ele>49.85</ele>
        <time>2019-05-18T11:38:34Z</time>
      </trkpt>
      <trkpt lat="48.44529" lon="2.63665">
        <ele>49.91</ele>
        <time>2019-05-18T11:38:56Z</time>
      </trkpt>
      <trkpt lat="48.4453" lon="2.63673">
        <ele>50.19</ele>
        <time>2019-05-18T11:39:23Z</time>
      </trkpt>
      <trkpt lat="48.44531" lon="2.63678">
        <ele>50.2</ele>
        <time>2019-05-18T11:39:27Z</time>
      </trkpt>
      <trkpt lat="48.44535" lon="2.63682">
        <ele>50.69</ele>
        <time>2019-05-18T11:39:33Z</time>
      </trkpt>
      <trkpt lat="48.44536" lon="2.63695">
        <ele>50.66</ele>
        <time>2019-05-18T11:39:47Z</time>
      </trkpt>
      <trkpt lat="48.44528" lon="2.63725">
        <ele>51.43</ele>
        <time>2019-05-18T11:40:08Z</time>
      </trkpt>
      <trkpt lat="48.44531" lon="2.63738">
        <ele>51.22</ele>
        <time>2019-05-18T11:40:23Z</time>
      </trkpt>
      <trkpt lat="48.44535" lon="2.63734">
        <ele>50.39</ele>
        <time>2019-05-18T11:40:42Z</time>
      </trkpt>
      <trkpt lat="48.44539" lon="2.63731">
        <ele>50.57</ele>
        <time>2019-05-18T11:41:07Z</time>
      </trkpt>
      <trkpt lat="48.44559" lon="2.63733">
        <ele>49.11</ele>
        <time>2019-05-18T11:41:23Z</time>
      </trkpt>
      <trkpt lat="48.44551" lon="2.63762">
        <ele>54.21</ele>
        <time>2019-05-18T11:43:28Z</time>
      </trkpt>
      <trkpt lat="48.44552" lon="2.63763">
        <ele>54.75</ele>
        <time>2019-05-18T11:43:53Z</time>
      </trkpt>
      <trkpt lat="48.44551" lon="2.63762">
        <ele>54.97</ele>
        <time>2019-05-18T11:44:33Z</time>
      </trkpt>
      <trkpt lat="48.44553" lon="2.63763">
        <ele>55.08</ele>
        <time>2019-05-18T11:44:51Z</time>
      </trkpt>
      <trkpt lat="48.44566" lon="2.6377">
        <ele>55.1</ele>
        <time>2019-05-18T11:45:01Z</time>
      </trkpt>
      <trkpt lat="48.44586" lon="2.63775">
        <ele>55.41</ele>
        <time>2019-05-18T11:45:19Z</time>
      </trkpt>
      <trkpt lat="48.44602" lon="2.63772">
        <ele>55.83</ele>
        <time>2019-05-18T11:45:37Z</time>
      </trkpt>
      <trkpt lat="48.44597" lon="2.63755">
        <ele>55.84</ele>
        <time>2019-05-18T11:45:54Z</time>
      </trkpt>
      <trkpt lat="48.44593" lon="2.6375">
        <ele>54.68</ele>
        <time>2019-05-18T11:45:59Z</time>
      </trkpt>
      <trkpt lat="48.4459" lon="2.63745">
        <ele>54.28</ele>
        <time>2019-05-18T11:46:02Z</time>
      </trkpt>
      <trkpt lat="48.44588" lon="2.63745">
        <ele>53.89</ele>
        <time>2019-05-18T11:46:29Z</time>
      </trkpt>
      <trkpt lat="48.44598" lon="2.6376">
        <ele>55.92</ele>
        <time>2019-05-18T11:46:45Z</time>
      </trkpt>
      <trkpt lat="48.44601" lon="2.63764">
        <ele>55.91</ele>
        <time>2019-05-18T11:46:52Z</time>
      </trkpt>
      <trkpt lat="48.44619" lon="2.63773">
        <ele>56.46</ele>
        <time>2019-05-18T11:47:09Z</time>
      </trkpt>
      <trkpt lat="48.44638" lon="2.63775">
        <ele>57.4</ele>
        <time>2019-05-18T11:47:27Z</time>
      </trkpt>
      <trkpt lat="48.44653" lon="2.63771">
        <ele>56.28</ele>
        <time>2019-05-18T11:47:44Z</time>
      </trkpt>
      <trkpt lat="48.44668" lon="2.63766">
        <ele>57.43</ele>
        <time>2019-05-18T11:48:03Z</time>
      </trkpt>
      <trkpt lat="48.44674" lon="2.63766">
        <ele>56.7</ele>
        <time>2019-05-18T11:48:10Z</time>
      </trkpt>
      <trkpt lat="48.44677" lon="2.63766">
        <ele>56.91</ele>
        <time>2019-05-18T11:48:12Z</time>
      </trkpt>
      <trkpt lat="48.44694" lon="2.63765">
        <ele>57.33</ele>
        <time>2019-05-18T11:48:33Z</time>
      </trkpt>
      <trkpt lat="48.44714" lon="2.63763">
        <ele>58.41</ele>
        <time>2019-05-18T11:48:49Z</time>
      </trkpt>
      <trkpt lat="48.44735" lon="2.63767">
        <ele>59.21</ele>
        <time>2019-05-18T11:49:07Z</time>
      </trkpt>
      <trkpt lat="48.4475" lon="2.63774">
        <ele>59.3</ele>
        <time>2019-05-18T11:49:26Z</time>
      </trkpt>
      <trkpt lat="48.44766" lon="2.63788">
        <ele>59.85</ele>
        <time>2019-05-18T11:49:44Z</time>
      </trkpt>
      <trkpt lat="48.44779" lon="2.63786">
        <ele>60.52</ele>
        <time>2019-05-18T11:49:55Z</time>
      </trkpt>
      <trkpt lat="48.4478" lon="2.63783">
        <ele>60.55</ele>
        <time>2019-05-18T11:49:57Z</time>
      </trkpt>
      <trkpt lat="48.44788" lon="2.63782">
        <ele>60.21</ele>
        <time>2019-05-18T11:50:04Z</time>
      </trkpt>
      <trkpt lat="48.44801" lon="2.63797">
        <ele>60.68</ele>
        <time>2019-05-18T11:50:20Z</time>
      </trkpt>
      <trkpt lat="48.44808" lon="2.63809">
        <ele>61.12</ele>
        <time>2019-05-18T11:50:30Z</time>
      </trkpt>
      <trkpt lat="48.44816" lon="2.63815">
        <ele>62.1</ele>
        <time>2019-05-18T11:50:38Z</time>
      </trkpt>
      <trkpt lat="48.44824" lon="2.63829">
        <ele>62.56</ele>
        <time>2019-05-18T11:50:53Z</time>
      </trkpt>
      <trkpt lat="48.44833" lon="2.63845">
        <ele>65.27</ele>
        <time>2019-05-18T11:51:17Z</time>
      </trkpt>
      <trkpt lat="48.44846" lon="2.63867">
        <ele>65.89</ele>
        <time>2019-05-18T11:51:37Z</time>
      </trkpt>
      <trkpt lat="48.44867" lon="2.63886">
        <ele>66.4</ele>
        <time>2019-05-18T11:51:56Z</time>
      </trkpt>
      <trkpt lat="48.44884" lon="2.6389">
        <ele>68.85</ele>
        <time>2019-05-18T11:52:19Z</time>
      </trkpt>
      <trkpt lat="48.44896" lon="2.63886">
        <ele>70.91</ele>
        <time>2019-05-18T11:52:39Z</time>
      </trkpt>
      <trkpt lat="48.44906" lon="2.63891">
        <ele>71.86</ele>
        <time>2019-05-18T11:52:47Z</time>
      </trkpt>
      <trkpt lat="48.44918" lon="2.63893">
        <ele>71.7</ele>
        <time>2019-05-18T11:53:03Z</time>
      </trkpt>
      <trkpt lat="48.44925" lon="2.63913">
        <ele>73.56</ele>
        <time>2019-05-18T11:53:22Z</time>
      </trkpt>
      <trkpt lat="48.44927" lon="2.63943">
        <ele>75.77</ele>
        <time>2019-05-18T11:53:42Z</time>
      </trkpt>
      <trkpt lat="48.44925" lon="2.63961">
        <ele>78.05</ele>
        <time>2019-05-18T11:53:59Z</time>
      </trkpt>
      <trkpt lat="48.44924" lon="2.63977">
        <ele>80.93</ele>
        <time>2019-05-18T11:54:15Z</time>
      </trkpt>
      <trkpt lat="48.44924" lon="2.63985">
        <ele>82.25</ele>
        <time>2019-05-18T11:54:24Z</time>
      </trkpt>
      <trkpt lat="48.44919" lon="2.63993">
        <ele>82.78</ele>
        <time>2019-05-18T11:54:33Z</time>
      </trkpt>
      <trkpt lat="48.44917" lon="2.63999">
        <ele>83.67</ele>
        <time>2019-05-18T11:54:48Z</time>
      </trkpt>
      <trkpt lat="48.44907" lon="2.64008">
        <ele>82.31</ele>
        <time>2019-05-18T11:55:05Z</time>
      </trkpt>
      <trkpt lat="48.44897" lon="2.64027">
        <ele>82.76</ele>
        <time>2019-05-18T11:55:21Z</time>
      </trkpt>
      <trkpt lat="48.44896" lon="2.64029">
        <ele>82.97</ele>
        <time>2019-05-18T11:55:22Z</time>
      </trkpt>
      <trkpt lat="48.44888" lon="2.64037">
        <ele>82.38</ele>
        <time>2019-05-18T11:55:43Z</time>
      </trkpt>
      <trkpt lat="48.44884" lon="2.64041">
        <ele>83.85</ele>
        <time>2019-05-18T11:56:56Z</time>
      </trkpt>
      <trkpt lat="48.44881" lon="2.64052">
        <ele>83.24</ele>
        <time>2019-05-18T11:57:17Z</time>
      </trkpt>
      <trkpt lat="48.44882" lon="2.64073">
        <ele>83.97</ele>
        <time>2019-05-18T11:57:36Z</time>
      </trkpt>
      <trkpt lat="48.44885" lon="2.64088">
        <ele>86.44</ele>
        <time>2019-05-18T11:57:55Z</time>
      </trkpt>
      <trkpt lat="48.44883" lon="2.64096">
        <ele>87.72</ele>
        <time>2019-05-18T11:58:02Z</time>
      </trkpt>
      <trkpt lat="48.44879" lon="2.64108">
        <ele>89.54</ele>
        <time>2019-05-18T11:58:14Z</time>
      </trkpt>
      <trkpt lat="48.44879" lon="2.64207">
        <ele>101.52</ele>
        <time>2019-05-18T11:59:39Z</time>
      </trkpt>
      <trkpt lat="48.44879" lon="2.64208">
        <ele>99.4</ele>
        <time>2019-05-18T12:00:09Z</time>
      </trkpt>
      <trkpt lat="48.44882" lon="2.64217">
        <ele>103.91</ele>
        <time>2019-05-18T12:05:03Z</time>
      </trkpt>
      <trkpt lat="48.4489" lon="2.64232">
        <ele>106.68</ele>
        <time>2019-05-18T12:05:21Z</time>
      </trkpt>
      <trkpt lat="48.44893" lon="2.64243">
        <ele>107.24</ele>
        <time>2019-05-18T12:05:37Z</time>
      </trkpt>
      <trkpt lat="48.44894" lon="2.64257">
        <ele>107.53</ele>
        <time>2019-05-18T12:05:46Z</time>
      </trkpt>
      <trkpt lat="48.44893" lon="2.64265">
        <ele>107.06</ele>
        <time>2019-05-18T12:05:51Z</time>
      </trkpt>
      <trkpt lat="48.44901" lon="2.64273">
        <ele>109.14</ele>
        <time>2019-05-18T12:06:06Z</time>
      </trkpt>
      <trkpt lat="48.44908" lon="2.64288">
        <ele>108.72</ele>
        <time>2019-05-18T12:06:19Z</time>
      </trkpt>
      <trkpt lat="48.44909" lon="2.64297">
        <ele>108.78</ele>
        <time>2019-05-18T12:06:25Z</time>
      </trkpt>
      <trkpt lat="48.44911" lon="2.64306">
        <ele>109.05</ele>
        <time>2019-05-18T12:06:32Z</time>
      </trkpt>
      <trkpt lat="48.44918" lon="2.64322">
        <ele>109.62</ele>
        <time>2019-05-18T12:06:45Z</time>
      </trkpt>
      <trkpt lat="48.44913" lon="2.64329">
        <ele>109.34</ele>
        <time>2019-05-18T12:06:52Z</time>
      </trkpt>
      <trkpt lat="48.44902" lon="2.64334">
        <ele>107.62</ele>
        <time>2019-05-18T12:07:11Z</time>
      </trkpt>
      <trkpt lat="48.44887" lon="2.6434">
        <ele>106.45</ele>
        <time>2019-05-18T12:07:29Z</time>
      </trkpt>
      <trkpt lat="48.44886" lon="2.64341">
        <ele>106.21</ele>
        <time>2019-05-18T12:07:30Z</time>
      </trkpt>
      <trkpt lat="48.44875" lon="2.64362">
        <ele>106.07</ele>
        <time>2019-05-18T12:07:46Z</time>
      </trkpt>
      <trkpt lat="48.44874" lon="2.64368">
        <ele>106.53</ele>
        <time>2019-05-18T12:07:52Z</time>
      </trkpt>
      <trkpt lat="48.44865" lon="2.64379">
        <ele>106.12</ele>
        <time>2019-05-18T12:08:01Z</time>
      </trkpt>
      <trkpt lat="48.44857" lon="2.64379">
        <ele>106.11</ele>
        <time>2019-05-18T12:08:07Z</time>
      </trkpt>
      <trkpt lat="48.44847" lon="2.6439">
        <ele>104.79</ele>
        <time>2019-05-18T12:08:24Z</time>
      </trkpt>
      <trkpt lat="48.44841" lon="2.64408">
        <ele>103.26</ele>
        <time>2019-05-18T12:08:40Z</time>
      </trkpt>
      <trkpt lat="48.44829" lon="2.64424">
        <ele>103.2</ele>
        <time>2019-05-18T12:08:57Z</time>
      </trkpt>
      <trkpt lat="48.44819" lon="2.64428">
        <ele>100.54</ele>
        <time>2019-05-18T12:09:13Z</time>
      </trkpt>
      <trkpt lat="48.44813" lon="2.64434">
        <ele>99</ele>
        <time>2019-05-18T12:09:24Z</time>
      </trkpt>
      <trkpt lat="48.44807" lon="2.64445">
        <ele>96.8</ele>
        <time>2019-05-18T12:09:39Z</time>
      </trkpt>
      <trkpt lat="48.44801" lon="2.64457">
        <ele>95.3</ele>
        <time>2019-05-18T12:09:53Z</time>
      </trkpt>
      <trkpt lat="48.44801" lon="2.64457">
        <ele>95.06</ele>
        <time>2019-05-18T12:09:54Z</time>
      </trkpt>
      <trkpt lat="48.44797" lon="2.64465">
        <ele>93.74</ele>
        <time>2019-05-18T12:10:09Z</time>
      </trkpt>
      <trkpt lat="48.44796" lon="2.64469">
        <ele>92.17</ele>
        <time>2019-05-18T12:10:27Z</time>
      </trkpt>
      <trkpt lat="48.44794" lon="2.64471">
        <ele>92.23</ele>
        <time>2019-05-18T12:10:30Z</time>
      </trkpt>
      <trkpt lat="48.4479" lon="2.64483">
        <ele>89.59</ele>
        <time>2019-05-18T12:10:50Z</time>
      </trkpt>
      <trkpt lat="48.44789" lon="2.64489">
        <ele>88.27</ele>
        <time>2019-05-18T12:11:07Z</time>
      </trkpt>
      <trkpt lat="48.44787" lon="2.64488">
        <ele>86.95</ele>
        <time>2019-05-18T12:11:19Z</time>
      </trkpt>
      <trkpt lat="48.44782" lon="2.64498">
        <ele>84.63</ele>
        <time>2019-05-18T12:11:36Z</time>
      </trkpt>
      <trkpt lat="48.4477" lon="2.64507">
        <ele>81.92</ele>
        <time>2019-05-18T12:11:52Z</time>
      </trkpt>
      <trkpt lat="48.44759" lon="2.64521">
        <ele>81.69</ele>
        <time>2019-05-18T12:12:07Z</time>
      </trkpt>
      <trkpt lat="48.44753" lon="2.64527">
        <ele>82.24</ele>
        <time>2019-05-18T12:12:26Z</time>
      </trkpt>
      <trkpt lat="48.44749" lon="2.64529">
        <ele>82.71</ele>
        <time>2019-05-18T12:12:32Z</time>
      </trkpt>
      <trkpt lat="48.44744" lon="2.64533">
        <ele>82.75</ele>
        <time>2019-05-18T12:12:36Z</time>
      </trkpt>
      <trkpt lat="48.44744" lon="2.64533">
        <ele>82.46</ele>
        <time>2019-05-18T12:13:00Z</time>
      </trkpt>
      <trkpt lat="48.44742" lon="2.64533">
        <ele>82.74</ele>
        <time>2019-05-18T12:13:23Z</time>
      </trkpt>
      <trkpt lat="48.44742" lon="2.64534">
        <ele>83.18</ele>
        <time>2019-05-18T12:13:45Z</time>
      </trkpt>
      <trkpt lat="48.44736" lon="2.64539">
        <ele>84.6</ele>
        <time>2019-05-18T12:14:07Z</time>
      </trkpt>
      <trkpt lat="48.44721" lon="2.64547">
        <ele>84.94</ele>
        <time>2019-05-18T12:14:24Z</time>
      </trkpt>
      <trkpt lat="48.44711" lon="2.64553">
        <ele>86.04</ele>
        <time>2019-05-18T12:14:42Z</time>
      </trkpt>
      <trkpt lat="48.44696" lon="2.64558">
        <ele>85.85</ele>
        <time>2019-05-18T12:14:59Z</time>
      </trkpt>
      <trkpt lat="48.44689" lon="2.64564">
        <ele>87.52</ele>
        <time>2019-05-18T12:15:14Z</time>
      </trkpt>
      <trkpt lat="48.44683" lon="2.64587">
        <ele>87.74</ele>
        <time>2019-05-18T12:15:31Z</time>
      </trkpt>
      <trkpt lat="48.44676" lon="2.64616">
        <ele>85.45</ele>
        <time>2019-05-18T12:15:52Z</time>
      </trkpt>
      <trkpt lat="48.44665" lon="2.64633">
        <ele>83.56</ele>
        <time>2019-05-18T12:16:03Z</time>
      </trkpt>
      <trkpt lat="48.44663" lon="2.64636">
        <ele>83.68</ele>
        <time>2019-05-18T12:16:05Z</time>
      </trkpt>
      <trkpt lat="48.44653" lon="2.64646">
        <ele>82.15</ele>
        <time>2019-05-18T12:16:18Z</time>
      </trkpt>
      <trkpt lat="48.44639" lon="2.64647">
        <ele>82.91</ele>
        <time>2019-05-18T12:16:35Z</time>
      </trkpt>
      <trkpt lat="48.44636" lon="2.6465">
        <ele>83.67</ele>
        <time>2019-05-18T12:16:41Z</time>
      </trkpt>
      <trkpt lat="48.44629" lon="2.64654">
        <ele>84.31</ele>
        <time>2019-05-18T12:16:51Z</time>
      </trkpt>
      <trkpt lat="48.44626" lon="2.64661">
        <ele>85.15</ele>
        <time>2019-05-18T12:16:59Z</time>
      </trkpt>
      <trkpt lat="48.44621" lon="2.64675">
        <ele>86.77</ele>
        <time>2019-05-18T12:17:12Z</time>
      </trkpt>
      <trkpt lat="48.44612" lon="2.64675">
        <ele>88.62</ele>
        <time>2019-05-18T12:17:26Z</time>
      </trkpt>
      <trkpt lat="48.44603" lon="2.64666">
        <ele>91.7</ele>
        <time>2019-05-18T12:17:44Z</time>
      </trkpt>
      <trkpt lat="48.44601" lon="2.64671">
        <ele>93.6</ele>
        <time>2019-05-18T12:18:01Z</time>
      </trkpt>
      <trkpt lat="48.44598" lon="2.64683">
        <ele>95.33</ele>
        <time>2019-05-18T12:18:16Z</time>
      </trkpt>
      <trkpt lat="48.44593" lon="2.64694">
        <ele>97.12</ele>
        <time>2019-05-18T12:18:36Z</time>
      </trkpt>
      <trkpt lat="48.44592" lon="2.64701">
        <ele>97.33</ele>
        <time>2019-05-18T12:18:53Z</time>
      </trkpt>
      <trkpt lat="48.44593" lon="2.64703">
        <ele>97.81</ele>
        <time>2019-05-18T12:19:19Z</time>
      </trkpt>
      <trkpt lat="48.44595" lon="2.64702">
        <ele>97.7</ele>
        <time>2019-05-18T12:19:44Z</time>
      </trkpt>
      <trkpt lat="48.44594" lon="2.64699">
        <ele>98.63</ele>
        <time>2019-05-18T12:20:10Z</time>
      </trkpt>
      <trkpt lat="48.44598" lon="2.64703">
        <ele>98.51</ele>
        <time>2019-05-18T12:20:37Z</time>
      </trkpt>
      <trkpt lat="48.44598" lon="2.64713">
        <ele>99.86</ele>
        <time>2019-05-18T12:21:00Z</time>
      </trkpt>
      <trkpt lat="48.44596" lon="2.64725">
        <ele>103.02</ele>
        <time>2019-05-18T12:21:15Z</time>
      </trkpt>
      <trkpt lat="48.4459" lon="2.64747">
        <ele>104.35</ele>
        <time>2019-05-18T12:21:30Z</time>
      </trkpt>
      <trkpt lat="48.44586" lon="2.64757">
        <ele>107.82</ele>
        <time>2019-05-18T12:21:49Z</time>
      </trkpt>
      <trkpt lat="48.44584" lon="2.64768">
        <ele>108.43</ele>
        <time>2019-05-18T12:22:07Z</time>
      </trkpt>
      <trkpt lat="48.44581" lon="2.64784">
        <ele>110.49</ele>
        <time>2019-05-18T12:22:26Z</time>
      </trkpt>
      <trkpt lat="48.44579" lon="2.648">
        <ele>111.94</ele>
        <time>2019-05-18T12:22:41Z</time>
      </trkpt>
      <trkpt lat="48.4458" lon="2.6482">
        <ele>111.33</ele>
        <time>2019-05-18T12:22:59Z</time>
      </trkpt>
      <trkpt lat="48.44579" lon="2.64837">
        <ele>111.28</ele>
        <time>2019-05-18T12:23:12Z</time>
      </trkpt>
      <trkpt lat="48.44578" lon="2.64844">
        <ele>110.43</ele>
        <time>2019-05-18T12:23:27Z</time>
      </trkpt>
      <trkpt lat="48.44581" lon="2.64855">
        <ele>110.59</ele>
        <time>2019-05-18T12:23:35Z</time>
      </trkpt>
      <trkpt lat="48.4458" lon="2.64871">
        <ele>110.23</ele>
        <time>2019-05-18T12:23:46Z</time>
      </trkpt>
      <trkpt lat="48.44579" lon="2.64876">
        <ele>110.1</ele>
        <time>2019-05-18T12:23:50Z</time>
      </trkpt>
      <trkpt lat="48.44579" lon="2.64882">
        <ele>109.18</ele>
        <time>2019-05-18T12:23:54Z</time>
      </trkpt>
      <trkpt lat="48.44578" lon="2.64893">
        <ele>109.64</ele>
        <time>2019-05-18T12:24:06Z</time>
      </trkpt>
      <trkpt lat="48.44578" lon="2.64909">
        <ele>107.81</ele>
        <time>2019-05-18T12:24:26Z</time>
      </trkpt>
      <trkpt lat="48.44572" lon="2.64919">
        <ele>105.61</ele>
        <time>2019-05-18T12:24:40Z</time>
      </trkpt>
      <trkpt lat="48.44569" lon="2.6494">
        <ele>103.22</ele>
        <time>2019-05-18T12:24:57Z</time>
      </trkpt>
      <trkpt lat="48.44574" lon="2.64944">
        <ele>101.56</ele>
        <time>2019-05-18T12:25:13Z</time>
      </trkpt>
      <trkpt lat="48.44582" lon="2.64947">
        <ele>98.59</ele>
        <time>2019-05-18T12:25:31Z</time>
      </trkpt>
      <trkpt lat="48.44589" lon="2.64959">
        <ele>96.19</ele>
        <time>2019-05-18T12:25:43Z</time>
      </trkpt>
      <trkpt lat="48.44592" lon="2.64969">
        <ele>96.33</ele>
        <time>2019-05-18T12:25:48Z</time>
      </trkpt>
      <trkpt lat="48.44595" lon="2.64989">
        <ele>96.48</ele>
        <time>2019-05-18T12:26:04Z</time>
      </trkpt>
      <trkpt lat="48.44595" lon="2.64997">
        <ele>95.04</ele>
        <time>2019-05-18T12:26:10Z</time>
      </trkpt>
      <trkpt lat="48.44601" lon="2.65021">
        <ele>94.69</ele>
        <time>2019-05-18T12:26:27Z</time>
      </trkpt>
      <trkpt lat="48.44602" lon="2.65019">
        <ele>94.61</ele>
        <time>2019-05-18T12:26:42Z</time>
      </trkpt>
      <trkpt lat="48.4461" lon="2.65026">
        <ele>97.66</ele>
        <time>2019-05-18T12:26:58Z</time>
      </trkpt>
      <trkpt lat="48.4462" lon="2.65031">
        <ele>99.9</ele>
        <time>2019-05-18T12:27:15Z</time>
      </trkpt>
      <trkpt lat="48.44631" lon="2.65048">
        <ele>100.86</ele>
        <time>2019-05-18T12:27:34Z</time>
      </trkpt>
      <trkpt lat="48.44636" lon="2.65068">
        <ele>102.64</ele>
        <time>2019-05-18T12:27:53Z</time>
      </trkpt>
      <trkpt lat="48.44638" lon="2.65077">
        <ele>104.77</ele>
        <time>2019-05-18T12:28:11Z</time>
      </trkpt>
      <trkpt lat="48.44639" lon="2.65094">
        <ele>107.25</ele>
        <time>2019-05-18T12:28:31Z</time>
      </trkpt>
      <trkpt lat="48.44635" lon="2.65106">
        <ele>109.44</ele>
        <time>2019-05-18T12:29:14Z</time>
      </trkpt>
      <trkpt lat="48.44631" lon="2.65123">
        <ele>114.66</ele>
        <time>2019-05-18T12:33:08Z</time>
      </trkpt>
      <trkpt lat="48.44632" lon="2.6514">
        <ele>116.01</ele>
        <time>2019-05-18T12:33:26Z</time>
      </trkpt>
      <trkpt lat="48.44641" lon="2.65148">
        <ele>117.08</ele>
        <time>2019-05-18T12:33:38Z</time>
      </trkpt>
      <trkpt lat="48.44643" lon="2.65158">
        <ele>117.23</ele>
        <time>2019-05-18T12:33:45Z</time>
      </trkpt>
      <trkpt lat="48.44643" lon="2.65161">
        <ele>116.39</ele>
        <time>2019-05-18T12:33:47Z</time>
      </trkpt>
      <trkpt lat="48.44646" lon="2.65179">
        <ele>116.29</ele>
        <time>2019-05-18T12:34:00Z</time>
      </trkpt>
      <trkpt lat="48.4465" lon="2.65192">
        <ele>115.09</ele>
        <time>2019-05-18T12:34:09Z</time>
      </trkpt>
      <trkpt lat="48.44659" lon="2.6521">
        <ele>115.13</ele>
        <time>2019-05-18T12:34:25Z</time>
      </trkpt>
      <trkpt lat="48.44666" lon="2.65218">
        <ele>113.51</ele>
        <time>2019-05-18T12:34:34Z</time>
      </trkpt>
      <trkpt lat="48.44671" lon="2.65217">
        <ele>113.07</ele>
        <time>2019-05-18T12:34:40Z</time>
      </trkpt>
      <trkpt lat="48.44685" lon="2.65215">
        <ele>112.2</ele>
        <time>2019-05-18T12:34:57Z</time>
      </trkpt>
      <trkpt lat="48.44698" lon="2.65217">
        <ele>113.74</ele>
        <time>2019-05-18T12:35:10Z</time>
      </trkpt>
      <trkpt lat="48.44707" lon="2.6522">
        <ele>113.73</ele>
        <time>2019-05-18T12:35:20Z</time>
      </trkpt>
      <trkpt lat="48.44716" lon="2.65235">
        <ele>114.73</ele>
        <time>2019-05-18T12:35:30Z</time>
      </trkpt>
      <trkpt lat="48.44726" lon="2.65251">
        <ele>114.35</ele>
        <time>2019-05-18T12:35:47Z</time>
      </trkpt>
      <trkpt lat="48.4473" lon="2.65261">
        <ele>114.99</ele>
        <time>2019-05-18T12:35:59Z</time>
      </trkpt>
      <trkpt lat="48.44732" lon="2.6528">
        <ele>112.79</ele>
        <time>2019-05-18T12:36:14Z</time>
      </trkpt>
      <trkpt lat="48.44734" lon="2.65297">
        <ele>110.05</ele>
        <time>2019-05-18T12:36:27Z</time>
      </trkpt>
      <trkpt lat="48.44738" lon="2.65322">
        <ele>107.03</ele>
        <time>2019-05-18T12:36:46Z</time>
      </trkpt>
      <trkpt lat="48.44734" lon="2.65354">
        <ele>104.82</ele>
        <time>2019-05-18T12:37:03Z</time>
      </trkpt>
      <trkpt lat="48.44733" lon="2.65374">
        <ele>103.11</ele>
        <time>2019-05-18T12:37:16Z</time>
      </trkpt>
      <trkpt lat="48.44735" lon="2.654">
        <ele>101.54</ele>
        <time>2019-05-18T12:37:32Z</time>
      </trkpt>
      <trkpt lat="48.44735" lon="2.654">
        <ele>101.77</ele>
        <time>2019-05-18T12:37:33Z</time>
      </trkpt>
      <trkpt lat="48.44735" lon="2.65406">
        <ele>101.02</ele>
        <time>2019-05-18T12:37:41Z</time>
      </trkpt>
      <trkpt lat="48.44734" lon="2.65421">
        <ele>100.33</ele>
        <time>2019-05-18T12:37:50Z</time>
      </trkpt>
      <trkpt lat="48.44733" lon="2.65436">
        <ele>100.22</ele>
        <time>2019-05-18T12:37:59Z</time>
      </trkpt>
      <trkpt lat="48.44735" lon="2.65451">
        <ele>99.22</ele>
        <time>2019-05-18T12:38:15Z</time>
      </trkpt>
      <trkpt lat="48.44739" lon="2.65456">
        <ele>99.22</ele>
        <time>2019-05-18T12:38:37Z</time>
      </trkpt>
      <trkpt lat="48.44752" lon="2.65476">
        <ele>99.93</ele>
        <time>2019-05-18T12:38:55Z</time>
      </trkpt>
      <trkpt lat="48.44753" lon="2.65477">
        <ele>99.93</ele>
        <time>2019-05-18T12:38:56Z</time>
      </trkpt>
      <trkpt lat="48.4477" lon="2.65489">
        <ele>100.26</ele>
        <time>2019-05-18T12:39:10Z</time>
      </trkpt>
      <trkpt lat="48.44773" lon="2.65487">
        <ele>100.65</ele>
        <time>2019-05-18T12:39:13Z</time>
      </trkpt>
      <trkpt lat="48.44781" lon="2.65482">
        <ele>100.72</ele>
        <time>2019-05-18T12:39:20Z</time>
      </trkpt>
      <trkpt lat="48.44783" lon="2.65478">
        <ele>101.45</ele>
        <time>2019-05-18T12:39:23Z</time>
      </trkpt>
      <trkpt lat="48.44795" lon="2.65476">
        <ele>103.71</ele>
        <time>2019-05-18T12:39:40Z</time>
      </trkpt>
      <trkpt lat="48.44804" lon="2.65473">
        <ele>106.72</ele>
        <time>2019-05-18T12:39:56Z</time>
      </trkpt>
      <trkpt lat="48.44812" lon="2.65469">
        <ele>109.99</ele>
        <time>2019-05-18T12:40:10Z</time>
      </trkpt>
      <trkpt lat="48.44824" lon="2.65476">
        <ele>112</ele>
        <time>2019-05-18T12:40:28Z</time>
      </trkpt>
      <trkpt lat="48.44839" lon="2.65496">
        <ele>113.38</ele>
        <time>2019-05-18T12:40:50Z</time>
      </trkpt>
      <trkpt lat="48.4485" lon="2.65494">
        <ele>113.39</ele>
        <time>2019-05-18T12:41:11Z</time>
      </trkpt>
      <trkpt lat="48.44853" lon="2.65492">
        <ele>114.73</ele>
        <time>2019-05-18T12:41:26Z</time>
      </trkpt>
      <trkpt lat="48.44865" lon="2.65507">
        <ele>117.38</ele>
        <time>2019-05-18T12:41:49Z</time>
      </trkpt>
      <trkpt lat="48.44875" lon="2.65529">
        <ele>118.46</ele>
        <time>2019-05-18T12:42:08Z</time>
      </trkpt>
      <trkpt lat="48.44874" lon="2.65535">
        <ele>118.63</ele>
        <time>2019-05-18T12:42:25Z</time>
      </trkpt>
      <trkpt lat="48.44871" lon="2.65555">
        <ele>119.19</ele>
        <time>2019-05-18T12:42:41Z</time>
      </trkpt>
      <trkpt lat="48.44866" lon="2.65561">
        <ele>118.95</ele>
        <time>2019-05-18T12:43:03Z</time>
      </trkpt>
      <trkpt lat="48.44862" lon="2.65579">
        <ele>119.15</ele>
        <time>2019-05-18T12:43:22Z</time>
      </trkpt>
      <trkpt lat="48.44855" lon="2.65593">
        <ele>119.22</ele>
        <time>2019-05-18T12:43:41Z</time>
      </trkpt>
      <trkpt lat="48.44855" lon="2.65595">
        <ele>119.88</ele>
        <time>2019-05-18T12:43:42Z</time>
      </trkpt>
      <trkpt lat="48.4485" lon="2.65613">
        <ele>119.27</ele>
        <time>2019-05-18T12:43:58Z</time>
      </trkpt>
      <trkpt lat="48.44849" lon="2.65616">
        <ele>119.67</ele>
        <time>2019-05-18T12:44:00Z</time>
      </trkpt>
      <trkpt lat="48.44848" lon="2.6562">
        <ele>119.33</ele>
        <time>2019-05-18T12:44:02Z</time>
      </trkpt>
      <trkpt lat="48.44845" lon="2.65628">
        <ele>119.58</ele>
        <time>2019-05-18T12:44:08Z</time>
      </trkpt>
      <trkpt lat="48.44843" lon="2.65642">
        <ele>119.3</ele>
        <time>2019-05-18T12:44:17Z</time>
      </trkpt>
      <trkpt lat="48.44835" lon="2.65665">
        <ele>119.33</ele>
        <time>2019-05-18T12:44:33Z</time>
      </trkpt>
      <trkpt lat="48.44829" lon="2.65691">
        <ele>119.39</ele>
        <time>2019-05-18T12:44:51Z</time>
      </trkpt>
      <trkpt lat="48.4482" lon="2.65719">
        <ele>119.52</ele>
        <time>2019-05-18T12:45:09Z</time>
      </trkpt>
      <trkpt lat="48.44816" lon="2.65741">
        <ele>119.17</ele>
        <time>2019-05-18T12:45:22Z</time>
      </trkpt>
      <trkpt lat="48.4481" lon="2.65759">
        <ele>119.5</ele>
        <time>2019-05-18T12:45:36Z</time>
      </trkpt>
      <trkpt lat="48.44807" lon="2.65778">
        <ele>119.46</ele>
        <time>2019-05-18T12:45:47Z</time>
      </trkpt>
      <trkpt lat="48.44803" lon="2.65789">
        <ele>119.46</ele>
        <time>2019-05-18T12:45:54Z</time>
      </trkpt>
      <trkpt lat="48.44794" lon="2.65811">
        <ele>119.27</ele>
        <time>2019-05-18T12:46:09Z</time>
      </trkpt>
      <trkpt lat="48.44791" lon="2.65828">
        <ele>119.04</ele>
        <time>2019-05-18T12:46:19Z</time>
      </trkpt>
      <trkpt lat="48.44788" lon="2.65838">
        <ele>118.95</ele>
        <time>2019-05-18T12:46:24Z</time>
      </trkpt>
      <trkpt lat="48.44785" lon="2.65861">
        <ele>118.43</ele>
        <time>2019-05-18T12:46:40Z</time>
      </trkpt>
      <trkpt lat="48.44797" lon="2.65875">
        <ele>118.89</ele>
        <time>2019-05-18T12:46:57Z</time>
      </trkpt>
      <trkpt lat="48.44811" lon="2.65877">
        <ele>119.49</ele>
        <time>2019-05-18T12:47:15Z</time>
      </trkpt>
      <trkpt lat="48.44839" lon="2.6588">
        <ele>119.69</ele>
        <time>2019-05-18T12:47:37Z</time>
      </trkpt>
      <trkpt lat="48.4486" lon="2.65885">
        <ele>119.91</ele>
        <time>2019-05-18T12:47:58Z</time>
      </trkpt>
      <trkpt lat="48.44876" lon="2.65887">
        <ele>119.57</ele>
        <time>2019-05-18T12:48:13Z</time>
      </trkpt>
      <trkpt lat="48.44898" lon="2.65893">
        <ele>120.47</ele>
        <time>2019-05-18T12:48:32Z</time>
      </trkpt>
      <trkpt lat="48.44922" lon="2.65895">
        <ele>120.17</ele>
        <time>2019-05-18T12:48:51Z</time>
      </trkpt>
      <trkpt lat="48.44948" lon="2.65898">
        <ele>120.45</ele>
        <time>2019-05-18T12:49:16Z</time>
      </trkpt>
      <trkpt lat="48.44957" lon="2.65901">
        <ele>120.08</ele>
        <time>2019-05-18T12:49:23Z</time>
      </trkpt>
      <trkpt lat="48.44959" lon="2.65902">
        <ele>120.39</ele>
        <time>2019-05-18T12:49:25Z</time>
      </trkpt>
      <trkpt lat="48.4497" lon="2.65904">
        <ele>120.61</ele>
        <time>2019-05-18T12:49:33Z</time>
      </trkpt>
      <trkpt lat="48.44986" lon="2.65905">
        <ele>120.19</ele>
        <time>2019-05-18T12:49:49Z</time>
      </trkpt>
      <trkpt lat="48.45005" lon="2.65909">
        <ele>120.85</ele>
        <time>2019-05-18T12:50:04Z</time>
      </trkpt>
      <trkpt lat="48.45018" lon="2.6591">
        <ele>120.43</ele>
        <time>2019-05-18T12:50:20Z</time>
      </trkpt>
      <trkpt lat="48.45036" lon="2.65914">
        <ele>120.42</ele>
        <time>2019-05-18T12:50:38Z</time>
      </trkpt>
      <trkpt lat="48.45059" lon="2.65916">
        <ele>120.54</ele>
        <time>2019-05-18T12:50:55Z</time>
      </trkpt>
      <trkpt lat="48.45077" lon="2.65921">
        <ele>120.37</ele>
        <time>2019-05-18T12:51:11Z</time>
      </trkpt>
      <trkpt lat="48.45098" lon="2.65926">
        <ele>120.38</ele>
        <time>2019-05-18T12:51:27Z</time>
      </trkpt>
      <trkpt lat="48.45112" lon="2.65928">
        <ele>120.46</ele>
        <time>2019-05-18T12:51:41Z</time>
      </trkpt>
      <trkpt lat="48.45132" lon="2.65934">
        <ele>120.34</ele>
        <time>2019-05-18T12:52:05Z</time>
      </trkpt>
      <trkpt lat="48.45155" lon="2.65934">
        <ele>120.64</ele>
        <time>2019-05-18T12:52:22Z</time>
      </trkpt>
      <trkpt lat="48.45176" lon="2.65938">
        <ele>119.52</ele>
        <time>2019-05-18T12:52:41Z</time>
      </trkpt>
      <trkpt lat="48.4518" lon="2.65939">
        <ele>121.06</ele>
        <time>2019-05-18T12:52:43Z</time>
      </trkpt>
      <trkpt lat="48.45203" lon="2.65943">
        <ele>121.09</ele>
        <time>2019-05-18T12:53:00Z</time>
      </trkpt>
      <trkpt lat="48.45216" lon="2.65944">
        <ele>120.43</ele>
        <time>2019-05-18T12:53:13Z</time>
      </trkpt>
      <trkpt lat="48.45233" lon="2.65946">
        <ele>120.48</ele>
        <time>2019-05-18T12:53:30Z</time>
      </trkpt>
      <trkpt lat="48.45245" lon="2.6595">
        <ele>120.72</ele>
        <time>2019-05-18T12:53:42Z</time>
      </trkpt>
      <trkpt lat="48.45261" lon="2.65952">
        <ele>120.77</ele>
        <time>2019-05-18T12:53:55Z</time>
      </trkpt>
      <trkpt lat="48.45275" lon="2.65955">
        <ele>120.7</ele>
        <time>2019-05-18T12:54:07Z</time>
      </trkpt>
      <trkpt lat="48.45291" lon="2.65955">
        <ele>120.81</ele>
        <time>2019-05-18T12:54:20Z</time>
      </trkpt>
      <trkpt lat="48.45306" lon="2.6596">
        <ele>120.65</ele>
        <time>2019-05-18T12:54:35Z</time>
      </trkpt>
      <trkpt lat="48.45326" lon="2.65962">
        <ele>120.68</ele>
        <time>2019-05-18T12:54:55Z</time>
      </trkpt>
      <trkpt lat="48.45331" lon="2.65966">
        <ele>121.51</ele>
        <time>2019-05-18T12:55:20Z</time>
      </trkpt>
      <trkpt lat="48.45333" lon="2.65966">
        <ele>121.55</ele>
        <time>2019-05-18T12:55:22Z</time>
      </trkpt>
      <trkpt lat="48.45344" lon="2.65967">
        <ele>120.91</ele>
        <time>2019-05-18T12:55:31Z</time>
      </trkpt>
      <trkpt lat="48.45361" lon="2.65971">
        <ele>120.83</ele>
        <time>2019-05-18T12:55:43Z</time>
      </trkpt>
      <trkpt lat="48.4538" lon="2.65974">
        <ele>120.27</ele>
        <time>2019-05-18T12:55:59Z</time>
      </trkpt>
      <trkpt lat="48.45405" lon="2.65975">
        <ele>119.95</ele>
        <time>2019-05-18T12:56:20Z</time>
      </trkpt>
      <trkpt lat="48.45431" lon="2.65978">
        <ele>119.35</ele>
        <time>2019-05-18T12:56:38Z</time>
      </trkpt>
      <trkpt lat="48.45447" lon="2.65983">
        <ele>119.26</ele>
        <time>2019-05-18T12:56:51Z</time>
      </trkpt>
      <trkpt lat="48.4546" lon="2.65985">
        <ele>119.04</ele>
        <time>2019-05-18T12:57:08Z</time>
      </trkpt>
      <trkpt lat="48.45472" lon="2.65989">
        <ele>120.06</ele>
        <time>2019-05-18T12:57:30Z</time>
      </trkpt>
      <trkpt lat="48.45473" lon="2.65989">
        <ele>119.42</ele>
        <time>2019-05-18T12:57:56Z</time>
      </trkpt>
      <trkpt lat="48.45487" lon="2.65992">
        <ele>120.19</ele>
        <time>2019-05-18T13:02:55Z</time>
      </trkpt>
      <trkpt lat="48.45509" lon="2.65994">
        <ele>120.16</ele>
        <time>2019-05-18T13:03:16Z</time>
      </trkpt>
      <trkpt lat="48.45531" lon="2.65998">
        <ele>119.57</ele>
        <time>2019-05-18T13:03:38Z</time>
      </trkpt>
      <trkpt lat="48.45555" lon="2.66001">
        <ele>119.29</ele>
        <time>2019-05-18T13:03:58Z</time>
      </trkpt>
      <trkpt lat="48.45569" lon="2.66003">
        <ele>118.24</ele>
        <time>2019-05-18T13:04:10Z</time>
      </trkpt>
      <trkpt lat="48.45593" lon="2.66007">
        <ele>116.8</ele>
        <time>2019-05-18T13:04:30Z</time>
      </trkpt>
      <trkpt lat="48.45621" lon="2.66013">
        <ele>114.88</ele>
        <time>2019-05-18T13:04:52Z</time>
      </trkpt>
      <trkpt lat="48.45641" lon="2.66014">
        <ele>112.68</ele>
        <time>2019-05-18T13:05:11Z</time>
      </trkpt>
      <trkpt lat="48.45661" lon="2.66021">
        <ele>110.7</ele>
        <time>2019-05-18T13:06:01Z</time>
      </trkpt>
      <trkpt lat="48.45659" lon="2.66028">
        <ele>110.92</ele>
        <time>2019-05-18T13:06:22Z</time>
      </trkpt>
      <trkpt lat="48.4565" lon="2.66052">
        <ele>110.83</ele>
        <time>2019-05-18T13:06:41Z</time>
      </trkpt>
      <trkpt lat="48.45652" lon="2.66065">
        <ele>109.19</ele>
        <time>2019-05-18T13:06:55Z</time>
      </trkpt>
      <trkpt lat="48.45657" lon="2.66068">
        <ele>107.7</ele>
        <time>2019-05-18T13:07:20Z</time>
      </trkpt>
      <trkpt lat="48.45665" lon="2.66069">
        <ele>104.5</ele>
        <time>2019-05-18T13:07:31Z</time>
      </trkpt>
      <trkpt lat="48.45673" lon="2.66067">
        <ele>100.98</ele>
        <time>2019-05-18T13:07:39Z</time>
      </trkpt>
      <trkpt lat="48.45681" lon="2.66064">
        <ele>99.01</ele>
        <time>2019-05-18T13:07:56Z</time>
      </trkpt>
      <trkpt lat="48.45689" lon="2.66056">
        <ele>95.89</ele>
        <time>2019-05-18T13:08:10Z</time>
      </trkpt>
      <trkpt lat="48.45691" lon="2.66054">
        <ele>95.36</ele>
        <time>2019-05-18T13:08:13Z</time>
      </trkpt>
      <trkpt lat="48.45702" lon="2.66048">
        <ele>93.03</ele>
        <time>2019-05-18T13:08:26Z</time>
      </trkpt>
      <trkpt lat="48.45709" lon="2.66044">
        <ele>91.81</ele>
        <time>2019-05-18T13:08:34Z</time>
      </trkpt>
      <trkpt lat="48.45726" lon="2.66035">
        <ele>89.67</ele>
        <time>2019-05-18T13:08:52Z</time>
      </trkpt>
      <trkpt lat="48.45731" lon="2.66037">
        <ele>88.74</ele>
        <time>2019-05-18T13:09:16Z</time>
      </trkpt>
      <trkpt lat="48.45751" lon="2.66042">
        <ele>86.05</ele>
        <time>2019-05-18T13:09:35Z</time>
      </trkpt>
      <trkpt lat="48.4577" lon="2.66047">
        <ele>84.64</ele>
        <time>2019-05-18T13:09:51Z</time>
      </trkpt>
      <trkpt lat="48.45786" lon="2.66046">
        <ele>84.16</ele>
        <time>2019-05-18T13:10:11Z</time>
      </trkpt>
      <trkpt lat="48.45804" lon="2.6605">
        <ele>83.88</ele>
        <time>2019-05-18T13:10:32Z</time>
      </trkpt>
      <trkpt lat="48.45816" lon="2.66053">
        <ele>83.73</ele>
        <time>2019-05-18T13:10:43Z</time>
      </trkpt>
      <trkpt lat="48.45836" lon="2.6606">
        <ele>82.83</ele>
        <time>2019-05-18T13:10:57Z</time>
      </trkpt>
      <trkpt lat="48.45841" lon="2.66062">
        <ele>82.8</ele>
        <time>2019-05-18T13:11:00Z</time>
      </trkpt>
      <trkpt lat="48.45857" lon="2.66067">
        <ele>81.77</ele>
        <time>2019-05-18T13:11:12Z</time>
      </trkpt>
      <trkpt lat="48.45862" lon="2.66067">
        <ele>80.96</ele>
        <time>2019-05-18T13:11:16Z</time>
      </trkpt>
      <trkpt lat="48.45882" lon="2.66079">
        <ele>79.72</ele>
        <time>2019-05-18T13:11:34Z</time>
      </trkpt>
      <trkpt lat="48.45887" lon="2.66079">
        <ele>79.39</ele>
        <time>2019-05-18T13:11:37Z</time>
      </trkpt>
      <trkpt lat="48.45905" lon="2.66091">
        <ele>78.39</ele>
        <time>2019-05-18T13:11:55Z</time>
      </trkpt>
      <trkpt lat="48.45925" lon="2.66108">
        <ele>78.97</ele>
        <time>2019-05-18T13:12:15Z</time>
      </trkpt>
      <trkpt lat="48.45941" lon="2.6612">
        <ele>78.56</ele>
        <time>2019-05-18T13:12:29Z</time>
      </trkpt>
      <trkpt lat="48.4596" lon="2.66135">
        <ele>78.01</ele>
        <time>2019-05-18T13:12:47Z</time>
      </trkpt>
      <trkpt lat="48.45966" lon="2.66162">
        <ele>77.39</ele>
        <time>2019-05-18T13:13:02Z</time>
      </trkpt>
      <trkpt lat="48.45964" lon="2.66185">
        <ele>77.04</ele>
        <time>2019-05-18T13:13:17Z</time>
      </trkpt>
      <trkpt lat="48.45964" lon="2.6619">
        <ele>77.27</ele>
        <time>2019-05-18T13:13:20Z</time>
      </trkpt>
      <trkpt lat="48.45966" lon="2.66214">
        <ele>76.66</ele>
        <time>2019-05-18T13:13:38Z</time>
      </trkpt>
      <trkpt lat="48.45966" lon="2.66216">
        <ele>76.58</ele>
        <time>2019-05-18T13:13:39Z</time>
      </trkpt>
      <trkpt lat="48.45965" lon="2.66254">
        <ele>77.29</ele>
        <time>2019-05-18T13:13:56Z</time>
      </trkpt>
      <trkpt lat="48.4596" lon="2.66278">
        <ele>76.81</ele>
        <time>2019-05-18T13:14:12Z</time>
      </trkpt>
      <trkpt lat="48.45954" lon="2.66294">
        <ele>77.32</ele>
        <time>2019-05-18T13:14:24Z</time>
      </trkpt>
      <trkpt lat="48.45947" lon="2.66312">
        <ele>76.99</ele>
        <time>2019-05-18T13:14:39Z</time>
      </trkpt>
      <trkpt lat="48.45938" lon="2.66341">
        <ele>77.34</ele>
        <time>2019-05-18T13:14:58Z</time>
      </trkpt>
      <trkpt lat="48.45925" lon="2.66373">
        <ele>76.8</ele>
        <time>2019-05-18T13:15:15Z</time>
      </trkpt>
      <trkpt lat="48.45922" lon="2.66387">
        <ele>77.79</ele>
        <time>2019-05-18T13:15:29Z</time>
      </trkpt>
      <trkpt lat="48.45913" lon="2.66411">
        <ele>77.79</ele>
        <time>2019-05-18T13:15:45Z</time>
      </trkpt>
      <trkpt lat="48.45903" lon="2.66445">
        <ele>78.35</ele>
        <time>2019-05-18T13:16:04Z</time>
      </trkpt>
      <trkpt lat="48.45897" lon="2.66463">
        <ele>79.78</ele>
        <time>2019-05-18T13:16:17Z</time>
      </trkpt>
      <trkpt lat="48.45891" lon="2.66486">
        <ele>80.19</ele>
        <time>2019-05-18T13:16:33Z</time>
      </trkpt>
      <trkpt lat="48.45879" lon="2.66516">
        <ele>81</ele>
        <time>2019-05-18T13:16:50Z</time>
      </trkpt>
      <trkpt lat="48.4587" lon="2.66547">
        <ele>81.65</ele>
        <time>2019-05-18T13:17:09Z</time>
      </trkpt>
      <trkpt lat="48.45862" lon="2.66571">
        <ele>82.02</ele>
        <time>2019-05-18T13:17:26Z</time>
      </trkpt>
      <trkpt lat="48.45861" lon="2.66572">
        <ele>81.88</ele>
        <time>2019-05-18T13:17:27Z</time>
      </trkpt>
      <trkpt lat="48.45855" lon="2.66593">
        <ele>82.83</ele>
        <time>2019-05-18T13:17:41Z</time>
      </trkpt>
      <trkpt lat="48.45847" lon="2.6662">
        <ele>83.79</ele>
        <time>2019-05-18T13:17:58Z</time>
      </trkpt>
      <trkpt lat="48.45842" lon="2.66638">
        <ele>83.78</ele>
        <time>2019-05-18T13:18:14Z</time>
      </trkpt>
      <trkpt lat="48.45835" lon="2.66665">
        <ele>83.6</ele>
        <time>2019-05-18T13:18:33Z</time>
      </trkpt>
      <trkpt lat="48.45826" lon="2.66688">
        <ele>84.5</ele>
        <time>2019-05-18T13:18:51Z</time>
      </trkpt>
      <trkpt lat="48.45812" lon="2.66722">
        <ele>85.46</ele>
        <time>2019-05-18T13:19:16Z</time>
      </trkpt>
      <trkpt lat="48.45804" lon="2.66746">
        <ele>84.81</ele>
        <time>2019-05-18T13:19:38Z</time>
      </trkpt>
      <trkpt lat="48.45798" lon="2.66771">
        <ele>83.23</ele>
        <time>2019-05-18T13:19:53Z</time>
      </trkpt>
      <trkpt lat="48.45789" lon="2.668">
        <ele>81.36</ele>
        <time>2019-05-18T13:20:12Z</time>
      </trkpt>
      <trkpt lat="48.45783" lon="2.66814">
        <ele>81.85</ele>
        <time>2019-05-18T13:20:21Z</time>
      </trkpt>
      <trkpt lat="48.45778" lon="2.66829">
        <ele>81.35</ele>
        <time>2019-05-18T13:20:33Z</time>
      </trkpt>
      <trkpt lat="48.45771" lon="2.66854">
        <ele>80.99</ele>
        <time>2019-05-18T13:20:48Z</time>
      </trkpt>
      <trkpt lat="48.45762" lon="2.66881">
        <ele>80.77</ele>
        <time>2019-05-18T13:21:06Z</time>
      </trkpt>
      <trkpt lat="48.45755" lon="2.669">
        <ele>80.18</ele>
        <time>2019-05-18T13:21:18Z</time>
      </trkpt>
      <trkpt lat="48.45754" lon="2.66909">
        <ele>80.39</ele>
        <time>2019-05-18T13:21:31Z</time>
      </trkpt>
      <trkpt lat="48.45753" lon="2.66913">
        <ele>80.04</ele>
        <time>2019-05-18T13:21:36Z</time>
      </trkpt>
      <trkpt lat="48.45743" lon="2.66938">
        <ele>80.28</ele>
        <time>2019-05-18T13:21:52Z</time>
      </trkpt>
      <trkpt lat="48.45732" lon="2.66968">
        <ele>79.29</ele>
        <time>2019-05-18T13:22:12Z</time>
      </trkpt>
      <trkpt lat="48.45727" lon="2.66983">
        <ele>78.84</ele>
        <time>2019-05-18T13:22:21Z</time>
      </trkpt>
      <trkpt lat="48.45728" lon="2.67005">
        <ele>79.1</ele>
        <time>2019-05-18T13:22:38Z</time>
      </trkpt>
      <trkpt lat="48.4573" lon="2.67004">
        <ele>78.87</ele>
        <time>2019-05-18T13:23:02Z</time>
      </trkpt>
      <trkpt lat="48.4573" lon="2.67005">
        <ele>78.98</ele>
        <time>2019-05-18T13:23:03Z</time>
      </trkpt>
      <trkpt lat="48.45734" lon="2.67024">
        <ele>79.08</ele>
        <time>2019-05-18T13:23:14Z</time>
      </trkpt>
      <trkpt lat="48.45735" lon="2.67044">
        <ele>79.07</ele>
        <time>2019-05-18T13:23:28Z</time>
      </trkpt>
      <trkpt lat="48.45748" lon="2.67066">
        <ele>78.65</ele>
        <time>2019-05-18T13:23:45Z</time>
      </trkpt>
      <trkpt lat="48.45753" lon="2.67077">
        <ele>78.51</ele>
        <time>2019-05-18T13:23:53Z</time>
      </trkpt>
      <trkpt lat="48.45765" lon="2.67095">
        <ele>78.19</ele>
        <time>2019-05-18T13:24:10Z</time>
      </trkpt>
      <trkpt lat="48.45777" lon="2.67125">
        <ele>78.05</ele>
        <time>2019-05-18T13:24:31Z</time>
      </trkpt>
      <trkpt lat="48.45783" lon="2.67134">
        <ele>77.49</ele>
        <time>2019-05-18T13:24:38Z</time>
      </trkpt>
      <trkpt lat="48.45791" lon="2.67145">
        <ele>77.5</ele>
        <time>2019-05-18T13:24:49Z</time>
      </trkpt>
      <trkpt lat="48.45795" lon="2.67157">
        <ele>77.17</ele>
        <time>2019-05-18T13:24:57Z</time>
      </trkpt>
      <trkpt lat="48.45806" lon="2.67169">
        <ele>76.69</ele>
        <time>2019-05-18T13:25:11Z</time>
      </trkpt>
      <trkpt lat="48.4581" lon="2.67186">
        <ele>76.7</ele>
        <time>2019-05-18T13:25:32Z</time>
      </trkpt>
      <trkpt lat="48.45822" lon="2.67211">
        <ele>76.45</ele>
        <time>2019-05-18T13:25:52Z</time>
      </trkpt>
      <trkpt lat="48.45823" lon="2.67219">
        <ele>76.12</ele>
        <time>2019-05-18T13:26:11Z</time>
      </trkpt>
      <trkpt lat="48.45826" lon="2.67223">
        <ele>75.8</ele>
        <time>2019-05-18T13:26:16Z</time>
      </trkpt>
      <trkpt lat="48.45838" lon="2.67246">
        <ele>75.3</ele>
        <time>2019-05-18T13:26:32Z</time>
      </trkpt>
      <trkpt lat="48.4584" lon="2.67248">
        <ele>75.24</ele>
        <time>2019-05-18T13:26:34Z</time>
      </trkpt>
      <trkpt lat="48.45849" lon="2.67273">
        <ele>74.94</ele>
        <time>2019-05-18T13:26:50Z</time>
      </trkpt>
      <trkpt lat="48.45857" lon="2.67291">
        <ele>74.48</ele>
        <time>2019-05-18T13:27:03Z</time>
      </trkpt>
      <trkpt lat="48.45867" lon="2.67318">
        <ele>74.02</ele>
        <time>2019-05-18T13:27:22Z</time>
      </trkpt>
      <trkpt lat="48.45874" lon="2.67354">
        <ele>73.01</ele>
        <time>2019-05-18T13:27:43Z</time>
      </trkpt>
      <trkpt lat="48.45876" lon="2.67364">
        <ele>72.48</ele>
        <time>2019-05-18T13:27:47Z</time>
      </trkpt>
      <trkpt lat="48.45875" lon="2.67396">
        <ele>72.7</ele>
        <time>2019-05-18T13:28:01Z</time>
      </trkpt>
      <trkpt lat="48.4588" lon="2.67417">
        <ele>72.87</ele>
        <time>2019-05-18T13:28:15Z</time>
      </trkpt>
      <trkpt lat="48.45881" lon="2.67429">
        <ele>72.5</ele>
        <time>2019-05-18T13:28:22Z</time>
      </trkpt>
      <trkpt lat="48.45889" lon="2.67455">
        <ele>72.28</ele>
        <time>2019-05-18T13:28:42Z</time>
      </trkpt>
      <trkpt lat="48.45895" lon="2.67487">
        <ele>72.46</ele>
        <time>2019-05-18T13:28:59Z</time>
      </trkpt>
      <trkpt lat="48.45899" lon="2.67521">
        <ele>71.95</ele>
        <time>2019-05-18T13:29:16Z</time>
      </trkpt>
      <trkpt lat="48.45901" lon="2.67528">
        <ele>71.46</ele>
        <time>2019-05-18T13:29:20Z</time>
      </trkpt>
      <trkpt lat="48.45903" lon="2.67539">
        <ele>71.3</ele>
        <time>2019-05-18T13:29:26Z</time>
      </trkpt>
      <trkpt lat="48.45909" lon="2.67558">
        <ele>70.22</ele>
        <time>2019-05-18T13:29:39Z</time>
      </trkpt>
      <trkpt lat="48.45916" lon="2.6759">
        <ele>70.73</ele>
        <time>2019-05-18T13:29:58Z</time>
      </trkpt>
      <trkpt lat="48.4592" lon="2.67615">
        <ele>70.02</ele>
        <time>2019-05-18T13:30:12Z</time>
      </trkpt>
      <trkpt lat="48.45924" lon="2.6764">
        <ele>69.65</ele>
        <time>2019-05-18T13:30:27Z</time>
      </trkpt>
      <trkpt lat="48.45929" lon="2.67679">
        <ele>69.65</ele>
        <time>2019-05-18T13:30:46Z</time>
      </trkpt>
      <trkpt lat="48.45932" lon="2.67706">
        <ele>69.63</ele>
        <time>2019-05-18T13:30:59Z</time>
      </trkpt>
      <trkpt lat="48.45938" lon="2.67729">
        <ele>69.22</ele>
        <time>2019-05-18T13:31:15Z</time>
      </trkpt>
      <trkpt lat="48.45945" lon="2.67762">
        <ele>68.36</ele>
        <time>2019-05-18T13:31:36Z</time>
      </trkpt>
      <trkpt lat="48.45952" lon="2.67786">
        <ele>68.11</ele>
        <time>2019-05-18T13:31:54Z</time>
      </trkpt>
      <trkpt lat="48.45958" lon="2.67819">
        <ele>68.62</ele>
        <time>2019-05-18T13:32:11Z</time>
      </trkpt>
      <trkpt lat="48.45964" lon="2.67844">
        <ele>68.26</ele>
        <time>2019-05-18T13:32:26Z</time>
      </trkpt>
      <trkpt lat="48.45965" lon="2.67856">
        <ele>67.86</ele>
        <time>2019-05-18T13:32:32Z</time>
      </trkpt>
      <trkpt lat="48.4597" lon="2.67884">
        <ele>68.25</ele>
        <time>2019-05-18T13:32:49Z</time>
      </trkpt>
      <trkpt lat="48.45976" lon="2.67922">
        <ele>68.09</ele>
        <time>2019-05-18T13:33:10Z</time>
      </trkpt>
      <trkpt lat="48.45981" lon="2.67944">
        <ele>67.73</ele>
        <time>2019-05-18T13:33:27Z</time>
      </trkpt>
      <trkpt lat="48.45985" lon="2.67977">
        <ele>67.65</ele>
        <time>2019-05-18T13:33:44Z</time>
      </trkpt>
      <trkpt lat="48.45993" lon="2.6801">
        <ele>67.48</ele>
        <time>2019-05-18T13:34:05Z</time>
      </trkpt>
      <trkpt lat="48.46" lon="2.68044">
        <ele>67.06</ele>
        <time>2019-05-18T13:34:27Z</time>
      </trkpt>
      <trkpt lat="48.46008" lon="2.68083">
        <ele>65.67</ele>
        <time>2019-05-18T13:34:50Z</time>
      </trkpt>
      <trkpt lat="48.46013" lon="2.68105">
        <ele>66</ele>
        <time>2019-05-18T13:35:08Z</time>
      </trkpt>
      <trkpt lat="48.46013" lon="2.68109">
        <ele>65.65</ele>
        <time>2019-05-18T13:35:11Z</time>
      </trkpt>
      <trkpt lat="48.46015" lon="2.68123">
        <ele>65.18</ele>
        <time>2019-05-18T13:35:24Z</time>
      </trkpt>
      <trkpt lat="48.46023" lon="2.68148">
        <ele>65.24</ele>
        <time>2019-05-18T13:35:44Z</time>
      </trkpt>
      <trkpt lat="48.46028" lon="2.68186">
        <ele>64.87</ele>
        <time>2019-05-18T13:36:03Z</time>
      </trkpt>
      <trkpt lat="48.4603" lon="2.68211">
        <ele>64.63</ele>
        <time>2019-05-18T13:36:15Z</time>
      </trkpt>
      <trkpt lat="48.46039" lon="2.68239">
        <ele>64.78</ele>
        <time>2019-05-18T13:36:32Z</time>
      </trkpt>
      <trkpt lat="48.4605" lon="2.68261">
        <ele>63.81</ele>
        <time>2019-05-18T13:36:50Z</time>
      </trkpt>
      <trkpt lat="48.46059" lon="2.68272">
        <ele>63.89</ele>
        <time>2019-05-18T13:37:00Z</time>
      </trkpt>
      <trkpt lat="48.46068" lon="2.68276">
        <ele>64.16</ele>
        <time>2019-05-18T13:37:15Z</time>
      </trkpt>
      <trkpt lat="48.46073" lon="2.68284">
        <ele>64.27</ele>
        <time>2019-05-18T13:37:28Z</time>
      </trkpt>
      <trkpt lat="48.46074" lon="2.68297">
        <ele>64.47</ele>
        <time>2019-05-18T13:37:32Z</time>
      </trkpt>
      <trkpt lat="48.4608" lon="2.6832">
        <ele>64.17</ele>
        <time>2019-05-18T13:37:49Z</time>
      </trkpt>
      <trkpt lat="48.46095" lon="2.68339">
        <ele>64.24</ele>
        <time>2019-05-18T13:38:10Z</time>
      </trkpt>
      <trkpt lat="48.46118" lon="2.68365">
        <ele>63.97</ele>
        <time>2019-05-18T13:38:34Z</time>
      </trkpt>
      <trkpt lat="48.4614" lon="2.68392">
        <ele>63.79</ele>
        <time>2019-05-18T13:38:59Z</time>
      </trkpt>
      <trkpt lat="48.4616" lon="2.68417">
        <ele>63.06</ele>
        <time>2019-05-18T13:39:20Z</time>
      </trkpt>
      <trkpt lat="48.46177" lon="2.68433">
        <ele>63.01</ele>
        <time>2019-05-18T13:39:34Z</time>
      </trkpt>
      <trkpt lat="48.46194" lon="2.68446">
        <ele>62.65</ele>
        <time>2019-05-18T13:39:51Z</time>
      </trkpt>
      <trkpt lat="48.46206" lon="2.68464">
        <ele>62.02</ele>
        <time>2019-05-18T13:40:07Z</time>
      </trkpt>
      <trkpt lat="48.46217" lon="2.68483">
        <ele>61.7</ele>
        <time>2019-05-18T13:40:24Z</time>
      </trkpt>
      <trkpt lat="48.46231" lon="2.68495">
        <ele>61.88</ele>
        <time>2019-05-18T13:40:38Z</time>
      </trkpt>
      <trkpt lat="48.46233" lon="2.68494">
        <ele>61.89</ele>
        <time>2019-05-18T13:40:39Z</time>
      </trkpt>
      <trkpt lat="48.46256" lon="2.68524">
        <ele>61.86</ele>
        <time>2019-05-18T13:40:59Z</time>
      </trkpt>
      <trkpt lat="48.4627" lon="2.68542">
        <ele>61.88</ele>
        <time>2019-05-18T13:41:15Z</time>
      </trkpt>
      <trkpt lat="48.46284" lon="2.6856">
        <ele>61.14</ele>
        <time>2019-05-18T13:41:35Z</time>
      </trkpt>
      <trkpt lat="48.46302" lon="2.68578">
        <ele>60.99</ele>
        <time>2019-05-18T13:41:57Z</time>
      </trkpt>
      <trkpt lat="48.46317" lon="2.68601">
        <ele>60.94</ele>
        <time>2019-05-18T13:42:16Z</time>
      </trkpt>
      <trkpt lat="48.46333" lon="2.68622">
        <ele>60.75</ele>
        <time>2019-05-18T13:42:34Z</time>
      </trkpt>
      <trkpt lat="48.46343" lon="2.68627">
        <ele>60.82</ele>
        <time>2019-05-18T13:42:44Z</time>
      </trkpt>
      <trkpt lat="48.46361" lon="2.6862">
        <ele>60.3</ele>
        <time>2019-05-18T13:42:57Z</time>
      </trkpt>
      <trkpt lat="48.46372" lon="2.68611">
        <ele>59.65</ele>
        <time>2019-05-18T13:43:09Z</time>
      </trkpt>
      <trkpt lat="48.46375" lon="2.6861">
        <ele>59.81</ele>
        <time>2019-05-18T13:43:11Z</time>
      </trkpt>
      <trkpt lat="48.46391" lon="2.68599">
        <ele>59.77</ele>
        <time>2019-05-18T13:43:24Z</time>
      </trkpt>
      <trkpt lat="48.46411" lon="2.68589">
        <ele>59.62</ele>
        <time>2019-05-18T13:43:41Z</time>
      </trkpt>
      <trkpt lat="48.46413" lon="2.68586">
        <ele>59.76</ele>
        <time>2019-05-18T13:43:43Z</time>
      </trkpt>
      <trkpt lat="48.46429" lon="2.68572">
        <ele>59.92</ele>
        <time>2019-05-18T13:43:57Z</time>
      </trkpt>
      <trkpt lat="48.46445" lon="2.68558">
        <ele>60.18</ele>
        <time>2019-05-18T13:44:14Z</time>
      </trkpt>
      <trkpt lat="48.46467" lon="2.68544">
        <ele>60.52</ele>
        <time>2019-05-18T13:44:34Z</time>
      </trkpt>
      <trkpt lat="48.46491" lon="2.68524">
        <ele>60.04</ele>
        <time>2019-05-18T13:44:58Z</time>
      </trkpt>
      <trkpt lat="48.46508" lon="2.68507">
        <ele>60.16</ele>
        <time>2019-05-18T13:45:18Z</time>
      </trkpt>
      <trkpt lat="48.4653" lon="2.68488">
        <ele>59.79</ele>
        <time>2019-05-18T13:45:39Z</time>
      </trkpt>
      <trkpt lat="48.46546" lon="2.68473">
        <ele>59.19</ele>
        <time>2019-05-18T13:45:56Z</time>
      </trkpt>
      <trkpt lat="48.46567" lon="2.68459">
        <ele>58.5</ele>
        <time>2019-05-18T13:46:14Z</time>
      </trkpt>
      <trkpt lat="48.46588" lon="2.68443">
        <ele>58.22</ele>
        <time>2019-05-18T13:46:34Z</time>
      </trkpt>
      <trkpt lat="48.46611" lon="2.68428">
        <ele>57.93</ele>
        <time>2019-05-18T13:46:51Z</time>
      </trkpt>
      <trkpt lat="48.46632" lon="2.68407">
        <ele>56.91</ele>
        <time>2019-05-18T13:47:13Z</time>
      </trkpt>
      <trkpt lat="48.46643" lon="2.68397">
        <ele>57.11</ele>
        <time>2019-05-18T13:47:22Z</time>
      </trkpt>
      <trkpt lat="48.4666" lon="2.68382">
        <ele>55.83</ele>
        <time>2019-05-18T13:47:40Z</time>
      </trkpt>
      <trkpt lat="48.46685" lon="2.68366">
        <ele>55.97</ele>
        <time>2019-05-18T13:48:01Z</time>
      </trkpt>
      <trkpt lat="48.46703" lon="2.68347">
        <ele>56.41</ele>
        <time>2019-05-18T13:48:22Z</time>
      </trkpt>
      <trkpt lat="48.4672" lon="2.68339">
        <ele>56.83</ele>
        <time>2019-05-18T13:48:32Z</time>
      </trkpt>
      <trkpt lat="48.46738" lon="2.68327">
        <ele>56.93</ele>
        <time>2019-05-18T13:48:50Z</time>
      </trkpt>
      <trkpt lat="48.46756" lon="2.68313">
        <ele>57.11</ele>
        <time>2019-05-18T13:49:05Z</time>
      </trkpt>
      <trkpt lat="48.46764" lon="2.68309">
        <ele>56.99</ele>
        <time>2019-05-18T13:49:14Z</time>
      </trkpt>
      <trkpt lat="48.46771" lon="2.68305">
        <ele>56.93</ele>
        <time>2019-05-18T13:49:18Z</time>
      </trkpt>
      <trkpt lat="48.46774" lon="2.68303">
        <ele>56.71</ele>
        <time>2019-05-18T13:49:20Z</time>
      </trkpt>
      <trkpt lat="48.46787" lon="2.68286">
        <ele>56.91</ele>
        <time>2019-05-18T13:49:34Z</time>
      </trkpt>
      <trkpt lat="48.46791" lon="2.68284">
        <ele>56.69</ele>
        <time>2019-05-18T13:49:37Z</time>
      </trkpt>
      <trkpt lat="48.46792" lon="2.68282">
        <ele>57.08</ele>
        <time>2019-05-18T13:49:39Z</time>
      </trkpt>
      <trkpt lat="48.46809" lon="2.68271">
        <ele>57.13</ele>
        <time>2019-05-18T13:49:56Z</time>
      </trkpt>
      <trkpt lat="48.46823" lon="2.6826">
        <ele>57.04</ele>
        <time>2019-05-18T13:50:07Z</time>
      </trkpt>
      <trkpt lat="48.4684" lon="2.68249">
        <ele>57.19</ele>
        <time>2019-05-18T13:50:24Z</time>
      </trkpt>
      <trkpt lat="48.46855" lon="2.68235">
        <ele>58.09</ele>
        <time>2019-05-18T13:50:39Z</time>
      </trkpt>
      <trkpt lat="48.46873" lon="2.68224">
        <ele>58.58</ele>
        <time>2019-05-18T13:50:55Z</time>
      </trkpt>
      <trkpt lat="48.46889" lon="2.6821">
        <ele>58.33</ele>
        <time>2019-05-18T13:51:13Z</time>
      </trkpt>
      <trkpt lat="48.46913" lon="2.6819">
        <ele>58.89</ele>
        <time>2019-05-18T13:51:34Z</time>
      </trkpt>
      <trkpt lat="48.46918" lon="2.68187">
        <ele>58.95</ele>
        <time>2019-05-18T13:51:39Z</time>
      </trkpt>
      <trkpt lat="48.46937" lon="2.68172">
        <ele>59.36</ele>
        <time>2019-05-18T13:51:56Z</time>
      </trkpt>
      <trkpt lat="48.46955" lon="2.68163">
        <ele>59.4</ele>
        <time>2019-05-18T13:52:11Z</time>
      </trkpt>
      <trkpt lat="48.46962" lon="2.68159">
        <ele>59.92</ele>
        <time>2019-05-18T13:52:20Z</time>
      </trkpt>
      <trkpt lat="48.46971" lon="2.68155">
        <ele>59.88</ele>
        <time>2019-05-18T13:52:48Z</time>
      </trkpt>
      <trkpt lat="48.46965" lon="2.68157">
        <ele>59.78</ele>
        <time>2019-05-18T13:53:11Z</time>
      </trkpt>
      <trkpt lat="48.46969" lon="2.68163">
        <ele>59.91</ele>
        <time>2019-05-18T13:53:32Z</time>
      </trkpt>
      <trkpt lat="48.4697" lon="2.68154">
        <ele>59.86</ele>
        <time>2019-05-18T13:53:57Z</time>
      </trkpt>
      <trkpt lat="48.46969" lon="2.68151">
        <ele>60.12</ele>
        <time>2019-05-18T13:54:27Z</time>
      </trkpt>
      <trkpt lat="48.46971" lon="2.68164">
        <ele>60.5</ele>
        <time>2019-05-18T13:54:52Z</time>
      </trkpt>
      <trkpt lat="48.46976" lon="2.68176">
        <ele>60.34</ele>
        <time>2019-05-18T13:55:00Z</time>
      </trkpt>
      <trkpt lat="48.46993" lon="2.68213">
        <ele>61.26</ele>
        <time>2019-05-18T13:55:21Z</time>
      </trkpt>
      <trkpt lat="48.47002" lon="2.68244">
        <ele>61.35</ele>
        <time>2019-05-18T13:55:41Z</time>
      </trkpt>
      <trkpt lat="48.47012" lon="2.68273">
        <ele>61.87</ele>
        <time>2019-05-18T13:56:01Z</time>
      </trkpt>
      <trkpt lat="48.47022" lon="2.68309">
        <ele>62.26</ele>
        <time>2019-05-18T13:56:23Z</time>
      </trkpt>
      <trkpt lat="48.47031" lon="2.68349">
        <ele>62.17</ele>
        <time>2019-05-18T13:56:45Z</time>
      </trkpt>
      <trkpt lat="48.47033" lon="2.68364">
        <ele>62.19</ele>
        <time>2019-05-18T13:56:54Z</time>
      </trkpt>
      <trkpt lat="48.4704" lon="2.68383">
        <ele>62.3</ele>
        <time>2019-05-18T13:57:05Z</time>
      </trkpt>
      <trkpt lat="48.47048" lon="2.68407">
        <ele>62.66</ele>
        <time>2019-05-18T13:57:19Z</time>
      </trkpt>
      <trkpt lat="48.47057" lon="2.68431">
        <ele>62.87</ele>
        <time>2019-05-18T13:57:34Z</time>
      </trkpt>
      <trkpt lat="48.47061" lon="2.68432">
        <ele>63.07</ele>
        <time>2019-05-18T13:57:51Z</time>
      </trkpt>
      <trkpt lat="48.47063" lon="2.68442">
        <ele>63.57</ele>
        <time>2019-05-18T13:58:15Z</time>
      </trkpt>
      <trkpt lat="48.4707" lon="2.68468">
        <ele>62.83</ele>
        <time>2019-05-18T13:58:29Z</time>
      </trkpt>
      <trkpt lat="48.47074" lon="2.68488">
        <ele>62.5</ele>
        <time>2019-05-18T13:58:41Z</time>
      </trkpt>
      <trkpt lat="48.47077" lon="2.68509">
        <ele>62.84</ele>
        <time>2019-05-18T13:58:57Z</time>
      </trkpt>
      <trkpt lat="48.47089" lon="2.68543">
        <ele>62.47</ele>
        <time>2019-05-18T13:59:17Z</time>
      </trkpt>
      <trkpt lat="48.47105" lon="2.68573">
        <ele>62.55</ele>
        <time>2019-05-18T13:59:38Z</time>
      </trkpt>
      <trkpt lat="48.47106" lon="2.68579">
        <ele>62.53</ele>
        <time>2019-05-18T13:59:44Z</time>
      </trkpt>
      <trkpt lat="48.47112" lon="2.68598">
        <ele>62.06</ele>
        <time>2019-05-18T13:59:56Z</time>
      </trkpt>
      <trkpt lat="48.47112" lon="2.68604">
        <ele>62.91</ele>
        <time>2019-05-18T13:59:59Z</time>
      </trkpt>
      <trkpt lat="48.47117" lon="2.6864">
        <ele>62.99</ele>
        <time>2019-05-18T14:00:16Z</time>
      </trkpt>
      <trkpt lat="48.47118" lon="2.68646">
        <ele>63.01</ele>
        <time>2019-05-18T14:00:19Z</time>
      </trkpt>
      <trkpt lat="48.47121" lon="2.6866">
        <ele>62.82</ele>
        <time>2019-05-18T14:00:29Z</time>
      </trkpt>
      <trkpt lat="48.47121" lon="2.68667">
        <ele>62.56</ele>
        <time>2019-05-18T14:00:32Z</time>
      </trkpt>
      <trkpt lat="48.47126" lon="2.68687">
        <ele>63.21</ele>
        <time>2019-05-18T14:00:45Z</time>
      </trkpt>
      <trkpt lat="48.47133" lon="2.68706">
        <ele>62.3</ele>
        <time>2019-05-18T14:00:57Z</time>
      </trkpt>
      <trkpt lat="48.47139" lon="2.6872">
        <ele>62.43</ele>
        <time>2019-05-18T14:01:06Z</time>
      </trkpt>
      <trkpt lat="48.47149" lon="2.68745">
        <ele>62.18</ele>
        <time>2019-05-18T14:01:23Z</time>
      </trkpt>
      <trkpt lat="48.47161" lon="2.68772">
        <ele>62.07</ele>
        <time>2019-05-18T14:01:40Z</time>
      </trkpt>
      <trkpt lat="48.4717" lon="2.688">
        <ele>61.59</ele>
        <time>2019-05-18T14:01:55Z</time>
      </trkpt>
      <trkpt lat="48.47172" lon="2.68821">
        <ele>60.79</ele>
        <time>2019-05-18T14:02:09Z</time>
      </trkpt>
      <trkpt lat="48.47177" lon="2.68854">
        <ele>60.64</ele>
        <time>2019-05-18T14:02:29Z</time>
      </trkpt>
      <trkpt lat="48.47183" lon="2.68881">
        <ele>59.97</ele>
        <time>2019-05-18T14:02:49Z</time>
      </trkpt>
      <trkpt lat="48.47183" lon="2.68882">
        <ele>60.1</ele>
        <time>2019-05-18T14:02:56Z</time>
      </trkpt>
      <trkpt lat="48.47186" lon="2.6889">
        <ele>59.66</ele>
        <time>2019-05-18T14:03:06Z</time>
      </trkpt>
      <trkpt lat="48.47203" lon="2.68926">
        <ele>59.24</ele>
        <time>2019-05-18T14:03:29Z</time>
      </trkpt>
      <trkpt lat="48.47211" lon="2.68949">
        <ele>59.49</ele>
        <time>2019-05-18T14:03:45Z</time>
      </trkpt>
      <trkpt lat="48.47213" lon="2.68958">
        <ele>59.09</ele>
        <time>2019-05-18T14:03:49Z</time>
      </trkpt>
      <trkpt lat="48.47223" lon="2.68994">
        <ele>59.32</ele>
        <time>2019-05-18T14:04:08Z</time>
      </trkpt>
      <trkpt lat="48.47231" lon="2.69006">
        <ele>59.16</ele>
        <time>2019-05-18T14:04:26Z</time>
      </trkpt>
      <trkpt lat="48.47233" lon="2.69027">
        <ele>59.06</ele>
        <time>2019-05-18T14:04:42Z</time>
      </trkpt>
      <trkpt lat="48.47237" lon="2.69036">
        <ele>59.32</ele>
        <time>2019-05-18T14:04:53Z</time>
      </trkpt>
      <trkpt lat="48.47244" lon="2.69059">
        <ele>59.11</ele>
        <time>2019-05-18T14:05:12Z</time>
      </trkpt>
      <trkpt lat="48.47244" lon="2.69061">
        <ele>58.99</ele>
        <time>2019-05-18T14:05:14Z</time>
      </trkpt>
      <trkpt lat="48.4725" lon="2.6909">
        <ele>59.45</ele>
        <time>2019-05-18T14:05:31Z</time>
      </trkpt>
      <trkpt lat="48.4725" lon="2.69091">
        <ele>59.17</ele>
        <time>2019-05-18T14:05:32Z</time>
      </trkpt>
      <trkpt lat="48.47256" lon="2.69114">
        <ele>59.44</ele>
        <time>2019-05-18T14:05:48Z</time>
      </trkpt>
      <trkpt lat="48.47266" lon="2.69142">
        <ele>58.45</ele>
        <time>2019-05-18T14:06:04Z</time>
      </trkpt>
      <trkpt lat="48.47275" lon="2.69161">
        <ele>58.77</ele>
        <time>2019-05-18T14:06:14Z</time>
      </trkpt>
      <trkpt lat="48.47277" lon="2.69168">
        <ele>58.33</ele>
        <time>2019-05-18T14:06:18Z</time>
      </trkpt>
      <trkpt lat="48.47288" lon="2.69187">
        <ele>57.84</ele>
        <time>2019-05-18T14:06:31Z</time>
      </trkpt>
      <trkpt lat="48.47295" lon="2.69203">
        <ele>57.46</ele>
        <time>2019-05-18T14:06:42Z</time>
      </trkpt>
      <trkpt lat="48.47304" lon="2.69227">
        <ele>57.01</ele>
        <time>2019-05-18T14:06:56Z</time>
      </trkpt>
      <trkpt lat="48.47311" lon="2.69249">
        <ele>56.49</ele>
        <time>2019-05-18T14:07:12Z</time>
      </trkpt>
      <trkpt lat="48.47311" lon="2.69251">
        <ele>56.64</ele>
        <time>2019-05-18T14:07:13Z</time>
      </trkpt>
      <trkpt lat="48.47328" lon="2.6926">
        <ele>56.34</ele>
        <time>2019-05-18T14:07:27Z</time>
      </trkpt>
      <trkpt lat="48.47341" lon="2.69245">
        <ele>56.19</ele>
        <time>2019-05-18T14:07:42Z</time>
      </trkpt>
      <trkpt lat="48.47353" lon="2.69233">
        <ele>56.7</ele>
        <time>2019-05-18T14:07:52Z</time>
      </trkpt>
      <trkpt lat="48.4736" lon="2.69228">
        <ele>56.65</ele>
        <time>2019-05-18T14:08:00Z</time>
      </trkpt>
      <trkpt lat="48.47363" lon="2.69224">
        <ele>56.65</ele>
        <time>2019-05-18T14:08:03Z</time>
      </trkpt>
      <trkpt lat="48.47366" lon="2.69216">
        <ele>56.81</ele>
        <time>2019-05-18T14:08:08Z</time>
      </trkpt>
      <trkpt lat="48.47375" lon="2.69188">
        <ele>56.88</ele>
        <time>2019-05-18T14:08:25Z</time>
      </trkpt>
      <trkpt lat="48.4738" lon="2.69176">
        <ele>57.19</ele>
        <time>2019-05-18T14:08:33Z</time>
      </trkpt>
      <trkpt lat="48.47386" lon="2.69154">
        <ele>57.05</ele>
        <time>2019-05-18T14:08:46Z</time>
      </trkpt>
      <trkpt lat="48.47399" lon="2.6912">
        <ele>57.19</ele>
        <time>2019-05-18T14:09:04Z</time>
      </trkpt>
      <trkpt lat="48.4741" lon="2.69086">
        <ele>57.44</ele>
        <time>2019-05-18T14:09:24Z</time>
      </trkpt>
      <trkpt lat="48.47416" lon="2.69071">
        <ele>57.52</ele>
        <time>2019-05-18T14:09:34Z</time>
      </trkpt>
      <trkpt lat="48.47428" lon="2.69082">
        <ele>56.07</ele>
        <time>2019-05-18T14:09:48Z</time>
      </trkpt>
      <trkpt lat="48.47443" lon="2.69099">
        <ele>56.31</ele>
        <time>2019-05-18T14:10:03Z</time>
      </trkpt>
      <trkpt lat="48.47453" lon="2.69111">
        <ele>55.53</ele>
        <time>2019-05-18T14:10:17Z</time>
      </trkpt>
      <trkpt lat="48.4746" lon="2.69117">
        <ele>54.57</ele>
        <time>2019-05-18T14:10:24Z</time>
      </trkpt>
      <trkpt lat="48.4747" lon="2.69128">
        <ele>54.37</ele>
        <time>2019-05-18T14:10:38Z</time>
      </trkpt>
      <trkpt lat="48.47483" lon="2.69145">
        <ele>53.64</ele>
        <time>2019-05-18T14:10:53Z</time>
      </trkpt>
      <trkpt lat="48.47508" lon="2.69168">
        <ele>53.62</ele>
        <time>2019-05-18T14:11:14Z</time>
      </trkpt>
      <trkpt lat="48.47531" lon="2.69188">
        <ele>52.94</ele>
        <time>2019-05-18T14:11:35Z</time>
      </trkpt>
      <trkpt lat="48.47536" lon="2.69194">
        <ele>53.49</ele>
        <time>2019-05-18T14:11:41Z</time>
      </trkpt>
      <trkpt lat="48.47545" lon="2.69198">
        <ele>53</ele>
        <time>2019-05-18T14:11:56Z</time>
      </trkpt>
      <trkpt lat="48.47551" lon="2.69193">
        <ele>53.79</ele>
        <time>2019-05-18T14:12:09Z</time>
      </trkpt>
      <trkpt lat="48.47557" lon="2.69185">
        <ele>53.7</ele>
        <time>2019-05-18T14:12:25Z</time>
      </trkpt>
      <trkpt lat="48.47553" lon="2.69175">
        <ele>53.96</ele>
        <time>2019-05-18T14:12:43Z</time>
      </trkpt>
    </trkseg>
  </trk>
</gpx>